<?xml version="1.0" encoding="UTF-8" standalone="no" ?>
<gpx xmlns="http://www.topografix.com/GPX/1/1" xmlns:xsi="http://www.w3.org/2001/XMLSchema-instance" xsi:schemaLocation="http://www.topografix.com/GPX/1/1 http://www.topografix.com/GPX/1/1/gpx.xsd" version="1.1" creator="VisuGPX - https://www.visugpx.com">
  <metadata>
    <name>GR5 de Thann (Haut-Rhin) à Soulce-Cernay (Doubs)</name>
    <desc><![CDATA[GR5 de Thann (Haut-Rhin) à Soulce-Cernay (Doubs)]]></desc>
  </metadata>
  <trk>
    <name><![CDATA[GR5 De Thann (Haut-Rhin) à Soulce-Cernay (Doubs)]]></name>
    <cmt><![CDATA[Randonnée avec le GR5 à travers la Haut-Rhin et le Doubs de Thann à Soulce-Cernay. Gîtes d'étapes, Chambres d'hôtes, Hôtels, Camping, Refuges, Auberges.]]></cmt>
    <desc><![CDATA[Randonnée avec le GR5 à travers la Haut-Rhin et le Doubs de Thann à Soulce-Cernay. Gîtes d'étapes, Chambres d'hôtes, Hôtels, Camping, Refuges, Auberges.]]></desc>
    <trkseg>
      <trkpt lat="47.8113" lon="7.10355">
        <ele>336</ele>
        <time>2015-06-28T07:35:32Z</time>
      </trkpt>
      <trkpt lat="47.81059" lon="7.10292">
        <ele>337</ele>
        <time>2015-06-28T07:35:52Z</time>
      </trkpt>
      <trkpt lat="47.81064" lon="7.10284">
        <ele>337</ele>
        <time>2015-06-28T07:36:12Z</time>
      </trkpt>
      <trkpt lat="47.80972" lon="7.10212">
        <ele>341</ele>
        <time>2015-06-28T07:36:32Z</time>
      </trkpt>
      <trkpt lat="47.80955" lon="7.10205">
        <ele>341</ele>
        <time>2015-06-28T07:36:52Z</time>
      </trkpt>
      <trkpt lat="47.8098" lon="7.10121">
        <ele>344</ele>
        <time>2015-06-28T07:37:12Z</time>
      </trkpt>
      <trkpt lat="47.80993" lon="7.10095">
        <ele>345</ele>
        <time>2015-06-28T07:37:32Z</time>
      </trkpt>
      <trkpt lat="47.80969" lon="7.10062">
        <ele>352</ele>
        <time>2015-06-28T07:37:52Z</time>
      </trkpt>
      <trkpt lat="47.80905" lon="7.09987">
        <ele>367</ele>
        <time>2015-06-28T07:38:12Z</time>
      </trkpt>
      <trkpt lat="47.80851" lon="7.0996">
        <ele>371</ele>
        <time>2015-06-28T07:38:32Z</time>
      </trkpt>
      <trkpt lat="47.80829" lon="7.09937">
        <ele>373</ele>
        <time>2015-06-28T07:38:52Z</time>
      </trkpt>
      <trkpt lat="47.80821" lon="7.09918">
        <ele>376</ele>
        <time>2015-06-28T07:39:12Z</time>
      </trkpt>
      <trkpt lat="47.80753" lon="7.09886">
        <ele>384</ele>
        <time>2015-06-28T07:39:32Z</time>
      </trkpt>
      <trkpt lat="47.80727" lon="7.09839">
        <ele>378</ele>
        <time>2015-06-28T07:39:52Z</time>
      </trkpt>
      <trkpt lat="47.80704" lon="7.09771">
        <ele>387</ele>
        <time>2015-06-28T07:40:12Z</time>
      </trkpt>
      <trkpt lat="47.80693" lon="7.09682">
        <ele>401</ele>
        <time>2015-06-28T07:40:32Z</time>
      </trkpt>
      <trkpt lat="47.80683" lon="7.09638">
        <ele>410</ele>
        <time>2015-06-28T07:40:52Z</time>
      </trkpt>
      <trkpt lat="47.80686" lon="7.09599">
        <ele>414</ele>
        <time>2015-06-28T07:41:12Z</time>
      </trkpt>
      <trkpt lat="47.80707" lon="7.09522">
        <ele>429</ele>
        <time>2015-06-28T07:41:32Z</time>
      </trkpt>
      <trkpt lat="47.80725" lon="7.09586">
        <ele>428</ele>
        <time>2015-06-28T07:41:52Z</time>
      </trkpt>
      <trkpt lat="47.80766" lon="7.09665">
        <ele>444</ele>
        <time>2015-06-28T07:42:12Z</time>
      </trkpt>
      <trkpt lat="47.80782" lon="7.09686">
        <ele>440</ele>
        <time>2015-06-28T07:42:32Z</time>
      </trkpt>
      <trkpt lat="47.80761" lon="7.09576">
        <ele>455</ele>
        <time>2015-06-28T07:42:52Z</time>
      </trkpt>
      <trkpt lat="47.80754" lon="7.09502">
        <ele>455</ele>
        <time>2015-06-28T07:43:12Z</time>
      </trkpt>
      <trkpt lat="47.80766" lon="7.09328">
        <ele>459</ele>
        <time>2015-06-28T07:43:32Z</time>
      </trkpt>
      <trkpt lat="47.80789" lon="7.09251">
        <ele>465</ele>
        <time>2015-06-28T07:43:52Z</time>
      </trkpt>
      <trkpt lat="47.80821" lon="7.09179">
        <ele>465</ele>
        <time>2015-06-28T07:44:12Z</time>
      </trkpt>
      <trkpt lat="47.80841" lon="7.09143">
        <ele>474</ele>
        <time>2015-06-28T07:44:32Z</time>
      </trkpt>
      <trkpt lat="47.80878" lon="7.09054">
        <ele>468</ele>
        <time>2015-06-28T07:44:52Z</time>
      </trkpt>
      <trkpt lat="47.80921" lon="7.08972">
        <ele>474</ele>
        <time>2015-06-28T07:45:12Z</time>
      </trkpt>
      <trkpt lat="47.80946" lon="7.0895">
        <ele>473</ele>
        <time>2015-06-28T07:45:32Z</time>
      </trkpt>
      <trkpt lat="47.80977" lon="7.08952">
        <ele>474</ele>
        <time>2015-06-28T07:45:52Z</time>
      </trkpt>
      <trkpt lat="47.81019" lon="7.089">
        <ele>477</ele>
        <time>2015-06-28T07:46:12Z</time>
      </trkpt>
      <trkpt lat="47.81034" lon="7.08885">
        <ele>477</ele>
        <time>2015-06-28T07:46:32Z</time>
      </trkpt>
      <trkpt lat="47.81073" lon="7.08756">
        <ele>479</ele>
        <time>2015-06-28T07:46:52Z</time>
      </trkpt>
      <trkpt lat="47.81104" lon="7.08586">
        <ele>484</ele>
        <time>2015-06-28T07:47:12Z</time>
      </trkpt>
      <trkpt lat="47.8113" lon="7.0851">
        <ele>498</ele>
        <time>2015-06-28T07:47:32Z</time>
      </trkpt>
      <trkpt lat="47.81114" lon="7.08448">
        <ele>517</ele>
        <time>2015-06-28T07:47:52Z</time>
      </trkpt>
      <trkpt lat="47.81093" lon="7.08413">
        <ele>530</ele>
        <time>2015-06-28T07:48:12Z</time>
      </trkpt>
      <trkpt lat="47.81086" lon="7.08389">
        <ele>536</ele>
        <time>2015-06-28T07:48:32Z</time>
      </trkpt>
      <trkpt lat="47.81059" lon="7.08371">
        <ele>532</ele>
        <time>2015-06-28T07:48:52Z</time>
      </trkpt>
      <trkpt lat="47.80991" lon="7.08373">
        <ele>513</ele>
        <time>2015-06-28T07:49:12Z</time>
      </trkpt>
      <trkpt lat="47.80986" lon="7.08318">
        <ele>518</ele>
        <time>2015-06-28T07:49:32Z</time>
      </trkpt>
      <trkpt lat="47.81018" lon="7.08089">
        <ele>540</ele>
        <time>2015-06-28T07:49:52Z</time>
      </trkpt>
      <trkpt lat="47.8102" lon="7.07966">
        <ele>552</ele>
        <time>2015-06-28T07:50:12Z</time>
      </trkpt>
      <trkpt lat="47.81004" lon="7.0792">
        <ele>543</ele>
        <time>2015-06-28T07:50:32Z</time>
      </trkpt>
      <trkpt lat="47.80994" lon="7.0782">
        <ele>546</ele>
        <time>2015-06-28T07:50:52Z</time>
      </trkpt>
      <trkpt lat="47.8093" lon="7.07601">
        <ele>549</ele>
        <time>2015-06-28T07:51:12Z</time>
      </trkpt>
      <trkpt lat="47.80932" lon="7.07567">
        <ele>543</ele>
        <time>2015-06-28T07:51:32Z</time>
      </trkpt>
      <trkpt lat="47.80946" lon="7.07545">
        <ele>541</ele>
        <time>2015-06-28T07:51:52Z</time>
      </trkpt>
      <trkpt lat="47.81121" lon="7.07575">
        <ele>554</ele>
        <time>2015-06-28T07:52:12Z</time>
      </trkpt>
      <trkpt lat="47.81177" lon="7.07559">
        <ele>563</ele>
        <time>2015-06-28T07:52:32Z</time>
      </trkpt>
      <trkpt lat="47.81185" lon="7.07514">
        <ele>563</ele>
        <time>2015-06-28T07:52:52Z</time>
      </trkpt>
      <trkpt lat="47.81131" lon="7.07361">
        <ele>567</ele>
        <time>2015-06-28T07:53:12Z</time>
      </trkpt>
      <trkpt lat="47.81118" lon="7.07297">
        <ele>574</ele>
        <time>2015-06-28T07:53:32Z</time>
      </trkpt>
      <trkpt lat="47.81115" lon="7.07138">
        <ele>576</ele>
        <time>2015-06-28T07:53:52Z</time>
      </trkpt>
      <trkpt lat="47.81128" lon="7.0707">
        <ele>572</ele>
        <time>2015-06-28T07:54:12Z</time>
      </trkpt>
      <trkpt lat="47.81155" lon="7.07022">
        <ele>573</ele>
        <time>2015-06-28T07:54:32Z</time>
      </trkpt>
      <trkpt lat="47.81198" lon="7.07014">
        <ele>593</ele>
        <time>2015-06-28T07:54:52Z</time>
      </trkpt>
      <trkpt lat="47.81233" lon="7.06977">
        <ele>587</ele>
        <time>2015-06-28T07:55:12Z</time>
      </trkpt>
      <trkpt lat="47.81274" lon="7.06949">
        <ele>608</ele>
        <time>2015-06-28T07:55:32Z</time>
      </trkpt>
      <trkpt lat="47.81269" lon="7.06858">
        <ele>596</ele>
        <time>2015-06-28T07:55:52Z</time>
      </trkpt>
      <trkpt lat="47.81331" lon="7.06757">
        <ele>595</ele>
        <time>2015-06-28T07:56:12Z</time>
      </trkpt>
      <trkpt lat="47.81396" lon="7.06704">
        <ele>601</ele>
        <time>2015-06-28T07:56:32Z</time>
      </trkpt>
      <trkpt lat="47.81468" lon="7.067">
        <ele>615</ele>
        <time>2015-06-28T07:56:52Z</time>
      </trkpt>
      <trkpt lat="47.81541" lon="7.06663">
        <ele>616</ele>
        <time>2015-06-28T07:57:12Z</time>
      </trkpt>
      <trkpt lat="47.81563" lon="7.06604">
        <ele>617</ele>
        <time>2015-06-28T07:57:32Z</time>
      </trkpt>
      <trkpt lat="47.81578" lon="7.06504">
        <ele>620</ele>
        <time>2015-06-28T07:57:52Z</time>
      </trkpt>
      <trkpt lat="47.81571" lon="7.06443">
        <ele>616</ele>
        <time>2015-06-28T07:58:12Z</time>
      </trkpt>
      <trkpt lat="47.81532" lon="7.0633">
        <ele>619</ele>
        <time>2015-06-28T07:58:32Z</time>
      </trkpt>
      <trkpt lat="47.81484" lon="7.06116">
        <ele>616</ele>
        <time>2015-06-28T07:58:52Z</time>
      </trkpt>
      <trkpt lat="47.81465" lon="7.06009">
        <ele>620</ele>
        <time>2015-06-28T07:59:12Z</time>
      </trkpt>
      <trkpt lat="47.81446" lon="7.05934">
        <ele>621</ele>
        <time>2015-06-28T07:59:32Z</time>
      </trkpt>
      <trkpt lat="47.81437" lon="7.05861">
        <ele>625</ele>
        <time>2015-06-28T07:59:52Z</time>
      </trkpt>
      <trkpt lat="47.81393" lon="7.05799">
        <ele>642</ele>
        <time>2015-06-28T08:00:12Z</time>
      </trkpt>
      <trkpt lat="47.81368" lon="7.05787">
        <ele>645</ele>
        <time>2015-06-28T08:00:32Z</time>
      </trkpt>
      <trkpt lat="47.81326" lon="7.05797">
        <ele>657</ele>
        <time>2015-06-28T08:00:52Z</time>
      </trkpt>
      <trkpt lat="47.81395" lon="7.05583">
        <ele>678</ele>
        <time>2015-06-28T08:01:12Z</time>
      </trkpt>
      <trkpt lat="47.81405" lon="7.05519">
        <ele>677</ele>
        <time>2015-06-28T08:01:32Z</time>
      </trkpt>
      <trkpt lat="47.81353" lon="7.05454">
        <ele>683</ele>
        <time>2015-06-28T08:01:52Z</time>
      </trkpt>
      <trkpt lat="47.81303" lon="7.05343">
        <ele>707</ele>
        <time>2015-06-28T08:02:12Z</time>
      </trkpt>
      <trkpt lat="47.81238" lon="7.0514">
        <ele>723</ele>
        <time>2015-06-28T08:02:32Z</time>
      </trkpt>
      <trkpt lat="47.81133" lon="7.04982">
        <ele>724</ele>
        <time>2015-06-28T08:02:52Z</time>
      </trkpt>
      <trkpt lat="47.81087" lon="7.0493">
        <ele>729</ele>
        <time>2015-06-28T08:03:12Z</time>
      </trkpt>
      <trkpt lat="47.80991" lon="7.0486">
        <ele>750</ele>
        <time>2015-06-28T08:03:32Z</time>
      </trkpt>
      <trkpt lat="47.80939" lon="7.04848">
        <ele>762</ele>
        <time>2015-06-28T08:03:52Z</time>
      </trkpt>
      <trkpt lat="47.80918" lon="7.04818">
        <ele>753</ele>
        <time>2015-06-28T08:04:12Z</time>
      </trkpt>
      <trkpt lat="47.80916" lon="7.04726">
        <ele>755</ele>
        <time>2015-06-28T08:04:32Z</time>
      </trkpt>
      <trkpt lat="47.80883" lon="7.04652">
        <ele>736</ele>
        <time>2015-06-28T08:04:52Z</time>
      </trkpt>
      <trkpt lat="47.80852" lon="7.04611">
        <ele>734</ele>
        <time>2015-06-28T08:05:12Z</time>
      </trkpt>
      <trkpt lat="47.80819" lon="7.04619">
        <ele>761</ele>
        <time>2015-06-28T08:05:32Z</time>
      </trkpt>
      <trkpt lat="47.80772" lon="7.0458">
        <ele>754</ele>
        <time>2015-06-28T08:05:52Z</time>
      </trkpt>
      <trkpt lat="47.80696" lon="7.04374">
        <ele>752</ele>
        <time>2015-06-28T08:06:12Z</time>
      </trkpt>
      <trkpt lat="47.80671" lon="7.04326">
        <ele>751</ele>
        <time>2015-06-28T08:06:32Z</time>
      </trkpt>
      <trkpt lat="47.8067" lon="7.04286">
        <ele>748</ele>
        <time>2015-06-28T08:06:52Z</time>
      </trkpt>
      <trkpt lat="47.80657" lon="7.04271">
        <ele>750</ele>
        <time>2015-06-28T08:07:12Z</time>
      </trkpt>
      <trkpt lat="47.80666" lon="7.04245">
        <ele>752</ele>
        <time>2015-06-28T08:07:32Z</time>
      </trkpt>
      <trkpt lat="47.80709" lon="7.04182">
        <ele>763</ele>
        <time>2015-06-28T08:07:52Z</time>
      </trkpt>
      <trkpt lat="47.80808" lon="7.04011">
        <ele>804</ele>
        <time>2015-06-28T08:08:12Z</time>
      </trkpt>
      <trkpt lat="47.80838" lon="7.0394">
        <ele>804</ele>
        <time>2015-06-28T08:08:32Z</time>
      </trkpt>
      <trkpt lat="47.80859" lon="7.03866">
        <ele>812</ele>
        <time>2015-06-28T08:08:52Z</time>
      </trkpt>
      <trkpt lat="47.80898" lon="7.03812">
        <ele>817</ele>
        <time>2015-06-28T08:09:12Z</time>
      </trkpt>
      <trkpt lat="47.80954" lon="7.03762">
        <ele>824</ele>
        <time>2015-06-28T08:09:32Z</time>
      </trkpt>
      <trkpt lat="47.81037" lon="7.03717">
        <ele>836</ele>
        <time>2015-06-28T08:09:52Z</time>
      </trkpt>
      <trkpt lat="47.81069" lon="7.03633">
        <ele>847</ele>
        <time>2015-06-28T08:10:12Z</time>
      </trkpt>
      <trkpt lat="47.8112" lon="7.03566">
        <ele>850</ele>
        <time>2015-06-28T08:10:32Z</time>
      </trkpt>
      <trkpt lat="47.81159" lon="7.03451">
        <ele>858</ele>
        <time>2015-06-28T08:10:52Z</time>
      </trkpt>
      <trkpt lat="47.81173" lon="7.03341">
        <ele>866</ele>
        <time>2015-06-28T08:11:12Z</time>
      </trkpt>
      <trkpt lat="47.8117" lon="7.03323">
        <ele>866</ele>
        <time>2015-06-28T08:11:32Z</time>
      </trkpt>
      <trkpt lat="47.8118" lon="7.03292">
        <ele>868</ele>
        <time>2015-06-28T08:11:52Z</time>
      </trkpt>
      <trkpt lat="47.81202" lon="7.03273">
        <ele>869</ele>
        <time>2015-06-28T08:12:12Z</time>
      </trkpt>
      <trkpt lat="47.81288" lon="7.0327">
        <ele>884</ele>
        <time>2015-06-28T08:12:32Z</time>
      </trkpt>
      <trkpt lat="47.81344" lon="7.03279">
        <ele>896</ele>
        <time>2015-06-28T08:12:52Z</time>
      </trkpt>
      <trkpt lat="47.81426" lon="7.03259">
        <ele>908</ele>
        <time>2015-06-28T08:13:12Z</time>
      </trkpt>
      <trkpt lat="47.8145" lon="7.03262">
        <ele>913</ele>
        <time>2015-06-28T08:13:32Z</time>
      </trkpt>
      <trkpt lat="47.81504" lon="7.03216">
        <ele>920</ele>
        <time>2015-06-28T08:13:52Z</time>
      </trkpt>
      <trkpt lat="47.81527" lon="7.03185">
        <ele>919</ele>
        <time>2015-06-28T08:14:12Z</time>
      </trkpt>
      <trkpt lat="47.81543" lon="7.03149">
        <ele>917</ele>
        <time>2015-06-28T08:14:32Z</time>
      </trkpt>
      <trkpt lat="47.81578" lon="7.03094">
        <ele>924</ele>
        <time>2015-06-28T08:14:52Z</time>
      </trkpt>
      <trkpt lat="47.81618" lon="7.02993">
        <ele>954</ele>
        <time>2015-06-28T08:15:12Z</time>
      </trkpt>
      <trkpt lat="47.81625" lon="7.02918">
        <ele>963</ele>
        <time>2015-06-28T08:15:32Z</time>
      </trkpt>
      <trkpt lat="47.81683" lon="7.02873">
        <ele>1010</ele>
        <time>2015-06-28T08:15:52Z</time>
      </trkpt>
      <trkpt lat="47.81658" lon="7.02806">
        <ele>1007</ele>
        <time>2015-06-28T08:16:12Z</time>
      </trkpt>
      <trkpt lat="47.81607" lon="7.0271">
        <ele>1024</ele>
        <time>2015-06-28T08:16:32Z</time>
      </trkpt>
      <trkpt lat="47.81602" lon="7.02672">
        <ele>1025</ele>
        <time>2015-06-28T08:16:52Z</time>
      </trkpt>
      <trkpt lat="47.81607" lon="7.02621">
        <ele>1034</ele>
        <time>2015-06-28T08:17:12Z</time>
      </trkpt>
      <trkpt lat="47.81625" lon="7.02574">
        <ele>1035</ele>
        <time>2015-06-28T08:17:32Z</time>
      </trkpt>
      <trkpt lat="47.81678" lon="7.02518">
        <ele>1052</ele>
        <time>2015-06-28T08:17:52Z</time>
      </trkpt>
      <trkpt lat="47.81733" lon="7.02492">
        <ele>1052</ele>
        <time>2015-06-28T08:18:12Z</time>
      </trkpt>
      <trkpt lat="47.81807" lon="7.02476">
        <ele>1062</ele>
        <time>2015-06-28T08:18:32Z</time>
      </trkpt>
      <trkpt lat="47.81905" lon="7.02483">
        <ele>1072</ele>
        <time>2015-06-28T08:18:52Z</time>
      </trkpt>
      <trkpt lat="47.82021" lon="7.02421">
        <ele>1079</ele>
        <time>2015-06-28T08:19:12Z</time>
      </trkpt>
      <trkpt lat="47.82119" lon="7.02277">
        <ele>1082</ele>
        <time>2015-06-28T08:19:32Z</time>
      </trkpt>
      <trkpt lat="47.8215" lon="7.02228">
        <ele>1080</ele>
        <time>2015-06-28T08:19:52Z</time>
      </trkpt>
      <trkpt lat="47.82228" lon="7.02037">
        <ele>1093</ele>
        <time>2015-06-28T08:20:12Z</time>
      </trkpt>
      <trkpt lat="47.82281" lon="7.01997">
        <ele>1097</ele>
        <time>2015-06-28T08:20:32Z</time>
      </trkpt>
      <trkpt lat="47.82269" lon="7.01953">
        <ele>1097</ele>
        <time>2015-06-28T08:20:52Z</time>
      </trkpt>
      <trkpt lat="47.82254" lon="7.01812">
        <ele>1099</ele>
        <time>2015-06-28T08:21:12Z</time>
      </trkpt>
      <trkpt lat="47.82238" lon="7.01741">
        <ele>1101</ele>
        <time>2015-06-28T08:21:32Z</time>
      </trkpt>
      <trkpt lat="47.82236" lon="7.01475">
        <ele>1108</ele>
        <time>2015-06-28T08:21:52Z</time>
      </trkpt>
      <trkpt lat="47.82281" lon="7.01364">
        <ele>1118</ele>
        <time>2015-06-28T08:22:12Z</time>
      </trkpt>
      <trkpt lat="47.8229" lon="7.01315">
        <ele>1126</ele>
        <time>2015-06-28T08:22:32Z</time>
      </trkpt>
      <trkpt lat="47.82314" lon="7.01207">
        <ele>1136</ele>
        <time>2015-06-28T08:22:52Z</time>
      </trkpt>
      <trkpt lat="47.82339" lon="7.01146">
        <ele>1133</ele>
        <time>2015-06-28T08:23:12Z</time>
      </trkpt>
      <trkpt lat="47.82368" lon="7.01066">
        <ele>1139</ele>
        <time>2015-06-28T08:23:32Z</time>
      </trkpt>
      <trkpt lat="47.82405" lon="7.00979">
        <ele>1141</ele>
        <time>2015-06-28T08:23:52Z</time>
      </trkpt>
      <trkpt lat="47.82494" lon="7.00855">
        <ele>1144</ele>
        <time>2015-06-28T08:24:12Z</time>
      </trkpt>
      <trkpt lat="47.82555" lon="7.00792">
        <ele>1150</ele>
        <time>2015-06-28T08:24:32Z</time>
      </trkpt>
      <trkpt lat="47.82578" lon="7.00742">
        <ele>1154</ele>
        <time>2015-06-28T08:24:52Z</time>
      </trkpt>
      <trkpt lat="47.82627" lon="7.00688">
        <ele>1154</ele>
        <time>2015-06-28T08:25:12Z</time>
      </trkpt>
      <trkpt lat="47.82675" lon="7.00627">
        <ele>1158</ele>
        <time>2015-06-28T08:25:32Z</time>
      </trkpt>
      <trkpt lat="47.82709" lon="7.00617">
        <ele>1159</ele>
        <time>2015-06-28T08:25:52Z</time>
      </trkpt>
      <trkpt lat="47.82802" lon="7.00535">
        <ele>1165</ele>
        <time>2015-06-28T08:26:12Z</time>
      </trkpt>
      <trkpt lat="47.82828" lon="7.00527">
        <ele>1166</ele>
        <time>2015-06-28T08:26:32Z</time>
      </trkpt>
      <trkpt lat="47.82896" lon="7.00506">
        <ele>1163</ele>
        <time>2015-06-28T08:26:52Z</time>
      </trkpt>
      <trkpt lat="47.82915" lon="7.00479">
        <ele>1166</ele>
        <time>2015-06-28T08:27:12Z</time>
      </trkpt>
      <trkpt lat="47.82942" lon="7.00373">
        <ele>1156</ele>
        <time>2015-06-28T08:27:32Z</time>
      </trkpt>
      <trkpt lat="47.82976" lon="7.00257">
        <ele>1153</ele>
        <time>2015-06-28T08:27:52Z</time>
      </trkpt>
      <trkpt lat="47.83023" lon="7.00171">
        <ele>1145</ele>
        <time>2015-06-28T08:28:12Z</time>
      </trkpt>
      <trkpt lat="47.83047" lon="7.00123">
        <ele>1136</ele>
        <time>2015-06-28T08:28:32Z</time>
      </trkpt>
      <trkpt lat="47.83086" lon="7.00089">
        <ele>1124</ele>
        <time>2015-06-28T08:28:52Z</time>
      </trkpt>
      <trkpt lat="47.83092" lon="7.00056">
        <ele>1110</ele>
        <time>2015-06-28T08:29:12Z</time>
      </trkpt>
      <trkpt lat="47.83091" lon="7.00029">
        <ele>1107</ele>
        <time>2015-06-28T08:29:32Z</time>
      </trkpt>
      <trkpt lat="47.83108" lon="6.9995">
        <ele>1094</ele>
        <time>2015-06-28T08:29:52Z</time>
      </trkpt>
      <trkpt lat="47.83155" lon="6.99854">
        <ele>1083</ele>
        <time>2015-06-28T08:30:12Z</time>
      </trkpt>
      <trkpt lat="47.83184" lon="6.99812">
        <ele>1067</ele>
        <time>2015-06-28T08:30:32Z</time>
      </trkpt>
      <trkpt lat="47.83186" lon="6.99772">
        <ele>1061</ele>
        <time>2015-06-28T08:30:52Z</time>
      </trkpt>
      <trkpt lat="47.83167" lon="6.99691">
        <ele>1054</ele>
        <time>2015-06-28T08:31:12Z</time>
      </trkpt>
      <trkpt lat="47.83187" lon="6.99638">
        <ele>1051</ele>
        <time>2015-06-28T08:31:32Z</time>
      </trkpt>
      <trkpt lat="47.83217" lon="6.99589">
        <ele>1049</ele>
        <time>2015-06-28T08:31:52Z</time>
      </trkpt>
      <trkpt lat="47.83232" lon="6.99546">
        <ele>1054</ele>
        <time>2015-06-28T08:32:12Z</time>
      </trkpt>
      <trkpt lat="47.83271" lon="6.99512">
        <ele>1047</ele>
        <time>2015-06-28T08:32:32Z</time>
      </trkpt>
      <trkpt lat="47.8333" lon="6.99479">
        <ele>1049</ele>
        <time>2015-06-28T08:32:52Z</time>
      </trkpt>
      <trkpt lat="47.83353" lon="6.99455">
        <ele>1043</ele>
        <time>2015-06-28T08:33:12Z</time>
      </trkpt>
      <trkpt lat="47.83391" lon="6.99425">
        <ele>1041</ele>
        <time>2015-06-28T08:33:32Z</time>
      </trkpt>
      <trkpt lat="47.83451" lon="6.99413">
        <ele>1033</ele>
        <time>2015-06-28T08:33:52Z</time>
      </trkpt>
      <trkpt lat="47.83517" lon="6.99293">
        <ele>1017</ele>
        <time>2015-06-28T08:34:12Z</time>
      </trkpt>
      <trkpt lat="47.83571" lon="6.99182">
        <ele>1013</ele>
        <time>2015-06-28T08:34:32Z</time>
      </trkpt>
      <trkpt lat="47.83596" lon="6.99164">
        <ele>1005</ele>
        <time>2015-06-28T08:34:52Z</time>
      </trkpt>
      <trkpt lat="47.83663" lon="6.9914">
        <ele>994</ele>
        <time>2015-06-28T08:35:12Z</time>
      </trkpt>
      <trkpt lat="47.83748" lon="6.99077">
        <ele>982</ele>
        <time>2015-06-28T08:35:32Z</time>
      </trkpt>
      <trkpt lat="47.83793" lon="6.99059">
        <ele>981</ele>
        <time>2015-06-28T08:35:52Z</time>
      </trkpt>
      <trkpt lat="47.83837" lon="6.9906">
        <ele>975</ele>
        <time>2015-06-28T08:36:12Z</time>
      </trkpt>
      <trkpt lat="47.83977" lon="6.98978">
        <ele>977</ele>
        <time>2015-06-28T08:36:32Z</time>
      </trkpt>
      <trkpt lat="47.84025" lon="6.98928">
        <ele>980</ele>
        <time>2015-06-28T08:36:52Z</time>
      </trkpt>
      <trkpt lat="47.8403" lon="6.98872">
        <ele>979</ele>
        <time>2015-06-28T08:37:12Z</time>
      </trkpt>
      <trkpt lat="47.84079" lon="6.98812">
        <ele>976</ele>
        <time>2015-06-28T08:37:32Z</time>
      </trkpt>
      <trkpt lat="47.84099" lon="6.98669">
        <ele>975</ele>
        <time>2015-06-28T08:37:52Z</time>
      </trkpt>
      <trkpt lat="47.84123" lon="6.98612">
        <ele>971</ele>
        <time>2015-06-28T08:38:12Z</time>
      </trkpt>
      <trkpt lat="47.84157" lon="6.98565">
        <ele>971</ele>
        <time>2015-06-28T08:38:32Z</time>
      </trkpt>
      <trkpt lat="47.84153" lon="6.98444">
        <ele>971</ele>
        <time>2015-06-28T08:38:52Z</time>
      </trkpt>
      <trkpt lat="47.84121" lon="6.98412">
        <ele>970</ele>
        <time>2015-06-28T08:39:12Z</time>
      </trkpt>
      <trkpt lat="47.84108" lon="6.98382">
        <ele>969</ele>
        <time>2015-06-28T08:39:32Z</time>
      </trkpt>
      <trkpt lat="47.84108" lon="6.98205">
        <ele>982</ele>
        <time>2015-06-28T08:39:52Z</time>
      </trkpt>
      <trkpt lat="47.84089" lon="6.98144">
        <ele>976</ele>
        <time>2015-06-28T08:40:12Z</time>
      </trkpt>
      <trkpt lat="47.84085" lon="6.98091">
        <ele>966</ele>
        <time>2015-06-28T08:40:32Z</time>
      </trkpt>
      <trkpt lat="47.84104" lon="6.98042">
        <ele>963</ele>
        <time>2015-06-28T08:40:52Z</time>
      </trkpt>
      <trkpt lat="47.84162" lon="6.97938">
        <ele>948</ele>
        <time>2015-06-28T08:41:12Z</time>
      </trkpt>
      <trkpt lat="47.84176" lon="6.97855">
        <ele>938</ele>
        <time>2015-06-28T08:41:32Z</time>
      </trkpt>
      <trkpt lat="47.8419" lon="6.97796">
        <ele>929</ele>
        <time>2015-06-28T08:41:52Z</time>
      </trkpt>
      <trkpt lat="47.84182" lon="6.97735">
        <ele>930</ele>
        <time>2015-06-28T08:42:12Z</time>
      </trkpt>
      <trkpt lat="47.84191" lon="6.97709">
        <ele>931</ele>
        <time>2015-06-28T08:42:32Z</time>
      </trkpt>
      <trkpt lat="47.84189" lon="6.97655">
        <ele>939</ele>
        <time>2015-06-28T08:42:52Z</time>
      </trkpt>
      <trkpt lat="47.84181" lon="6.97599">
        <ele>944</ele>
        <time>2015-06-28T08:43:12Z</time>
      </trkpt>
      <trkpt lat="47.84146" lon="6.97472">
        <ele>957</ele>
        <time>2015-06-28T08:43:32Z</time>
      </trkpt>
      <trkpt lat="47.84115" lon="6.97383">
        <ele>965</ele>
        <time>2015-06-28T08:43:52Z</time>
      </trkpt>
      <trkpt lat="47.84095" lon="6.9728">
        <ele>964</ele>
        <time>2015-06-28T08:44:12Z</time>
      </trkpt>
      <trkpt lat="47.84091" lon="6.97159">
        <ele>966</ele>
        <time>2015-06-28T08:44:32Z</time>
      </trkpt>
      <trkpt lat="47.84104" lon="6.97027">
        <ele>965</ele>
        <time>2015-06-28T08:44:52Z</time>
      </trkpt>
      <trkpt lat="47.84106" lon="6.96891">
        <ele>983</ele>
        <time>2015-06-28T08:45:12Z</time>
      </trkpt>
      <trkpt lat="47.84129" lon="6.96856">
        <ele>983</ele>
        <time>2015-06-28T08:45:32Z</time>
      </trkpt>
      <trkpt lat="47.84225" lon="6.9667">
        <ele>974</ele>
        <time>2015-06-28T08:45:52Z</time>
      </trkpt>
      <trkpt lat="47.84246" lon="6.96642">
        <ele>978</ele>
        <time>2015-06-28T08:46:12Z</time>
      </trkpt>
      <trkpt lat="47.84288" lon="6.96621">
        <ele>968</ele>
        <time>2015-06-28T08:46:32Z</time>
      </trkpt>
      <trkpt lat="47.84311" lon="6.96568">
        <ele>985</ele>
        <time>2015-06-28T08:46:52Z</time>
      </trkpt>
      <trkpt lat="47.84349" lon="6.96519">
        <ele>985</ele>
        <time>2015-06-28T08:47:12Z</time>
      </trkpt>
      <trkpt lat="47.84374" lon="6.96439">
        <ele>996</ele>
        <time>2015-06-28T08:47:32Z</time>
      </trkpt>
      <trkpt lat="47.84386" lon="6.96356">
        <ele>1007</ele>
        <time>2015-06-28T08:47:52Z</time>
      </trkpt>
      <trkpt lat="47.84407" lon="6.96296">
        <ele>1019</ele>
        <time>2015-06-28T08:48:12Z</time>
      </trkpt>
      <trkpt lat="47.84427" lon="6.96256">
        <ele>1015</ele>
        <time>2015-06-28T08:48:32Z</time>
      </trkpt>
      <trkpt lat="47.84491" lon="6.96101">
        <ele>1044</ele>
        <time>2015-06-28T08:48:52Z</time>
      </trkpt>
      <trkpt lat="47.84588" lon="6.9605">
        <ele>1040</ele>
        <time>2015-06-28T08:49:12Z</time>
      </trkpt>
      <trkpt lat="47.84621" lon="6.95983">
        <ele>1065</ele>
        <time>2015-06-28T08:49:32Z</time>
      </trkpt>
      <trkpt lat="47.84642" lon="6.95914">
        <ele>1079</ele>
        <time>2015-06-28T08:49:52Z</time>
      </trkpt>
      <trkpt lat="47.84698" lon="6.95871">
        <ele>1068</ele>
        <time>2015-06-28T08:50:12Z</time>
      </trkpt>
      <trkpt lat="47.84714" lon="6.95847">
        <ele>1066</ele>
        <time>2015-06-28T08:50:32Z</time>
      </trkpt>
      <trkpt lat="47.8472" lon="6.95802">
        <ele>1068</ele>
        <time>2015-06-28T08:50:52Z</time>
      </trkpt>
      <trkpt lat="47.84712" lon="6.95752">
        <ele>1068</ele>
        <time>2015-06-28T08:51:12Z</time>
      </trkpt>
      <trkpt lat="47.84667" lon="6.95621">
        <ele>1059</ele>
        <time>2015-06-28T08:51:32Z</time>
      </trkpt>
      <trkpt lat="47.84671" lon="6.95519">
        <ele>1053</ele>
        <time>2015-06-28T08:51:52Z</time>
      </trkpt>
      <trkpt lat="47.8466" lon="6.95424">
        <ele>1053</ele>
        <time>2015-06-28T08:52:12Z</time>
      </trkpt>
      <trkpt lat="47.84673" lon="6.95356">
        <ele>1042</ele>
        <time>2015-06-28T08:52:32Z</time>
      </trkpt>
      <trkpt lat="47.84681" lon="6.95292">
        <ele>1041</ele>
        <time>2015-06-28T08:52:52Z</time>
      </trkpt>
      <trkpt lat="47.84689" lon="6.95263">
        <ele>1041</ele>
        <time>2015-06-28T08:53:12Z</time>
      </trkpt>
      <trkpt lat="47.84699" lon="6.95184">
        <ele>1042</ele>
        <time>2015-06-28T08:53:32Z</time>
      </trkpt>
      <trkpt lat="47.847" lon="6.95109">
        <ele>1046</ele>
        <time>2015-06-28T08:53:52Z</time>
      </trkpt>
      <trkpt lat="47.84707" lon="6.95068">
        <ele>1051</ele>
        <time>2015-06-28T08:54:12Z</time>
      </trkpt>
      <trkpt lat="47.84713" lon="6.95001">
        <ele>1053</ele>
        <time>2015-06-28T08:54:32Z</time>
      </trkpt>
      <trkpt lat="47.84705" lon="6.94923">
        <ele>1054</ele>
        <time>2015-06-28T08:54:52Z</time>
      </trkpt>
      <trkpt lat="47.84735" lon="6.94824">
        <ele>1044</ele>
        <time>2015-06-28T08:55:12Z</time>
      </trkpt>
      <trkpt lat="47.84761" lon="6.94797">
        <ele>1038</ele>
        <time>2015-06-28T08:55:32Z</time>
      </trkpt>
      <trkpt lat="47.84772" lon="6.9471">
        <ele>1048</ele>
        <time>2015-06-28T08:55:52Z</time>
      </trkpt>
      <trkpt lat="47.84787" lon="6.94633">
        <ele>1065</ele>
        <time>2015-06-28T08:56:12Z</time>
      </trkpt>
      <trkpt lat="47.84776" lon="6.94631">
        <ele>1066</ele>
        <time>2015-06-28T08:56:32Z</time>
      </trkpt>
      <trkpt lat="47.84783" lon="6.94614">
        <ele>1069</ele>
        <time>2015-06-28T08:56:52Z</time>
      </trkpt>
      <trkpt lat="47.84771" lon="6.94618">
        <ele>1069</ele>
        <time>2015-06-28T08:57:12Z</time>
      </trkpt>
      <trkpt lat="47.8478" lon="6.94599">
        <ele>1071</ele>
        <time>2015-06-28T08:57:32Z</time>
      </trkpt>
      <trkpt lat="47.84772" lon="6.9458">
        <ele>1086</ele>
        <time>2015-06-28T08:57:52Z</time>
      </trkpt>
      <trkpt lat="47.84802" lon="6.94497">
        <ele>1106</ele>
        <time>2015-06-28T08:58:12Z</time>
      </trkpt>
      <trkpt lat="47.8485" lon="6.94422">
        <ele>1109</ele>
        <time>2015-06-28T08:58:32Z</time>
      </trkpt>
      <trkpt lat="47.84861" lon="6.94356">
        <ele>1119</ele>
        <time>2015-06-28T08:58:52Z</time>
      </trkpt>
      <trkpt lat="47.84879" lon="6.94309">
        <ele>1125</ele>
        <time>2015-06-28T08:59:12Z</time>
      </trkpt>
      <trkpt lat="47.84928" lon="6.94255">
        <ele>1124</ele>
        <time>2015-06-28T08:59:32Z</time>
      </trkpt>
      <trkpt lat="47.85067" lon="6.94162">
        <ele>1157</ele>
        <time>2015-06-28T08:59:52Z</time>
      </trkpt>
      <trkpt lat="47.85158" lon="6.94016">
        <ele>1174</ele>
        <time>2015-06-28T09:00:12Z</time>
      </trkpt>
      <trkpt lat="47.85153" lon="6.93965">
        <ele>1179</ele>
        <time>2015-06-28T09:00:32Z</time>
      </trkpt>
      <trkpt lat="47.8513" lon="6.93884">
        <ele>1178</ele>
        <time>2015-06-28T09:00:52Z</time>
      </trkpt>
      <trkpt lat="47.85121" lon="6.93845">
        <ele>1177</ele>
        <time>2015-06-28T09:01:12Z</time>
      </trkpt>
      <trkpt lat="47.85099" lon="6.93817">
        <ele>1175</ele>
        <time>2015-06-28T09:01:32Z</time>
      </trkpt>
      <trkpt lat="47.8506" lon="6.93719">
        <ele>1176</ele>
        <time>2015-06-28T09:01:52Z</time>
      </trkpt>
      <trkpt lat="47.85023" lon="6.93656">
        <ele>1174</ele>
        <time>2015-06-28T09:02:12Z</time>
      </trkpt>
      <trkpt lat="47.85007" lon="6.93618">
        <ele>1174</ele>
        <time>2015-06-28T09:02:32Z</time>
      </trkpt>
      <trkpt lat="47.84944" lon="6.9348">
        <ele>1171</ele>
        <time>2015-06-28T09:02:52Z</time>
      </trkpt>
      <trkpt lat="47.84924" lon="6.93422">
        <ele>1176</ele>
        <time>2015-06-28T09:03:12Z</time>
      </trkpt>
      <trkpt lat="47.84884" lon="6.932">
        <ele>1165</ele>
        <time>2015-06-28T09:03:32Z</time>
      </trkpt>
      <trkpt lat="47.84851" lon="6.9311">
        <ele>1151</ele>
        <time>2015-06-28T09:03:52Z</time>
      </trkpt>
      <trkpt lat="47.84831" lon="6.93079">
        <ele>1149</ele>
        <time>2015-06-28T09:04:12Z</time>
      </trkpt>
      <trkpt lat="47.8483" lon="6.93023">
        <ele>1139</ele>
        <time>2015-06-28T09:04:32Z</time>
      </trkpt>
      <trkpt lat="47.84861" lon="6.92861">
        <ele>1114</ele>
        <time>2015-06-28T09:04:52Z</time>
      </trkpt>
      <trkpt lat="47.84843" lon="6.92678">
        <ele>1094</ele>
        <time>2015-06-28T09:05:12Z</time>
      </trkpt>
      <trkpt lat="47.84858" lon="6.92586">
        <ele>1085</ele>
        <time>2015-06-28T09:05:32Z</time>
      </trkpt>
      <trkpt lat="47.84848" lon="6.92547">
        <ele>1079</ele>
        <time>2015-06-28T09:05:52Z</time>
      </trkpt>
      <trkpt lat="47.84822" lon="6.92524">
        <ele>1073</ele>
        <time>2015-06-28T09:06:12Z</time>
      </trkpt>
      <trkpt lat="47.84835" lon="6.92512">
        <ele>1074</ele>
        <time>2015-06-28T09:06:32Z</time>
      </trkpt>
      <trkpt lat="47.84864" lon="6.92513">
        <ele>1075</ele>
        <time>2015-06-28T09:06:52Z</time>
      </trkpt>
      <trkpt lat="47.84865" lon="6.92472">
        <ele>1072</ele>
        <time>2015-06-28T09:07:12Z</time>
      </trkpt>
      <trkpt lat="47.84869" lon="6.92413">
        <ele>1070</ele>
        <time>2015-06-28T09:07:32Z</time>
      </trkpt>
      <trkpt lat="47.84894" lon="6.9234">
        <ele>1081</ele>
        <time>2015-06-28T09:07:52Z</time>
      </trkpt>
      <trkpt lat="47.84889" lon="6.923">
        <ele>1081</ele>
        <time>2015-06-28T09:08:12Z</time>
      </trkpt>
      <trkpt lat="47.84896" lon="6.92236">
        <ele>1096</ele>
        <time>2015-06-28T09:08:32Z</time>
      </trkpt>
      <trkpt lat="47.8489" lon="6.92191">
        <ele>1094</ele>
        <time>2015-06-28T09:08:52Z</time>
      </trkpt>
      <trkpt lat="47.84895" lon="6.92137">
        <ele>1108</ele>
        <time>2015-06-28T09:09:12Z</time>
      </trkpt>
      <trkpt lat="47.84864" lon="6.92054">
        <ele>1133</ele>
        <time>2015-06-28T09:09:32Z</time>
      </trkpt>
      <trkpt lat="47.84832" lon="6.92042">
        <ele>1103</ele>
        <time>2015-06-28T09:09:52Z</time>
      </trkpt>
      <trkpt lat="47.84818" lon="6.92005">
        <ele>1122</ele>
        <time>2015-06-28T09:10:12Z</time>
      </trkpt>
      <trkpt lat="47.84764" lon="6.92016">
        <ele>1099</ele>
        <time>2015-06-28T09:10:32Z</time>
      </trkpt>
      <trkpt lat="47.84748" lon="6.91972">
        <ele>1108</ele>
        <time>2015-06-28T09:10:52Z</time>
      </trkpt>
      <trkpt lat="47.84717" lon="6.91939">
        <ele>1113</ele>
        <time>2015-06-28T09:11:12Z</time>
      </trkpt>
      <trkpt lat="47.84665" lon="6.91923">
        <ele>1108</ele>
        <time>2015-06-28T09:11:32Z</time>
      </trkpt>
      <trkpt lat="47.8464" lon="6.91867">
        <ele>1127</ele>
        <time>2015-06-28T09:11:52Z</time>
      </trkpt>
      <trkpt lat="47.84596" lon="6.91873">
        <ele>1122</ele>
        <time>2015-06-28T09:12:12Z</time>
      </trkpt>
      <trkpt lat="47.84576" lon="6.91833">
        <ele>1139</ele>
        <time>2015-06-28T09:12:32Z</time>
      </trkpt>
      <trkpt lat="47.84499" lon="6.91871">
        <ele>1131</ele>
        <time>2015-06-28T09:12:52Z</time>
      </trkpt>
      <trkpt lat="47.84462" lon="6.91904">
        <ele>1128</ele>
        <time>2015-06-28T09:13:12Z</time>
      </trkpt>
      <trkpt lat="47.84452" lon="6.91894">
        <ele>1129</ele>
        <time>2015-06-28T09:13:32Z</time>
      </trkpt>
      <trkpt lat="47.84445" lon="6.91843">
        <ele>1132</ele>
        <time>2015-06-28T09:13:52Z</time>
      </trkpt>
      <trkpt lat="47.84372" lon="6.91724">
        <ele>1132</ele>
        <time>2015-06-28T09:14:12Z</time>
      </trkpt>
      <trkpt lat="47.84302" lon="6.91602">
        <ele>1127</ele>
        <time>2015-06-28T09:14:32Z</time>
      </trkpt>
      <trkpt lat="47.84256" lon="6.91413">
        <ele>1125</ele>
        <time>2015-06-28T09:14:52Z</time>
      </trkpt>
      <trkpt lat="47.84251" lon="6.91335">
        <ele>1123</ele>
        <time>2015-06-28T09:15:12Z</time>
      </trkpt>
      <trkpt lat="47.84267" lon="6.91207">
        <ele>1139</ele>
        <time>2015-06-28T09:15:32Z</time>
      </trkpt>
      <trkpt lat="47.84293" lon="6.9104">
        <ele>1132</ele>
        <time>2015-06-28T09:15:52Z</time>
      </trkpt>
      <trkpt lat="47.84319" lon="6.90983">
        <ele>1130</ele>
        <time>2015-06-28T09:16:12Z</time>
      </trkpt>
      <trkpt lat="47.84358" lon="6.9093">
        <ele>1150</ele>
        <time>2015-06-28T09:16:32Z</time>
      </trkpt>
      <trkpt lat="47.84352" lon="6.90844">
        <ele>1144</ele>
        <time>2015-06-28T09:16:52Z</time>
      </trkpt>
      <trkpt lat="47.84331" lon="6.90792">
        <ele>1124</ele>
        <time>2015-06-28T09:17:12Z</time>
      </trkpt>
      <trkpt lat="47.84337" lon="6.90737">
        <ele>1150</ele>
        <time>2015-06-28T09:17:32Z</time>
      </trkpt>
      <trkpt lat="47.84313" lon="6.90665">
        <ele>1144</ele>
        <time>2015-06-28T09:17:52Z</time>
      </trkpt>
      <trkpt lat="47.84306" lon="6.90622">
        <ele>1143</ele>
        <time>2015-06-28T09:18:12Z</time>
      </trkpt>
      <trkpt lat="47.84306" lon="6.90576">
        <ele>1158</ele>
        <time>2015-06-28T09:18:32Z</time>
      </trkpt>
      <trkpt lat="47.84286" lon="6.90532">
        <ele>1156</ele>
        <time>2015-06-28T09:18:52Z</time>
      </trkpt>
      <trkpt lat="47.84253" lon="6.90476">
        <ele>1162</ele>
        <time>2015-06-28T09:19:12Z</time>
      </trkpt>
      <trkpt lat="47.84242" lon="6.90429">
        <ele>1155</ele>
        <time>2015-06-28T09:19:32Z</time>
      </trkpt>
      <trkpt lat="47.84172" lon="6.90349">
        <ele>1159</ele>
        <time>2015-06-28T09:19:52Z</time>
      </trkpt>
      <trkpt lat="47.84135" lon="6.90324">
        <ele>1153</ele>
        <time>2015-06-28T09:20:12Z</time>
      </trkpt>
      <trkpt lat="47.84111" lon="6.90292">
        <ele>1151</ele>
        <time>2015-06-28T09:20:32Z</time>
      </trkpt>
      <trkpt lat="47.84085" lon="6.90282">
        <ele>1149</ele>
        <time>2015-06-28T09:20:52Z</time>
      </trkpt>
      <trkpt lat="47.84059" lon="6.90239">
        <ele>1136</ele>
        <time>2015-06-28T09:21:12Z</time>
      </trkpt>
      <trkpt lat="47.84057" lon="6.90199">
        <ele>1135</ele>
        <time>2015-06-28T09:21:32Z</time>
      </trkpt>
      <trkpt lat="47.84069" lon="6.90096">
        <ele>1137</ele>
        <time>2015-06-28T09:21:52Z</time>
      </trkpt>
      <trkpt lat="47.84062" lon="6.90084">
        <ele>1136</ele>
        <time>2015-06-28T09:22:12Z</time>
      </trkpt>
      <trkpt lat="47.84009" lon="6.90073">
        <ele>1121</ele>
        <time>2015-06-28T09:22:32Z</time>
      </trkpt>
      <trkpt lat="47.83999" lon="6.90062">
        <ele>1114</ele>
        <time>2015-06-28T09:22:52Z</time>
      </trkpt>
      <trkpt lat="47.84004" lon="6.90035">
        <ele>1122</ele>
        <time>2015-06-28T09:23:12Z</time>
      </trkpt>
      <trkpt lat="47.83959" lon="6.90009">
        <ele>1111</ele>
        <time>2015-06-28T09:23:32Z</time>
      </trkpt>
      <trkpt lat="47.83913" lon="6.89962">
        <ele>1103</ele>
        <time>2015-06-28T09:23:52Z</time>
      </trkpt>
      <trkpt lat="47.83857" lon="6.89913">
        <ele>1105</ele>
        <time>2015-06-28T09:24:12Z</time>
      </trkpt>
      <trkpt lat="47.83837" lon="6.89876">
        <ele>1107</ele>
        <time>2015-06-28T09:24:32Z</time>
      </trkpt>
      <trkpt lat="47.83797" lon="6.89854">
        <ele>1114</ele>
        <time>2015-06-28T09:24:52Z</time>
      </trkpt>
      <trkpt lat="47.83746" lon="6.89852">
        <ele>1122</ele>
        <time>2015-06-28T09:25:12Z</time>
      </trkpt>
      <trkpt lat="47.83709" lon="6.89838">
        <ele>1122</ele>
        <time>2015-06-28T09:25:32Z</time>
      </trkpt>
      <trkpt lat="47.83594" lon="6.89826">
        <ele>1135</ele>
        <time>2015-06-28T09:25:52Z</time>
      </trkpt>
      <trkpt lat="47.83264" lon="6.89713">
        <ele>1105</ele>
        <time>2015-06-28T09:26:12Z</time>
      </trkpt>
      <trkpt lat="47.83244" lon="6.89688">
        <ele>1099</ele>
        <time>2015-06-28T09:26:32Z</time>
      </trkpt>
      <trkpt lat="47.83231" lon="6.89641">
        <ele>1098</ele>
        <time>2015-06-28T09:26:52Z</time>
      </trkpt>
      <trkpt lat="47.8322" lon="6.89495">
        <ele>1088</ele>
        <time>2015-06-28T09:27:12Z</time>
      </trkpt>
      <trkpt lat="47.83281" lon="6.8927">
        <ele>1077</ele>
        <time>2015-06-28T09:27:32Z</time>
      </trkpt>
      <trkpt lat="47.83288" lon="6.89194">
        <ele>1072</ele>
        <time>2015-06-28T09:27:52Z</time>
      </trkpt>
      <trkpt lat="47.83299" lon="6.89141">
        <ele>1073</ele>
        <time>2015-06-28T09:28:12Z</time>
      </trkpt>
      <trkpt lat="47.83282" lon="6.89054">
        <ele>1073</ele>
        <time>2015-06-28T09:28:32Z</time>
      </trkpt>
      <trkpt lat="47.83288" lon="6.88938">
        <ele>1076</ele>
        <time>2015-06-28T09:28:52Z</time>
      </trkpt>
      <trkpt lat="47.83301" lon="6.88863">
        <ele>1080</ele>
        <time>2015-06-28T09:29:12Z</time>
      </trkpt>
      <trkpt lat="47.83297" lon="6.88844">
        <ele>1080</ele>
        <time>2015-06-28T09:29:32Z</time>
      </trkpt>
      <trkpt lat="47.83257" lon="6.88799">
        <ele>1080</ele>
        <time>2015-06-28T09:29:52Z</time>
      </trkpt>
      <trkpt lat="47.83244" lon="6.88764">
        <ele>1069</ele>
        <time>2015-06-28T09:30:12Z</time>
      </trkpt>
      <trkpt lat="47.83245" lon="6.88679">
        <ele>1076</ele>
        <time>2015-06-28T09:30:32Z</time>
      </trkpt>
      <trkpt lat="47.83214" lon="6.88606">
        <ele>1073</ele>
        <time>2015-06-28T09:30:52Z</time>
      </trkpt>
      <trkpt lat="47.832" lon="6.88553">
        <ele>1075</ele>
        <time>2015-06-28T09:31:12Z</time>
      </trkpt>
      <trkpt lat="47.83178" lon="6.88537">
        <ele>1076</ele>
        <time>2015-06-28T09:31:32Z</time>
      </trkpt>
      <trkpt lat="47.83147" lon="6.88526">
        <ele>1059</ele>
        <time>2015-06-28T09:31:52Z</time>
      </trkpt>
      <trkpt lat="47.83141" lon="6.88479">
        <ele>1069</ele>
        <time>2015-06-28T09:32:12Z</time>
      </trkpt>
      <trkpt lat="47.83123" lon="6.88426">
        <ele>1067</ele>
        <time>2015-06-28T09:32:32Z</time>
      </trkpt>
      <trkpt lat="47.83114" lon="6.8837">
        <ele>1073</ele>
        <time>2015-06-28T09:32:52Z</time>
      </trkpt>
      <trkpt lat="47.83134" lon="6.88368">
        <ele>1077</ele>
        <time>2015-06-28T09:33:12Z</time>
      </trkpt>
      <trkpt lat="47.83135" lon="6.88332">
        <ele>1083</ele>
        <time>2015-06-28T09:33:32Z</time>
      </trkpt>
      <trkpt lat="47.83098" lon="6.88277">
        <ele>1079</ele>
        <time>2015-06-28T09:33:52Z</time>
      </trkpt>
      <trkpt lat="47.83076" lon="6.88184">
        <ele>1064</ele>
        <time>2015-06-28T09:34:12Z</time>
      </trkpt>
      <trkpt lat="47.83079" lon="6.88147">
        <ele>1063</ele>
        <time>2015-06-28T09:34:32Z</time>
      </trkpt>
      <trkpt lat="47.83091" lon="6.88126">
        <ele>1079</ele>
        <time>2015-06-28T09:34:52Z</time>
      </trkpt>
      <trkpt lat="47.83093" lon="6.88109">
        <ele>1078</ele>
        <time>2015-06-28T09:35:12Z</time>
      </trkpt>
      <trkpt lat="47.83105" lon="6.88104">
        <ele>1080</ele>
        <time>2015-06-28T09:35:32Z</time>
      </trkpt>
      <trkpt lat="47.83102" lon="6.88057">
        <ele>1078</ele>
        <time>2015-06-28T09:35:52Z</time>
      </trkpt>
      <trkpt lat="47.83112" lon="6.88009">
        <ele>1078</ele>
        <time>2015-06-28T09:36:12Z</time>
      </trkpt>
      <trkpt lat="47.83112" lon="6.8795">
        <ele>1078</ele>
        <time>2015-06-28T09:36:32Z</time>
      </trkpt>
      <trkpt lat="47.83055" lon="6.87911">
        <ele>1078</ele>
        <time>2015-06-28T09:36:52Z</time>
      </trkpt>
      <trkpt lat="47.83041" lon="6.87907">
        <ele>1077</ele>
        <time>2015-06-28T09:37:12Z</time>
      </trkpt>
      <trkpt lat="47.83022" lon="6.87883">
        <ele>1078</ele>
        <time>2015-06-28T09:37:32Z</time>
      </trkpt>
      <trkpt lat="47.82967" lon="6.87883">
        <ele>1063</ele>
        <time>2015-06-28T09:37:52Z</time>
      </trkpt>
      <trkpt lat="47.82893" lon="6.87794">
        <ele>1053</ele>
        <time>2015-06-28T09:38:12Z</time>
      </trkpt>
      <trkpt lat="47.82875" lon="6.87737">
        <ele>1061</ele>
        <time>2015-06-28T09:38:32Z</time>
      </trkpt>
      <trkpt lat="47.82825" lon="6.8764">
        <ele>1046</ele>
        <time>2015-06-28T09:38:52Z</time>
      </trkpt>
      <trkpt lat="47.82783" lon="6.87575">
        <ele>1055</ele>
        <time>2015-06-28T09:39:12Z</time>
      </trkpt>
      <trkpt lat="47.82757" lon="6.87543">
        <ele>1054</ele>
        <time>2015-06-28T09:39:32Z</time>
      </trkpt>
      <trkpt lat="47.82753" lon="6.87514">
        <ele>1055</ele>
        <time>2015-06-28T09:39:52Z</time>
      </trkpt>
      <trkpt lat="47.82734" lon="6.87435">
        <ele>1044</ele>
        <time>2015-06-28T09:40:12Z</time>
      </trkpt>
      <trkpt lat="47.82736" lon="6.8741">
        <ele>1048</ele>
        <time>2015-06-28T09:40:32Z</time>
      </trkpt>
      <trkpt lat="47.82757" lon="6.87366">
        <ele>1063</ele>
        <time>2015-06-28T09:40:52Z</time>
      </trkpt>
      <trkpt lat="47.8277" lon="6.87243">
        <ele>1054</ele>
        <time>2015-06-28T09:41:12Z</time>
      </trkpt>
      <trkpt lat="47.82755" lon="6.87211">
        <ele>1056</ele>
        <time>2015-06-28T09:41:32Z</time>
      </trkpt>
      <trkpt lat="47.82759" lon="6.87172">
        <ele>1052</ele>
        <time>2015-06-28T09:41:52Z</time>
      </trkpt>
      <trkpt lat="47.82794" lon="6.87085">
        <ele>1060</ele>
        <time>2015-06-28T09:42:12Z</time>
      </trkpt>
      <trkpt lat="47.82823" lon="6.87059">
        <ele>1061</ele>
        <time>2015-06-28T09:42:32Z</time>
      </trkpt>
      <trkpt lat="47.82828" lon="6.87039">
        <ele>1060</ele>
        <time>2015-06-28T09:42:52Z</time>
      </trkpt>
      <trkpt lat="47.82805" lon="6.86931">
        <ele>1047</ele>
        <time>2015-06-28T09:43:12Z</time>
      </trkpt>
      <trkpt lat="47.82816" lon="6.86915">
        <ele>1047</ele>
        <time>2015-06-28T09:43:32Z</time>
      </trkpt>
      <trkpt lat="47.82822" lon="6.86796">
        <ele>1036</ele>
        <time>2015-06-28T09:43:52Z</time>
      </trkpt>
      <trkpt lat="47.82807" lon="6.86725">
        <ele>1037</ele>
        <time>2015-06-28T09:44:12Z</time>
      </trkpt>
      <trkpt lat="47.82788" lon="6.86669">
        <ele>1034</ele>
        <time>2015-06-28T09:44:32Z</time>
      </trkpt>
      <trkpt lat="47.82777" lon="6.86619">
        <ele>1038</ele>
        <time>2015-06-28T09:44:52Z</time>
      </trkpt>
      <trkpt lat="47.82737" lon="6.86513">
        <ele>1026</ele>
        <time>2015-06-28T09:45:12Z</time>
      </trkpt>
      <trkpt lat="47.82717" lon="6.86483">
        <ele>1027</ele>
        <time>2015-06-28T09:45:32Z</time>
      </trkpt>
      <trkpt lat="47.82691" lon="6.8642">
        <ele>1025</ele>
        <time>2015-06-28T09:45:52Z</time>
      </trkpt>
      <trkpt lat="47.82666" lon="6.86378">
        <ele>1017</ele>
        <time>2015-06-28T09:46:12Z</time>
      </trkpt>
      <trkpt lat="47.82649" lon="6.86335">
        <ele>1020</ele>
        <time>2015-06-28T09:46:32Z</time>
      </trkpt>
      <trkpt lat="47.82627" lon="6.86261">
        <ele>1024</ele>
        <time>2015-06-28T09:46:52Z</time>
      </trkpt>
      <trkpt lat="47.82554" lon="6.86187">
        <ele>1026</ele>
        <time>2015-06-28T09:47:12Z</time>
      </trkpt>
      <trkpt lat="47.82396" lon="6.86003">
        <ele>1059</ele>
        <time>2015-06-28T09:47:32Z</time>
      </trkpt>
      <trkpt lat="47.82381" lon="6.8598">
        <ele>1079</ele>
        <time>2015-06-28T09:47:52Z</time>
      </trkpt>
      <trkpt lat="47.82354" lon="6.85946">
        <ele>1087</ele>
        <time>2015-06-28T09:48:12Z</time>
      </trkpt>
      <trkpt lat="47.82348" lon="6.85914">
        <ele>1102</ele>
        <time>2015-06-28T09:48:32Z</time>
      </trkpt>
      <trkpt lat="47.82329" lon="6.859">
        <ele>1105</ele>
        <time>2015-06-28T09:48:52Z</time>
      </trkpt>
      <trkpt lat="47.8231" lon="6.85905">
        <ele>1106</ele>
        <time>2015-06-28T09:49:12Z</time>
      </trkpt>
      <trkpt lat="47.82285" lon="6.85902">
        <ele>1108</ele>
        <time>2015-06-28T09:49:32Z</time>
      </trkpt>
      <trkpt lat="47.82267" lon="6.85917">
        <ele>1099</ele>
        <time>2015-06-28T09:49:52Z</time>
      </trkpt>
      <trkpt lat="47.82251" lon="6.85918">
        <ele>1106</ele>
        <time>2015-06-28T09:50:12Z</time>
      </trkpt>
      <trkpt lat="47.82199" lon="6.85947">
        <ele>1093</ele>
        <time>2015-06-28T09:50:32Z</time>
      </trkpt>
      <trkpt lat="47.82145" lon="6.85915">
        <ele>1095</ele>
        <time>2015-06-28T09:50:52Z</time>
      </trkpt>
      <trkpt lat="47.8213" lon="6.85896">
        <ele>1092</ele>
        <time>2015-06-28T09:51:12Z</time>
      </trkpt>
      <trkpt lat="47.82124" lon="6.8587">
        <ele>1091</ele>
        <time>2015-06-28T09:51:32Z</time>
      </trkpt>
      <trkpt lat="47.82132" lon="6.85788">
        <ele>1084</ele>
        <time>2015-06-28T09:51:52Z</time>
      </trkpt>
      <trkpt lat="47.82155" lon="6.85738">
        <ele>1079</ele>
        <time>2015-06-28T09:52:12Z</time>
      </trkpt>
      <trkpt lat="47.82186" lon="6.85711">
        <ele>1089</ele>
        <time>2015-06-28T09:52:32Z</time>
      </trkpt>
      <trkpt lat="47.82216" lon="6.85706">
        <ele>1091</ele>
        <time>2015-06-28T09:52:52Z</time>
      </trkpt>
      <trkpt lat="47.8225" lon="6.85686">
        <ele>1100</ele>
        <time>2015-06-28T09:53:12Z</time>
      </trkpt>
      <trkpt lat="47.82269" lon="6.85616">
        <ele>1096</ele>
        <time>2015-06-28T09:53:32Z</time>
      </trkpt>
      <trkpt lat="47.82288" lon="6.85581">
        <ele>1093</ele>
        <time>2015-06-28T09:53:52Z</time>
      </trkpt>
      <trkpt lat="47.82287" lon="6.85523">
        <ele>1091</ele>
        <time>2015-06-28T09:54:12Z</time>
      </trkpt>
      <trkpt lat="47.82293" lon="6.85497">
        <ele>1085</ele>
        <time>2015-06-28T09:54:32Z</time>
      </trkpt>
      <trkpt lat="47.82292" lon="6.85459">
        <ele>1083</ele>
        <time>2015-06-28T09:54:52Z</time>
      </trkpt>
      <trkpt lat="47.82305" lon="6.85439">
        <ele>1084</ele>
        <time>2015-06-28T09:55:12Z</time>
      </trkpt>
      <trkpt lat="47.8234" lon="6.85416">
        <ele>1089</ele>
        <time>2015-06-28T09:55:32Z</time>
      </trkpt>
      <trkpt lat="47.82362" lon="6.85387">
        <ele>1090</ele>
        <time>2015-06-28T09:55:52Z</time>
      </trkpt>
      <trkpt lat="47.82399" lon="6.8538">
        <ele>1094</ele>
        <time>2015-06-28T09:56:12Z</time>
      </trkpt>
      <trkpt lat="47.8241" lon="6.85362">
        <ele>1095</ele>
        <time>2015-06-28T09:56:32Z</time>
      </trkpt>
      <trkpt lat="47.82423" lon="6.85368">
        <ele>1100</ele>
        <time>2015-06-28T09:56:52Z</time>
      </trkpt>
      <trkpt lat="47.82442" lon="6.85348">
        <ele>1100</ele>
        <time>2015-06-28T09:57:12Z</time>
      </trkpt>
      <trkpt lat="47.82446" lon="6.85327">
        <ele>1109</ele>
        <time>2015-06-28T09:57:32Z</time>
      </trkpt>
      <trkpt lat="47.82485" lon="6.85202">
        <ele>1122</ele>
        <time>2015-06-28T09:57:52Z</time>
      </trkpt>
      <trkpt lat="47.82474" lon="6.85176">
        <ele>1122</ele>
        <time>2015-06-28T09:58:12Z</time>
      </trkpt>
      <trkpt lat="47.8248" lon="6.85134">
        <ele>1122</ele>
        <time>2015-06-28T09:58:32Z</time>
      </trkpt>
      <trkpt lat="47.82475" lon="6.85108">
        <ele>1122</ele>
        <time>2015-06-28T09:58:52Z</time>
      </trkpt>
      <trkpt lat="47.82482" lon="6.85059">
        <ele>1124</ele>
        <time>2015-06-28T09:59:12Z</time>
      </trkpt>
      <trkpt lat="47.82472" lon="6.85011">
        <ele>1125</ele>
        <time>2015-06-28T09:59:32Z</time>
      </trkpt>
      <trkpt lat="47.82455" lon="6.85001">
        <ele>1126</ele>
        <time>2015-06-28T09:59:52Z</time>
      </trkpt>
      <trkpt lat="47.82443" lon="6.84973">
        <ele>1130</ele>
        <time>2015-06-28T10:00:12Z</time>
      </trkpt>
      <trkpt lat="47.82424" lon="6.84954">
        <ele>1132</ele>
        <time>2015-06-28T10:00:32Z</time>
      </trkpt>
      <trkpt lat="47.82407" lon="6.84907">
        <ele>1143</ele>
        <time>2015-06-28T10:00:52Z</time>
      </trkpt>
      <trkpt lat="47.82395" lon="6.84893">
        <ele>1144</ele>
        <time>2015-06-28T10:01:12Z</time>
      </trkpt>
      <trkpt lat="47.82386" lon="6.8485">
        <ele>1145</ele>
        <time>2015-06-28T10:01:32Z</time>
      </trkpt>
      <trkpt lat="47.82371" lon="6.84836">
        <ele>1146</ele>
        <time>2015-06-28T10:01:52Z</time>
      </trkpt>
      <trkpt lat="47.82351" lon="6.848">
        <ele>1161</ele>
        <time>2015-06-28T10:02:12Z</time>
      </trkpt>
      <trkpt lat="47.82333" lon="6.84795">
        <ele>1167</ele>
        <time>2015-06-28T10:02:32Z</time>
      </trkpt>
      <trkpt lat="47.82322" lon="6.84766">
        <ele>1175</ele>
        <time>2015-06-28T10:02:52Z</time>
      </trkpt>
      <trkpt lat="47.8231" lon="6.84758">
        <ele>1175</ele>
        <time>2015-06-28T10:03:12Z</time>
      </trkpt>
      <trkpt lat="47.82311" lon="6.84723">
        <ele>1201</ele>
        <time>2015-06-28T10:03:32Z</time>
      </trkpt>
      <trkpt lat="47.82306" lon="6.8471">
        <ele>1204</ele>
        <time>2015-06-28T10:03:52Z</time>
      </trkpt>
      <trkpt lat="47.82274" lon="6.84721">
        <ele>1203</ele>
        <time>2015-06-28T10:04:12Z</time>
      </trkpt>
      <trkpt lat="47.82251" lon="6.84705">
        <ele>1208</ele>
        <time>2015-06-28T10:04:32Z</time>
      </trkpt>
      <trkpt lat="47.82236" lon="6.84677">
        <ele>1209</ele>
        <time>2015-06-28T10:04:52Z</time>
      </trkpt>
      <trkpt lat="47.82212" lon="6.84603">
        <ele>1220</ele>
        <time>2015-06-28T10:05:12Z</time>
      </trkpt>
      <trkpt lat="47.82206" lon="6.84546">
        <ele>1230</ele>
        <time>2015-06-28T10:05:32Z</time>
      </trkpt>
      <trkpt lat="47.8216" lon="6.84524">
        <ele>1215</ele>
        <time>2015-06-28T10:05:52Z</time>
      </trkpt>
      <trkpt lat="47.82148" lon="6.84437">
        <ele>1227</ele>
        <time>2015-06-28T10:06:12Z</time>
      </trkpt>
      <trkpt lat="47.82121" lon="6.8439">
        <ele>1225</ele>
        <time>2015-06-28T10:06:32Z</time>
      </trkpt>
      <trkpt lat="47.82096" lon="6.84358">
        <ele>1221</ele>
        <time>2015-06-28T10:06:52Z</time>
      </trkpt>
      <trkpt lat="47.82074" lon="6.84342">
        <ele>1213</ele>
        <time>2015-06-28T10:07:12Z</time>
      </trkpt>
      <trkpt lat="47.82056" lon="6.84308">
        <ele>1203</ele>
        <time>2015-06-28T10:07:32Z</time>
      </trkpt>
      <trkpt lat="47.82032" lon="6.84284">
        <ele>1199</ele>
        <time>2015-06-28T10:07:52Z</time>
      </trkpt>
      <trkpt lat="47.82007" lon="6.84294">
        <ele>1197</ele>
        <time>2015-06-28T10:08:12Z</time>
      </trkpt>
      <trkpt lat="47.81997" lon="6.84259">
        <ele>1184</ele>
        <time>2015-06-28T10:08:32Z</time>
      </trkpt>
      <trkpt lat="47.81863" lon="6.84225">
        <ele>1159</ele>
        <time>2015-06-28T10:08:52Z</time>
      </trkpt>
      <trkpt lat="47.81817" lon="6.84217">
        <ele>1151</ele>
        <time>2015-06-28T10:09:12Z</time>
      </trkpt>
      <trkpt lat="47.81734" lon="6.84226">
        <ele>1144</ele>
        <time>2015-06-28T10:09:32Z</time>
      </trkpt>
      <trkpt lat="47.8168" lon="6.84239">
        <ele>1142</ele>
        <time>2015-06-28T10:09:52Z</time>
      </trkpt>
      <trkpt lat="47.81482" lon="6.84262">
        <ele>1131</ele>
        <time>2015-06-28T10:10:12Z</time>
      </trkpt>
      <trkpt lat="47.81433" lon="6.84258">
        <ele>1132</ele>
        <time>2015-06-28T10:10:32Z</time>
      </trkpt>
      <trkpt lat="47.81371" lon="6.84278">
        <ele>1137</ele>
        <time>2015-06-28T10:10:52Z</time>
      </trkpt>
      <trkpt lat="47.81314" lon="6.84289">
        <ele>1144</ele>
        <time>2015-06-28T10:11:12Z</time>
      </trkpt>
      <trkpt lat="47.81201" lon="6.84379">
        <ele>1141</ele>
        <time>2015-06-28T10:11:32Z</time>
      </trkpt>
      <trkpt lat="47.81176" lon="6.84439">
        <ele>1126</ele>
        <time>2015-06-28T10:11:52Z</time>
      </trkpt>
      <trkpt lat="47.81094" lon="6.84546">
        <ele>1102</ele>
        <time>2015-06-28T10:12:12Z</time>
      </trkpt>
      <trkpt lat="47.81068" lon="6.84613">
        <ele>1091</ele>
        <time>2015-06-28T10:12:32Z</time>
      </trkpt>
      <trkpt lat="47.81063" lon="6.84654">
        <ele>1090</ele>
        <time>2015-06-28T10:12:52Z</time>
      </trkpt>
      <trkpt lat="47.81021" lon="6.84709">
        <ele>1091</ele>
        <time>2015-06-28T10:13:12Z</time>
      </trkpt>
      <trkpt lat="47.81002" lon="6.84706">
        <ele>1091</ele>
        <time>2015-06-28T10:13:32Z</time>
      </trkpt>
      <trkpt lat="47.80946" lon="6.84781">
        <ele>1089</ele>
        <time>2015-06-28T10:13:52Z</time>
      </trkpt>
      <trkpt lat="47.80905" lon="6.84796">
        <ele>1087</ele>
        <time>2015-06-28T10:14:12Z</time>
      </trkpt>
      <trkpt lat="47.809" lon="6.84815">
        <ele>1086</ele>
        <time>2015-06-28T10:14:32Z</time>
      </trkpt>
      <trkpt lat="47.80856" lon="6.84854">
        <ele>1085</ele>
        <time>2015-06-28T10:14:52Z</time>
      </trkpt>
      <trkpt lat="47.8085" lon="6.84846">
        <ele>1086</ele>
        <time>2015-06-28T10:15:12Z</time>
      </trkpt>
      <trkpt lat="47.80833" lon="6.84834">
        <ele>1087</ele>
        <time>2015-06-28T10:15:32Z</time>
      </trkpt>
      <trkpt lat="47.80755" lon="6.84854">
        <ele>1092</ele>
        <time>2015-06-28T10:15:52Z</time>
      </trkpt>
      <trkpt lat="47.80723" lon="6.84855">
        <ele>1097</ele>
        <time>2015-06-28T10:16:12Z</time>
      </trkpt>
      <trkpt lat="47.80603" lon="6.84842">
        <ele>1103</ele>
        <time>2015-06-28T10:16:32Z</time>
      </trkpt>
      <trkpt lat="47.8056" lon="6.8482">
        <ele>1095</ele>
        <time>2015-06-28T10:16:52Z</time>
      </trkpt>
      <trkpt lat="47.80516" lon="6.84807">
        <ele>1095</ele>
        <time>2015-06-28T10:17:12Z</time>
      </trkpt>
      <trkpt lat="47.80492" lon="6.84795">
        <ele>1094</ele>
        <time>2015-06-28T10:17:32Z</time>
      </trkpt>
      <trkpt lat="47.80461" lon="6.84795">
        <ele>1094</ele>
        <time>2015-06-28T10:17:52Z</time>
      </trkpt>
      <trkpt lat="47.8043" lon="6.84806">
        <ele>1094</ele>
        <time>2015-06-28T10:18:12Z</time>
      </trkpt>
      <trkpt lat="47.80412" lon="6.8483">
        <ele>1094</ele>
        <time>2015-06-28T10:18:32Z</time>
      </trkpt>
      <trkpt lat="47.80376" lon="6.84848">
        <ele>1088</ele>
        <time>2015-06-28T10:18:52Z</time>
      </trkpt>
      <trkpt lat="47.80326" lon="6.84862">
        <ele>1077</ele>
        <time>2015-06-28T10:19:12Z</time>
      </trkpt>
      <trkpt lat="47.80279" lon="6.84857">
        <ele>1073</ele>
        <time>2015-06-28T10:19:32Z</time>
      </trkpt>
      <trkpt lat="47.80178" lon="6.84887">
        <ele>1062</ele>
        <time>2015-06-28T10:19:52Z</time>
      </trkpt>
      <trkpt lat="47.80157" lon="6.84904">
        <ele>1058</ele>
        <time>2015-06-28T10:20:12Z</time>
      </trkpt>
      <trkpt lat="47.80144" lon="6.84902">
        <ele>1058</ele>
        <time>2015-06-28T10:20:32Z</time>
      </trkpt>
      <trkpt lat="47.80107" lon="6.84925">
        <ele>1057</ele>
        <time>2015-06-28T10:20:52Z</time>
      </trkpt>
      <trkpt lat="47.80109" lon="6.84934">
        <ele>1057</ele>
        <time>2015-06-28T10:21:12Z</time>
      </trkpt>
      <trkpt lat="47.80094" lon="6.84976">
        <ele>1056</ele>
        <time>2015-06-28T10:21:32Z</time>
      </trkpt>
      <trkpt lat="47.80052" lon="6.85024">
        <ele>1059</ele>
        <time>2015-06-28T10:21:52Z</time>
      </trkpt>
      <trkpt lat="47.79992" lon="6.85125">
        <ele>1070</ele>
        <time>2015-06-28T10:22:12Z</time>
      </trkpt>
      <trkpt lat="47.79922" lon="6.85256">
        <ele>1076</ele>
        <time>2015-06-28T10:22:32Z</time>
      </trkpt>
      <trkpt lat="47.79877" lon="6.85315">
        <ele>1086</ele>
        <time>2015-06-28T10:22:52Z</time>
      </trkpt>
      <trkpt lat="47.7985" lon="6.85359">
        <ele>1085</ele>
        <time>2015-06-28T10:23:12Z</time>
      </trkpt>
      <trkpt lat="47.79803" lon="6.85403">
        <ele>1090</ele>
        <time>2015-06-28T10:23:32Z</time>
      </trkpt>
      <trkpt lat="47.79741" lon="6.85451">
        <ele>1092</ele>
        <time>2015-06-28T10:23:52Z</time>
      </trkpt>
      <trkpt lat="47.79659" lon="6.85602">
        <ele>1097</ele>
        <time>2015-06-28T10:24:12Z</time>
      </trkpt>
      <trkpt lat="47.79616" lon="6.85647">
        <ele>1097</ele>
        <time>2015-06-28T10:24:32Z</time>
      </trkpt>
      <trkpt lat="47.79599" lon="6.85671">
        <ele>1094</ele>
        <time>2015-06-28T10:24:52Z</time>
      </trkpt>
      <trkpt lat="47.79526" lon="6.85759">
        <ele>1095</ele>
        <time>2015-06-28T10:25:12Z</time>
      </trkpt>
      <trkpt lat="47.795" lon="6.85804">
        <ele>1095</ele>
        <time>2015-06-28T10:25:32Z</time>
      </trkpt>
      <trkpt lat="47.79477" lon="6.8583">
        <ele>1095</ele>
        <time>2015-06-28T10:25:52Z</time>
      </trkpt>
      <trkpt lat="47.79448" lon="6.8593">
        <ele>1093</ele>
        <time>2015-06-28T10:26:12Z</time>
      </trkpt>
      <trkpt lat="47.79386" lon="6.86004">
        <ele>1095</ele>
        <time>2015-06-28T10:26:32Z</time>
      </trkpt>
      <trkpt lat="47.79307" lon="6.86043">
        <ele>1100</ele>
        <time>2015-06-28T10:26:52Z</time>
      </trkpt>
      <trkpt lat="47.79213" lon="6.86126">
        <ele>1102</ele>
        <time>2015-06-28T10:27:12Z</time>
      </trkpt>
      <trkpt lat="47.79132" lon="6.86202">
        <ele>1101</ele>
        <time>2015-06-28T10:27:32Z</time>
      </trkpt>
      <trkpt lat="47.79061" lon="6.86224">
        <ele>1095</ele>
        <time>2015-06-28T10:27:52Z</time>
      </trkpt>
      <trkpt lat="47.789" lon="6.86149">
        <ele>1080</ele>
        <time>2015-06-28T10:28:12Z</time>
      </trkpt>
      <trkpt lat="47.78846" lon="6.86161">
        <ele>1075</ele>
        <time>2015-06-28T10:28:32Z</time>
      </trkpt>
      <trkpt lat="47.78806" lon="6.86172">
        <ele>1070</ele>
        <time>2015-06-28T10:28:52Z</time>
      </trkpt>
      <trkpt lat="47.78705" lon="6.86114">
        <ele>1061</ele>
        <time>2015-06-28T10:29:12Z</time>
      </trkpt>
      <trkpt lat="47.78694" lon="6.86097">
        <ele>1060</ele>
        <time>2015-06-28T10:29:32Z</time>
      </trkpt>
      <trkpt lat="47.78638" lon="6.86073">
        <ele>1053</ele>
        <time>2015-06-28T10:29:52Z</time>
      </trkpt>
      <trkpt lat="47.78559" lon="6.85988">
        <ele>1049</ele>
        <time>2015-06-28T10:30:12Z</time>
      </trkpt>
      <trkpt lat="47.78544" lon="6.85977">
        <ele>1050</ele>
        <time>2015-06-28T10:30:32Z</time>
      </trkpt>
      <trkpt lat="47.7852" lon="6.85939">
        <ele>1051</ele>
        <time>2015-06-28T10:30:52Z</time>
      </trkpt>
      <trkpt lat="47.78485" lon="6.85864">
        <ele>1046</ele>
        <time>2015-06-28T10:31:12Z</time>
      </trkpt>
      <trkpt lat="47.78461" lon="6.8583">
        <ele>1038</ele>
        <time>2015-06-28T10:31:32Z</time>
      </trkpt>
      <trkpt lat="47.78425" lon="6.85847">
        <ele>1037</ele>
        <time>2015-06-28T10:31:52Z</time>
      </trkpt>
      <trkpt lat="47.7839" lon="6.85908">
        <ele>1026</ele>
        <time>2015-06-28T10:32:12Z</time>
      </trkpt>
      <trkpt lat="47.78221" lon="6.86155">
        <ele>998</ele>
        <time>2015-06-28T10:32:32Z</time>
      </trkpt>
      <trkpt lat="47.78181" lon="6.86166">
        <ele>990</ele>
        <time>2015-06-28T10:32:52Z</time>
      </trkpt>
      <trkpt lat="47.78132" lon="6.86154">
        <ele>972</ele>
        <time>2015-06-28T10:33:12Z</time>
      </trkpt>
      <trkpt lat="47.78064" lon="6.8612">
        <ele>945</ele>
        <time>2015-06-28T10:33:32Z</time>
      </trkpt>
      <trkpt lat="47.7801" lon="6.86079">
        <ele>929</ele>
        <time>2015-06-28T10:33:52Z</time>
      </trkpt>
      <trkpt lat="47.77898" lon="6.86017">
        <ele>924</ele>
        <time>2015-06-28T10:34:12Z</time>
      </trkpt>
      <trkpt lat="47.77867" lon="6.8599">
        <ele>935</ele>
        <time>2015-06-28T10:34:32Z</time>
      </trkpt>
      <trkpt lat="47.77857" lon="6.85964">
        <ele>935</ele>
        <time>2015-06-28T10:34:52Z</time>
      </trkpt>
      <trkpt lat="47.77808" lon="6.8589">
        <ele>950</ele>
        <time>2015-06-28T10:35:12Z</time>
      </trkpt>
      <trkpt lat="47.77757" lon="6.85832">
        <ele>956</ele>
        <time>2015-06-28T10:35:32Z</time>
      </trkpt>
      <trkpt lat="47.77681" lon="6.85774">
        <ele>957</ele>
        <time>2015-06-28T10:35:52Z</time>
      </trkpt>
      <trkpt lat="47.77623" lon="6.85764">
        <ele>956</ele>
        <time>2015-06-28T10:36:12Z</time>
      </trkpt>
      <trkpt lat="47.77518" lon="6.85657">
        <ele>944</ele>
        <time>2015-06-28T10:36:32Z</time>
      </trkpt>
      <trkpt lat="47.77533" lon="6.85582">
        <ele>933</ele>
        <time>2015-06-28T10:36:52Z</time>
      </trkpt>
      <trkpt lat="47.77534" lon="6.8551">
        <ele>927</ele>
        <time>2015-06-28T10:37:12Z</time>
      </trkpt>
      <trkpt lat="47.77515" lon="6.85485">
        <ele>919</ele>
        <time>2015-06-28T10:37:32Z</time>
      </trkpt>
      <trkpt lat="47.77461" lon="6.85382">
        <ele>918</ele>
        <time>2015-06-28T10:37:52Z</time>
      </trkpt>
      <trkpt lat="47.77454" lon="6.85266">
        <ele>911</ele>
        <time>2015-06-28T10:38:12Z</time>
      </trkpt>
      <trkpt lat="47.77444" lon="6.85153">
        <ele>911</ele>
        <time>2015-06-28T10:38:32Z</time>
      </trkpt>
      <trkpt lat="47.77431" lon="6.85094">
        <ele>915</ele>
        <time>2015-06-28T10:38:52Z</time>
      </trkpt>
      <trkpt lat="47.77389" lon="6.8481">
        <ele>910</ele>
        <time>2015-06-28T10:39:12Z</time>
      </trkpt>
      <trkpt lat="47.77339" lon="6.84651">
        <ele>905</ele>
        <time>2015-06-28T10:39:32Z</time>
      </trkpt>
      <trkpt lat="47.77297" lon="6.84566">
        <ele>903</ele>
        <time>2015-06-28T10:39:52Z</time>
      </trkpt>
      <trkpt lat="47.77261" lon="6.84517">
        <ele>900</ele>
        <time>2015-06-28T10:40:12Z</time>
      </trkpt>
      <trkpt lat="47.77216" lon="6.84485">
        <ele>895</ele>
        <time>2015-06-28T10:40:32Z</time>
      </trkpt>
      <trkpt lat="47.77193" lon="6.84448">
        <ele>892</ele>
        <time>2015-06-28T10:40:52Z</time>
      </trkpt>
      <trkpt lat="47.7717" lon="6.84424">
        <ele>889</ele>
        <time>2015-06-28T10:41:12Z</time>
      </trkpt>
      <trkpt lat="47.77152" lon="6.84371">
        <ele>888</ele>
        <time>2015-06-28T10:41:32Z</time>
      </trkpt>
      <trkpt lat="47.7715" lon="6.84327">
        <ele>875</ele>
        <time>2015-06-28T10:41:52Z</time>
      </trkpt>
      <trkpt lat="47.77129" lon="6.84238">
        <ele>863</ele>
        <time>2015-06-28T10:42:12Z</time>
      </trkpt>
      <trkpt lat="47.77041" lon="6.84012">
        <ele>840</ele>
        <time>2015-06-28T10:42:32Z</time>
      </trkpt>
      <trkpt lat="47.76989" lon="6.8394">
        <ele>828</ele>
        <time>2015-06-28T10:42:52Z</time>
      </trkpt>
      <trkpt lat="47.76936" lon="6.83844">
        <ele>806</ele>
        <time>2015-06-28T10:43:12Z</time>
      </trkpt>
      <trkpt lat="47.76909" lon="6.83777">
        <ele>789</ele>
        <time>2015-06-28T10:43:32Z</time>
      </trkpt>
      <trkpt lat="47.7688" lon="6.83747">
        <ele>776</ele>
        <time>2015-06-28T10:43:52Z</time>
      </trkpt>
      <trkpt lat="47.76794" lon="6.83815">
        <ele>781</ele>
        <time>2015-06-28T10:44:12Z</time>
      </trkpt>
      <trkpt lat="47.76726" lon="6.83847">
        <ele>781</ele>
        <time>2015-06-28T10:44:32Z</time>
      </trkpt>
      <trkpt lat="47.76648" lon="6.83857">
        <ele>772</ele>
        <time>2015-06-28T10:44:52Z</time>
      </trkpt>
      <trkpt lat="47.76619" lon="6.8384">
        <ele>771</ele>
        <time>2015-06-28T10:45:12Z</time>
      </trkpt>
      <trkpt lat="47.7657" lon="6.83769">
        <ele>751</ele>
        <time>2015-06-28T10:45:32Z</time>
      </trkpt>
      <trkpt lat="47.76504" lon="6.83686">
        <ele>742</ele>
        <time>2015-06-28T10:45:52Z</time>
      </trkpt>
      <trkpt lat="47.76461" lon="6.83604">
        <ele>740</ele>
        <time>2015-06-28T10:46:12Z</time>
      </trkpt>
      <trkpt lat="47.76427" lon="6.83579">
        <ele>736</ele>
        <time>2015-06-28T10:46:32Z</time>
      </trkpt>
      <trkpt lat="47.76387" lon="6.83572">
        <ele>733</ele>
        <time>2015-06-28T10:46:52Z</time>
      </trkpt>
      <trkpt lat="47.76266" lon="6.83637">
        <ele>739</ele>
        <time>2015-06-28T10:47:12Z</time>
      </trkpt>
      <trkpt lat="47.76217" lon="6.83646">
        <ele>734</ele>
        <time>2015-06-28T10:47:32Z</time>
      </trkpt>
      <trkpt lat="47.7617" lon="6.83669">
        <ele>737</ele>
        <time>2015-06-28T10:47:52Z</time>
      </trkpt>
      <trkpt lat="47.76109" lon="6.83671">
        <ele>733</ele>
        <time>2015-06-28T10:48:12Z</time>
      </trkpt>
      <trkpt lat="47.76019" lon="6.83661">
        <ele>727</ele>
        <time>2015-06-28T10:48:32Z</time>
      </trkpt>
      <trkpt lat="47.76013" lon="6.8368">
        <ele>729</ele>
        <time>2015-06-28T10:48:52Z</time>
      </trkpt>
      <trkpt lat="47.7599" lon="6.83738">
        <ele>733</ele>
        <time>2015-06-28T10:49:12Z</time>
      </trkpt>
      <trkpt lat="47.75972" lon="6.83814">
        <ele>728</ele>
        <time>2015-06-28T10:49:32Z</time>
      </trkpt>
      <trkpt lat="47.75988" lon="6.83928">
        <ele>695</ele>
        <time>2015-06-28T10:49:52Z</time>
      </trkpt>
      <trkpt lat="47.75978" lon="6.83957">
        <ele>693</ele>
        <time>2015-06-28T10:50:12Z</time>
      </trkpt>
      <trkpt lat="47.75975" lon="6.83998">
        <ele>688</ele>
        <time>2015-06-28T10:50:32Z</time>
      </trkpt>
      <trkpt lat="47.75964" lon="6.84049">
        <ele>677</ele>
        <time>2015-06-28T10:50:52Z</time>
      </trkpt>
      <trkpt lat="47.75947" lon="6.84077">
        <ele>674</ele>
        <time>2015-06-28T10:51:12Z</time>
      </trkpt>
      <trkpt lat="47.75895" lon="6.84104">
        <ele>661</ele>
        <time>2015-06-28T10:51:32Z</time>
      </trkpt>
      <trkpt lat="47.75884" lon="6.84129">
        <ele>657</ele>
        <time>2015-06-28T10:51:52Z</time>
      </trkpt>
      <trkpt lat="47.75757" lon="6.84183">
        <ele>626</ele>
        <time>2015-06-28T10:52:12Z</time>
      </trkpt>
      <trkpt lat="47.75727" lon="6.84189">
        <ele>616</ele>
        <time>2015-06-28T10:52:32Z</time>
      </trkpt>
      <trkpt lat="47.75662" lon="6.84226">
        <ele>600</ele>
        <time>2015-06-28T10:52:52Z</time>
      </trkpt>
      <trkpt lat="47.75616" lon="6.84223">
        <ele>599</ele>
        <time>2015-06-28T10:53:12Z</time>
      </trkpt>
      <trkpt lat="47.75564" lon="6.84177">
        <ele>595</ele>
        <time>2015-06-28T10:53:32Z</time>
      </trkpt>
      <trkpt lat="47.75482" lon="6.84177">
        <ele>585</ele>
        <time>2015-06-28T10:53:52Z</time>
      </trkpt>
      <trkpt lat="47.75323" lon="6.84224">
        <ele>557</ele>
        <time>2015-06-28T10:54:12Z</time>
      </trkpt>
      <trkpt lat="47.75277" lon="6.84205">
        <ele>554</ele>
        <time>2015-06-28T10:54:32Z</time>
      </trkpt>
      <trkpt lat="47.75231" lon="6.84164">
        <ele>544</ele>
        <time>2015-06-28T10:54:52Z</time>
      </trkpt>
      <trkpt lat="47.75177" lon="6.84075">
        <ele>544</ele>
        <time>2015-06-28T10:55:12Z</time>
      </trkpt>
      <trkpt lat="47.75114" lon="6.84016">
        <ele>538</ele>
        <time>2015-06-28T10:55:32Z</time>
      </trkpt>
      <trkpt lat="47.75023" lon="6.83931">
        <ele>540</ele>
        <time>2015-06-28T10:55:52Z</time>
      </trkpt>
      <trkpt lat="47.74996" lon="6.83939">
        <ele>535</ele>
        <time>2015-06-28T10:56:12Z</time>
      </trkpt>
      <trkpt lat="47.74994" lon="6.83997">
        <ele>525</ele>
        <time>2015-06-28T10:56:32Z</time>
      </trkpt>
      <trkpt lat="47.74947" lon="6.83996">
        <ele>525</ele>
        <time>2015-06-28T10:56:52Z</time>
      </trkpt>
      <trkpt lat="47.749" lon="6.84002">
        <ele>511</ele>
        <time>2015-06-28T10:57:12Z</time>
      </trkpt>
      <trkpt lat="47.74872" lon="6.83983">
        <ele>516</ele>
        <time>2015-06-28T10:57:32Z</time>
      </trkpt>
      <trkpt lat="47.74815" lon="6.83878">
        <ele>513</ele>
        <time>2015-06-28T10:57:52Z</time>
      </trkpt>
      <trkpt lat="47.74807" lon="6.8382">
        <ele>514</ele>
        <time>2015-06-28T10:58:12Z</time>
      </trkpt>
      <trkpt lat="47.74816" lon="6.83773">
        <ele>515</ele>
        <time>2015-06-28T10:58:32Z</time>
      </trkpt>
      <trkpt lat="47.74806" lon="6.83727">
        <ele>514</ele>
        <time>2015-06-28T10:58:52Z</time>
      </trkpt>
      <trkpt lat="47.74746" lon="6.83655">
        <ele>507</ele>
        <time>2015-06-28T10:59:12Z</time>
      </trkpt>
      <trkpt lat="47.74631" lon="6.83605">
        <ele>503</ele>
        <time>2015-06-28T10:59:32Z</time>
      </trkpt>
      <trkpt lat="47.74599" lon="6.83572">
        <ele>498</ele>
        <time>2015-06-28T10:59:52Z</time>
      </trkpt>
      <trkpt lat="47.74573" lon="6.83503">
        <ele>493</ele>
        <time>2015-06-28T11:00:12Z</time>
      </trkpt>
      <trkpt lat="47.74547" lon="6.83474">
        <ele>490</ele>
        <time>2015-06-28T11:00:32Z</time>
      </trkpt>
      <trkpt lat="47.74488" lon="6.83453">
        <ele>484</ele>
        <time>2015-06-28T11:00:52Z</time>
      </trkpt>
      <trkpt lat="47.74427" lon="6.83441">
        <ele>482</ele>
        <time>2015-06-28T11:01:12Z</time>
      </trkpt>
      <trkpt lat="47.74345" lon="6.83152">
        <ele>479</ele>
        <time>2015-06-28T11:01:32Z</time>
      </trkpt>
      <trkpt lat="47.74287" lon="6.83106">
        <ele>478</ele>
        <time>2015-06-28T11:01:52Z</time>
      </trkpt>
      <trkpt lat="47.74199" lon="6.82868">
        <ele>474</ele>
        <time>2015-06-28T11:02:12Z</time>
      </trkpt>
      <trkpt lat="47.74217" lon="6.82819">
        <ele>473</ele>
        <time>2015-06-28T11:02:32Z</time>
      </trkpt>
      <trkpt lat="47.74134" lon="6.82682">
        <ele>471</ele>
        <time>2015-06-28T11:02:52Z</time>
      </trkpt>
      <trkpt lat="47.74004" lon="6.82752">
        <ele>471</ele>
        <time>2015-06-28T11:03:12Z</time>
      </trkpt>
      <trkpt lat="47.73934" lon="6.82768">
        <ele>470</ele>
        <time>2015-06-28T11:03:32Z</time>
      </trkpt>
      <trkpt lat="47.73885" lon="6.82656">
        <ele>471</ele>
        <time>2015-06-28T11:03:52Z</time>
      </trkpt>
      <trkpt lat="47.73861" lon="6.82534">
        <ele>472</ele>
        <time>2015-06-28T11:04:12Z</time>
      </trkpt>
      <trkpt lat="47.73884" lon="6.82401">
        <ele>474</ele>
        <time>2015-06-28T11:04:32Z</time>
      </trkpt>
      <trkpt lat="47.73831" lon="6.82365">
        <ele>473</ele>
        <time>2015-06-28T11:04:52Z</time>
      </trkpt>
      <trkpt lat="47.73779" lon="6.82195">
        <ele>477</ele>
        <time>2015-06-28T11:05:12Z</time>
      </trkpt>
      <trkpt lat="47.73742" lon="6.82216">
        <ele>481</ele>
        <time>2015-06-28T11:05:32Z</time>
      </trkpt>
      <trkpt lat="47.73676" lon="6.82228">
        <ele>482</ele>
        <time>2015-06-28T11:05:52Z</time>
      </trkpt>
      <trkpt lat="47.73591" lon="6.82252">
        <ele>480</ele>
        <time>2015-06-28T11:06:12Z</time>
      </trkpt>
      <trkpt lat="47.73429" lon="6.82276">
        <ele>481</ele>
        <time>2015-06-28T11:06:32Z</time>
      </trkpt>
      <trkpt lat="47.73403" lon="6.82241">
        <ele>482</ele>
        <time>2015-06-28T11:06:52Z</time>
      </trkpt>
      <trkpt lat="47.73377" lon="6.82149">
        <ele>490</ele>
        <time>2015-06-28T11:07:12Z</time>
      </trkpt>
      <trkpt lat="47.73366" lon="6.82063">
        <ele>494</ele>
        <time>2015-06-28T11:07:32Z</time>
      </trkpt>
      <trkpt lat="47.73341" lon="6.82062">
        <ele>493</ele>
        <time>2015-06-28T11:07:52Z</time>
      </trkpt>
      <trkpt lat="47.73248" lon="6.82142">
        <ele>489</ele>
        <time>2015-06-28T11:08:12Z</time>
      </trkpt>
      <trkpt lat="47.7321" lon="6.82145">
        <ele>490</ele>
        <time>2015-06-28T11:08:32Z</time>
      </trkpt>
      <trkpt lat="47.73142" lon="6.82095">
        <ele>492</ele>
        <time>2015-06-28T11:08:52Z</time>
      </trkpt>
      <trkpt lat="47.73065" lon="6.82015">
        <ele>500</ele>
        <time>2015-06-28T11:09:12Z</time>
      </trkpt>
      <trkpt lat="47.73023" lon="6.82024">
        <ele>501</ele>
        <time>2015-06-28T11:09:32Z</time>
      </trkpt>
      <trkpt lat="47.72995" lon="6.82054">
        <ele>507</ele>
        <time>2015-06-28T11:09:52Z</time>
      </trkpt>
      <trkpt lat="47.72992" lon="6.82072">
        <ele>507</ele>
        <time>2015-06-28T11:10:12Z</time>
      </trkpt>
      <trkpt lat="47.73009" lon="6.82134">
        <ele>498</ele>
        <time>2015-06-28T11:10:32Z</time>
      </trkpt>
      <trkpt lat="47.73016" lon="6.82152">
        <ele>498</ele>
        <time>2015-06-28T11:10:52Z</time>
      </trkpt>
      <trkpt lat="47.73017" lon="6.82179">
        <ele>496</ele>
        <time>2015-06-28T11:11:12Z</time>
      </trkpt>
      <trkpt lat="47.73023" lon="6.82209">
        <ele>493</ele>
        <time>2015-06-28T11:11:32Z</time>
      </trkpt>
      <trkpt lat="47.73018" lon="6.82235">
        <ele>493</ele>
        <time>2015-06-28T11:11:52Z</time>
      </trkpt>
      <trkpt lat="47.72992" lon="6.82248">
        <ele>497</ele>
        <time>2015-06-28T11:12:12Z</time>
      </trkpt>
      <trkpt lat="47.72976" lon="6.82244">
        <ele>498</ele>
        <time>2015-06-28T11:12:32Z</time>
      </trkpt>
      <trkpt lat="47.72965" lon="6.82218">
        <ele>499</ele>
        <time>2015-06-28T11:12:52Z</time>
      </trkpt>
      <trkpt lat="47.72942" lon="6.82124">
        <ele>506</ele>
        <time>2015-06-28T11:13:12Z</time>
      </trkpt>
      <trkpt lat="47.72921" lon="6.82022">
        <ele>512</ele>
        <time>2015-06-28T11:13:32Z</time>
      </trkpt>
      <trkpt lat="47.72899" lon="6.8202">
        <ele>512</ele>
        <time>2015-06-28T11:13:52Z</time>
      </trkpt>
      <trkpt lat="47.72839" lon="6.81991">
        <ele>511</ele>
        <time>2015-06-28T11:14:12Z</time>
      </trkpt>
      <trkpt lat="47.72747" lon="6.81983">
        <ele>501</ele>
        <time>2015-06-28T11:14:32Z</time>
      </trkpt>
      <trkpt lat="47.72699" lon="6.81995">
        <ele>500</ele>
        <time>2015-06-28T11:14:52Z</time>
      </trkpt>
      <trkpt lat="47.72656" lon="6.82063">
        <ele>496</ele>
        <time>2015-06-28T11:15:12Z</time>
      </trkpt>
      <trkpt lat="47.72615" lon="6.82187">
        <ele>490</ele>
        <time>2015-06-28T11:15:32Z</time>
      </trkpt>
      <trkpt lat="47.72581" lon="6.82231">
        <ele>486</ele>
        <time>2015-06-28T11:15:52Z</time>
      </trkpt>
      <trkpt lat="47.72562" lon="6.82262">
        <ele>482</ele>
        <time>2015-06-28T11:16:12Z</time>
      </trkpt>
      <trkpt lat="47.72558" lon="6.82312">
        <ele>480</ele>
        <time>2015-06-28T11:16:32Z</time>
      </trkpt>
      <trkpt lat="47.72535" lon="6.82371">
        <ele>476</ele>
        <time>2015-06-28T11:16:52Z</time>
      </trkpt>
      <trkpt lat="47.72512" lon="6.82413">
        <ele>474</ele>
        <time>2015-06-28T11:17:12Z</time>
      </trkpt>
      <trkpt lat="47.72509" lon="6.82429">
        <ele>474</ele>
        <time>2015-06-28T11:17:32Z</time>
      </trkpt>
      <trkpt lat="47.72497" lon="6.82439">
        <ele>470</ele>
        <time>2015-06-28T11:17:52Z</time>
      </trkpt>
      <trkpt lat="47.7248" lon="6.82465">
        <ele>470</ele>
        <time>2015-06-28T11:18:12Z</time>
      </trkpt>
      <trkpt lat="47.72455" lon="6.82485">
        <ele>469</ele>
        <time>2015-06-28T11:18:32Z</time>
      </trkpt>
      <trkpt lat="47.72445" lon="6.82512">
        <ele>470</ele>
        <time>2015-06-28T11:18:52Z</time>
      </trkpt>
      <trkpt lat="47.7242" lon="6.82535">
        <ele>470</ele>
        <time>2015-06-28T11:19:12Z</time>
      </trkpt>
      <trkpt lat="47.72385" lon="6.8255">
        <ele>466</ele>
        <time>2015-06-28T11:19:32Z</time>
      </trkpt>
      <trkpt lat="47.72352" lon="6.82545">
        <ele>465</ele>
        <time>2015-06-28T11:19:52Z</time>
      </trkpt>
      <trkpt lat="47.72286" lon="6.82564">
        <ele>458</ele>
        <time>2015-06-28T11:20:12Z</time>
      </trkpt>
      <trkpt lat="47.72237" lon="6.82598">
        <ele>452</ele>
        <time>2015-06-28T11:20:32Z</time>
      </trkpt>
      <trkpt lat="47.72203" lon="6.82611">
        <ele>451</ele>
        <time>2015-06-28T11:20:52Z</time>
      </trkpt>
      <trkpt lat="47.72111" lon="6.82609">
        <ele>450</ele>
        <time>2015-06-28T11:21:12Z</time>
      </trkpt>
      <trkpt lat="47.72106" lon="6.82604">
        <ele>450</ele>
        <time>2015-06-28T11:21:32Z</time>
      </trkpt>
      <trkpt lat="47.7206" lon="6.82603">
        <ele>450</ele>
        <time>2015-06-28T11:21:52Z</time>
      </trkpt>
      <trkpt lat="47.72033" lon="6.82599">
        <ele>450</ele>
        <time>2015-06-28T11:22:12Z</time>
      </trkpt>
      <trkpt lat="47.71874" lon="6.82621">
        <ele>447</ele>
        <time>2015-06-28T11:22:32Z</time>
      </trkpt>
      <trkpt lat="47.71828" lon="6.82629">
        <ele>445</ele>
        <time>2015-06-28T11:22:52Z</time>
      </trkpt>
      <trkpt lat="47.7175" lon="6.82665">
        <ele>442</ele>
        <time>2015-06-28T11:23:12Z</time>
      </trkpt>
      <trkpt lat="47.71711" lon="6.82674">
        <ele>440</ele>
        <time>2015-06-28T11:23:32Z</time>
      </trkpt>
      <trkpt lat="47.71669" lon="6.82478">
        <ele>442</ele>
        <time>2015-06-28T11:23:52Z</time>
      </trkpt>
      <trkpt lat="47.71628" lon="6.82244">
        <ele>435</ele>
        <time>2015-06-28T11:24:12Z</time>
      </trkpt>
      <trkpt lat="47.71591" lon="6.8208">
        <ele>427</ele>
        <time>2015-06-28T11:24:32Z</time>
      </trkpt>
      <trkpt lat="47.71574" lon="6.82034">
        <ele>423</ele>
        <time>2015-06-28T11:24:52Z</time>
      </trkpt>
      <trkpt lat="47.71564" lon="6.82014">
        <ele>423</ele>
        <time>2015-06-28T11:25:12Z</time>
      </trkpt>
      <trkpt lat="47.71541" lon="6.81893">
        <ele>420</ele>
        <time>2015-06-28T11:25:32Z</time>
      </trkpt>
      <trkpt lat="47.71531" lon="6.81857">
        <ele>422</ele>
        <time>2015-06-28T11:25:52Z</time>
      </trkpt>
      <trkpt lat="47.71494" lon="6.81851">
        <ele>422</ele>
        <time>2015-06-28T11:26:12Z</time>
      </trkpt>
      <trkpt lat="47.7147" lon="6.81763">
        <ele>425</ele>
        <time>2015-06-28T11:26:32Z</time>
      </trkpt>
      <trkpt lat="47.71405" lon="6.81771">
        <ele>425</ele>
        <time>2015-06-28T11:26:52Z</time>
      </trkpt>
      <trkpt lat="47.71293" lon="6.81719">
        <ele>423</ele>
        <time>2015-06-28T11:27:12Z</time>
      </trkpt>
      <trkpt lat="47.71167" lon="6.81808">
        <ele>422</ele>
        <time>2015-06-28T11:27:32Z</time>
      </trkpt>
      <trkpt lat="47.71075" lon="6.81756">
        <ele>416</ele>
        <time>2015-06-28T11:27:52Z</time>
      </trkpt>
      <trkpt lat="47.71001" lon="6.81731">
        <ele>415</ele>
        <time>2015-06-28T11:28:12Z</time>
      </trkpt>
      <trkpt lat="47.70973" lon="6.81695">
        <ele>412</ele>
        <time>2015-06-28T11:28:32Z</time>
      </trkpt>
      <trkpt lat="47.70906" lon="6.81646">
        <ele>410</ele>
        <time>2015-06-28T11:28:52Z</time>
      </trkpt>
      <trkpt lat="47.70878" lon="6.81643">
        <ele>409</ele>
        <time>2015-06-28T11:29:12Z</time>
      </trkpt>
      <trkpt lat="47.7085" lon="6.81665">
        <ele>409</ele>
        <time>2015-06-28T11:29:32Z</time>
      </trkpt>
      <trkpt lat="47.70804" lon="6.81724">
        <ele>409</ele>
        <time>2015-06-28T11:29:52Z</time>
      </trkpt>
      <trkpt lat="47.70725" lon="6.81743">
        <ele>409</ele>
        <time>2015-06-28T11:30:12Z</time>
      </trkpt>
      <trkpt lat="47.70662" lon="6.81784">
        <ele>410</ele>
        <time>2015-06-28T11:30:32Z</time>
      </trkpt>
      <trkpt lat="47.70599" lon="6.81866">
        <ele>412</ele>
        <time>2015-06-28T11:30:52Z</time>
      </trkpt>
      <trkpt lat="47.70541" lon="6.81931">
        <ele>411</ele>
        <time>2015-06-28T11:31:12Z</time>
      </trkpt>
      <trkpt lat="47.70464" lon="6.82034">
        <ele>411</ele>
        <time>2015-06-28T11:31:32Z</time>
      </trkpt>
      <trkpt lat="47.70436" lon="6.82021">
        <ele>410</ele>
        <time>2015-06-28T11:31:52Z</time>
      </trkpt>
      <trkpt lat="47.70397" lon="6.81948">
        <ele>408</ele>
        <time>2015-06-28T11:32:12Z</time>
      </trkpt>
      <trkpt lat="47.70374" lon="6.81949">
        <ele>408</ele>
        <time>2015-06-28T11:32:32Z</time>
      </trkpt>
      <trkpt lat="47.70324" lon="6.81992">
        <ele>407</ele>
        <time>2015-06-28T11:32:52Z</time>
      </trkpt>
      <trkpt lat="47.70299" lon="6.81994">
        <ele>407</ele>
        <time>2015-06-28T11:33:12Z</time>
      </trkpt>
      <trkpt lat="47.7024" lon="6.81983">
        <ele>406</ele>
        <time>2015-06-28T11:33:32Z</time>
      </trkpt>
      <trkpt lat="47.7012" lon="6.82024">
        <ele>405</ele>
        <time>2015-06-28T11:33:52Z</time>
      </trkpt>
      <trkpt lat="47.70092" lon="6.81948">
        <ele>408</ele>
        <time>2015-06-28T11:34:12Z</time>
      </trkpt>
      <trkpt lat="47.7004" lon="6.81789">
        <ele>419</ele>
        <time>2015-06-28T11:34:32Z</time>
      </trkpt>
      <trkpt lat="47.69999" lon="6.81708">
        <ele>426</ele>
        <time>2015-06-28T11:34:52Z</time>
      </trkpt>
      <trkpt lat="47.69984" lon="6.81609">
        <ele>429</ele>
        <time>2015-06-28T11:35:12Z</time>
      </trkpt>
      <trkpt lat="47.69975" lon="6.81376">
        <ele>429</ele>
        <time>2015-06-28T11:35:32Z</time>
      </trkpt>
      <trkpt lat="47.69974" lon="6.8126">
        <ele>427</ele>
        <time>2015-06-28T11:35:52Z</time>
      </trkpt>
      <trkpt lat="47.69983" lon="6.81173">
        <ele>426</ele>
        <time>2015-06-28T11:36:12Z</time>
      </trkpt>
      <trkpt lat="47.69991" lon="6.81119">
        <ele>426</ele>
        <time>2015-06-28T11:36:32Z</time>
      </trkpt>
      <trkpt lat="47.6998" lon="6.80989">
        <ele>428</ele>
        <time>2015-06-28T11:36:52Z</time>
      </trkpt>
      <trkpt lat="47.69985" lon="6.80969">
        <ele>428</ele>
        <time>2015-06-28T11:37:12Z</time>
      </trkpt>
      <trkpt lat="47.69963" lon="6.80831">
        <ele>423</ele>
        <time>2015-06-28T11:37:32Z</time>
      </trkpt>
      <trkpt lat="47.6994" lon="6.80819">
        <ele>423</ele>
        <time>2015-06-28T11:37:52Z</time>
      </trkpt>
      <trkpt lat="47.69945" lon="6.80754">
        <ele>422</ele>
        <time>2015-06-28T11:38:12Z</time>
      </trkpt>
      <trkpt lat="47.69911" lon="6.80633">
        <ele>422</ele>
        <time>2015-06-28T11:38:32Z</time>
      </trkpt>
      <trkpt lat="47.69895" lon="6.80556">
        <ele>423</ele>
        <time>2015-06-28T11:38:52Z</time>
      </trkpt>
      <trkpt lat="47.69868" lon="6.80551">
        <ele>423</ele>
        <time>2015-06-28T11:39:12Z</time>
      </trkpt>
      <trkpt lat="47.69768" lon="6.80513">
        <ele>419</ele>
        <time>2015-06-28T11:39:32Z</time>
      </trkpt>
      <trkpt lat="47.69692" lon="6.80459">
        <ele>412</ele>
        <time>2015-06-28T11:39:52Z</time>
      </trkpt>
      <trkpt lat="47.69657" lon="6.80467">
        <ele>404</ele>
        <time>2015-06-28T11:40:12Z</time>
      </trkpt>
      <trkpt lat="47.69583" lon="6.80444">
        <ele>399</ele>
        <time>2015-06-28T11:40:32Z</time>
      </trkpt>
      <trkpt lat="47.69522" lon="6.80405">
        <ele>397</ele>
        <time>2015-06-28T11:40:52Z</time>
      </trkpt>
      <trkpt lat="47.69371" lon="6.80373">
        <ele>395</ele>
        <time>2015-06-28T11:41:12Z</time>
      </trkpt>
      <trkpt lat="47.69321" lon="6.80356">
        <ele>393</ele>
        <time>2015-06-28T11:41:32Z</time>
      </trkpt>
      <trkpt lat="47.6928" lon="6.80366">
        <ele>392</ele>
        <time>2015-06-28T11:41:52Z</time>
      </trkpt>
      <trkpt lat="47.69192" lon="6.80372">
        <ele>393</ele>
        <time>2015-06-28T11:42:12Z</time>
      </trkpt>
      <trkpt lat="47.69125" lon="6.80361">
        <ele>396</ele>
        <time>2015-06-28T11:42:32Z</time>
      </trkpt>
      <trkpt lat="47.69096" lon="6.80342">
        <ele>396</ele>
        <time>2015-06-28T11:42:52Z</time>
      </trkpt>
      <trkpt lat="47.69061" lon="6.80361">
        <ele>398</ele>
        <time>2015-06-28T11:43:12Z</time>
      </trkpt>
      <trkpt lat="47.69046" lon="6.80391">
        <ele>399</ele>
        <time>2015-06-28T11:43:32Z</time>
      </trkpt>
      <trkpt lat="47.69039" lon="6.80452">
        <ele>398</ele>
        <time>2015-06-28T11:43:52Z</time>
      </trkpt>
      <trkpt lat="47.69017" lon="6.80512">
        <ele>396</ele>
        <time>2015-06-28T11:44:12Z</time>
      </trkpt>
      <trkpt lat="47.68992" lon="6.80525">
        <ele>396</ele>
        <time>2015-06-28T11:44:32Z</time>
      </trkpt>
      <trkpt lat="47.68968" lon="6.80557">
        <ele>396</ele>
        <time>2015-06-28T11:44:52Z</time>
      </trkpt>
      <trkpt lat="47.6896" lon="6.80592">
        <ele>395</ele>
        <time>2015-06-28T11:45:12Z</time>
      </trkpt>
      <trkpt lat="47.68932" lon="6.80627">
        <ele>395</ele>
        <time>2015-06-28T11:45:32Z</time>
      </trkpt>
      <trkpt lat="47.68917" lon="6.80672">
        <ele>395</ele>
        <time>2015-06-28T11:45:52Z</time>
      </trkpt>
      <trkpt lat="47.68879" lon="6.80699">
        <ele>394</ele>
        <time>2015-06-28T11:46:12Z</time>
      </trkpt>
      <trkpt lat="47.68806" lon="6.80737">
        <ele>393</ele>
        <time>2015-06-28T11:46:32Z</time>
      </trkpt>
      <trkpt lat="47.68688" lon="6.80868">
        <ele>390</ele>
        <time>2015-06-28T11:46:52Z</time>
      </trkpt>
      <trkpt lat="47.68631" lon="6.8091">
        <ele>389</ele>
        <time>2015-06-28T11:47:12Z</time>
      </trkpt>
      <trkpt lat="47.68562" lon="6.80976">
        <ele>389</ele>
        <time>2015-06-28T11:47:32Z</time>
      </trkpt>
      <trkpt lat="47.68482" lon="6.81021">
        <ele>389</ele>
        <time>2015-06-28T11:47:52Z</time>
      </trkpt>
      <trkpt lat="47.68463" lon="6.81069">
        <ele>388</ele>
        <time>2015-06-28T11:48:12Z</time>
      </trkpt>
      <trkpt lat="47.68445" lon="6.81224">
        <ele>388</ele>
        <time>2015-06-28T11:48:32Z</time>
      </trkpt>
      <trkpt lat="47.68357" lon="6.81121">
        <ele>389</ele>
        <time>2015-06-28T11:48:52Z</time>
      </trkpt>
      <trkpt lat="47.68296" lon="6.81085">
        <ele>388</ele>
        <time>2015-06-28T11:49:12Z</time>
      </trkpt>
      <trkpt lat="47.68147" lon="6.80558">
        <ele>391</ele>
        <time>2015-06-28T11:49:32Z</time>
      </trkpt>
      <trkpt lat="47.68123" lon="6.80533">
        <ele>392</ele>
        <time>2015-06-28T11:49:52Z</time>
      </trkpt>
      <trkpt lat="47.6805" lon="6.80569">
        <ele>392</ele>
        <time>2015-06-28T11:50:12Z</time>
      </trkpt>
      <trkpt lat="47.67978" lon="6.80508">
        <ele>393</ele>
        <time>2015-06-28T11:50:32Z</time>
      </trkpt>
      <trkpt lat="47.67945" lon="6.80653">
        <ele>391</ele>
        <time>2015-06-28T11:50:52Z</time>
      </trkpt>
      <trkpt lat="47.67932" lon="6.80792">
        <ele>391</ele>
        <time>2015-06-28T11:51:12Z</time>
      </trkpt>
      <trkpt lat="47.67912" lon="6.80916">
        <ele>390</ele>
        <time>2015-06-28T11:51:32Z</time>
      </trkpt>
      <trkpt lat="47.67857" lon="6.81019">
        <ele>386</ele>
        <time>2015-06-28T11:51:52Z</time>
      </trkpt>
      <trkpt lat="47.6781" lon="6.8105">
        <ele>385</ele>
        <time>2015-06-28T11:52:12Z</time>
      </trkpt>
      <trkpt lat="47.67777" lon="6.8114">
        <ele>384</ele>
        <time>2015-06-28T11:52:32Z</time>
      </trkpt>
      <trkpt lat="47.67681" lon="6.81306">
        <ele>386</ele>
        <time>2015-06-28T11:52:52Z</time>
      </trkpt>
      <trkpt lat="47.67598" lon="6.81546">
        <ele>393</ele>
        <time>2015-06-28T11:53:12Z</time>
      </trkpt>
      <trkpt lat="47.67585" lon="6.81628">
        <ele>394</ele>
        <time>2015-06-28T11:53:32Z</time>
      </trkpt>
      <trkpt lat="47.67564" lon="6.81724">
        <ele>397</ele>
        <time>2015-06-28T11:53:52Z</time>
      </trkpt>
      <trkpt lat="47.67535" lon="6.81715">
        <ele>398</ele>
        <time>2015-06-28T11:54:12Z</time>
      </trkpt>
      <trkpt lat="47.67417" lon="6.81737">
        <ele>402</ele>
        <time>2015-06-28T11:54:32Z</time>
      </trkpt>
      <trkpt lat="47.67126" lon="6.81747">
        <ele>416</ele>
        <time>2015-06-28T11:54:52Z</time>
      </trkpt>
      <trkpt lat="47.6707" lon="6.81744">
        <ele>419</ele>
        <time>2015-06-28T11:55:12Z</time>
      </trkpt>
      <trkpt lat="47.67015" lon="6.81747">
        <ele>421</ele>
        <time>2015-06-28T11:55:32Z</time>
      </trkpt>
      <trkpt lat="47.66972" lon="6.81937">
        <ele>428</ele>
        <time>2015-06-28T11:55:52Z</time>
      </trkpt>
      <trkpt lat="47.66905" lon="6.81953">
        <ele>439</ele>
        <time>2015-06-28T11:56:12Z</time>
      </trkpt>
      <trkpt lat="47.66877" lon="6.82081">
        <ele>442</ele>
        <time>2015-06-28T11:56:32Z</time>
      </trkpt>
      <trkpt lat="47.6687" lon="6.82134">
        <ele>442</ele>
        <time>2015-06-28T11:56:52Z</time>
      </trkpt>
      <trkpt lat="47.66852" lon="6.82067">
        <ele>445</ele>
        <time>2015-06-28T11:57:12Z</time>
      </trkpt>
      <trkpt lat="47.66821" lon="6.82008">
        <ele>454</ele>
        <time>2015-06-28T11:57:32Z</time>
      </trkpt>
      <trkpt lat="47.66832" lon="6.81942">
        <ele>453</ele>
        <time>2015-06-28T11:57:52Z</time>
      </trkpt>
      <trkpt lat="47.66843" lon="6.81908">
        <ele>443</ele>
        <time>2015-06-28T11:58:12Z</time>
      </trkpt>
      <trkpt lat="47.66833" lon="6.81874">
        <ele>450</ele>
        <time>2015-06-28T11:58:32Z</time>
      </trkpt>
      <trkpt lat="47.66777" lon="6.81829">
        <ele>456</ele>
        <time>2015-06-28T11:58:52Z</time>
      </trkpt>
      <trkpt lat="47.66749" lon="6.8177">
        <ele>470</ele>
        <time>2015-06-28T11:59:12Z</time>
      </trkpt>
      <trkpt lat="47.6671" lon="6.81756">
        <ele>475</ele>
        <time>2015-06-28T11:59:32Z</time>
      </trkpt>
      <trkpt lat="47.66675" lon="6.81764">
        <ele>481</ele>
        <time>2015-06-28T11:59:52Z</time>
      </trkpt>
      <trkpt lat="47.66634" lon="6.81748">
        <ele>493</ele>
        <time>2015-06-28T12:00:12Z</time>
      </trkpt>
      <trkpt lat="47.66569" lon="6.81684">
        <ele>510</ele>
        <time>2015-06-28T12:00:32Z</time>
      </trkpt>
      <trkpt lat="47.66455" lon="6.81729">
        <ele>543</ele>
        <time>2015-06-28T12:00:52Z</time>
      </trkpt>
      <trkpt lat="47.66397" lon="6.81665">
        <ele>555</ele>
        <time>2015-06-28T12:01:12Z</time>
      </trkpt>
      <trkpt lat="47.66333" lon="6.81618">
        <ele>559</ele>
        <time>2015-06-28T12:01:32Z</time>
      </trkpt>
      <trkpt lat="47.66294" lon="6.81544">
        <ele>566</ele>
        <time>2015-06-28T12:01:52Z</time>
      </trkpt>
      <trkpt lat="47.66258" lon="6.81504">
        <ele>572</ele>
        <time>2015-06-28T12:02:12Z</time>
      </trkpt>
      <trkpt lat="47.66221" lon="6.81431">
        <ele>585</ele>
        <time>2015-06-28T12:02:32Z</time>
      </trkpt>
      <trkpt lat="47.66206" lon="6.81417">
        <ele>589</ele>
        <time>2015-06-28T12:02:52Z</time>
      </trkpt>
      <trkpt lat="47.66167" lon="6.81302">
        <ele>600</ele>
        <time>2015-06-28T12:03:12Z</time>
      </trkpt>
      <trkpt lat="47.66156" lon="6.81231">
        <ele>617</ele>
        <time>2015-06-28T12:03:32Z</time>
      </trkpt>
      <trkpt lat="47.66141" lon="6.81213">
        <ele>619</ele>
        <time>2015-06-28T12:03:52Z</time>
      </trkpt>
      <trkpt lat="47.66093" lon="6.81251">
        <ele>629</ele>
        <time>2015-06-28T12:04:12Z</time>
      </trkpt>
      <trkpt lat="47.66097" lon="6.81308">
        <ele>625</ele>
        <time>2015-06-28T12:04:32Z</time>
      </trkpt>
      <trkpt lat="47.66084" lon="6.81322">
        <ele>628</ele>
        <time>2015-06-28T12:04:52Z</time>
      </trkpt>
      <trkpt lat="47.66069" lon="6.81389">
        <ele>635</ele>
        <time>2015-06-28T12:05:12Z</time>
      </trkpt>
      <trkpt lat="47.66033" lon="6.81423">
        <ele>636</ele>
        <time>2015-06-28T12:05:32Z</time>
      </trkpt>
      <trkpt lat="47.66037" lon="6.81457">
        <ele>636</ele>
        <time>2015-06-28T12:05:52Z</time>
      </trkpt>
      <trkpt lat="47.66003" lon="6.81485">
        <ele>636</ele>
        <time>2015-06-28T12:06:12Z</time>
      </trkpt>
      <trkpt lat="47.66005" lon="6.81524">
        <ele>635</ele>
        <time>2015-06-28T12:06:32Z</time>
      </trkpt>
      <trkpt lat="47.65986" lon="6.81565">
        <ele>628</ele>
        <time>2015-06-28T12:06:52Z</time>
      </trkpt>
      <trkpt lat="47.66024" lon="6.81662">
        <ele>629</ele>
        <time>2015-06-28T12:07:12Z</time>
      </trkpt>
      <trkpt lat="47.66015" lon="6.81679">
        <ele>626</ele>
        <time>2015-06-28T12:07:32Z</time>
      </trkpt>
      <trkpt lat="47.6598" lon="6.81683">
        <ele>619</ele>
        <time>2015-06-28T12:07:52Z</time>
      </trkpt>
      <trkpt lat="47.65941" lon="6.81653">
        <ele>617</ele>
        <time>2015-06-28T12:08:12Z</time>
      </trkpt>
      <trkpt lat="47.65924" lon="6.81662">
        <ele>612</ele>
        <time>2015-06-28T12:08:32Z</time>
      </trkpt>
      <trkpt lat="47.65896" lon="6.81708">
        <ele>597</ele>
        <time>2015-06-28T12:08:52Z</time>
      </trkpt>
      <trkpt lat="47.65862" lon="6.81708">
        <ele>593</ele>
        <time>2015-06-28T12:09:12Z</time>
      </trkpt>
      <trkpt lat="47.65834" lon="6.8169">
        <ele>591</ele>
        <time>2015-06-28T12:09:32Z</time>
      </trkpt>
      <trkpt lat="47.65788" lon="6.81681">
        <ele>574</ele>
        <time>2015-06-28T12:09:52Z</time>
      </trkpt>
      <trkpt lat="47.65749" lon="6.81654">
        <ele>560</ele>
        <time>2015-06-28T12:10:12Z</time>
      </trkpt>
      <trkpt lat="47.65704" lon="6.8168">
        <ele>554</ele>
        <time>2015-06-28T12:10:32Z</time>
      </trkpt>
      <trkpt lat="47.65664" lon="6.81673">
        <ele>543</ele>
        <time>2015-06-28T12:10:52Z</time>
      </trkpt>
      <trkpt lat="47.65706" lon="6.81565">
        <ele>552</ele>
        <time>2015-06-28T12:11:12Z</time>
      </trkpt>
      <trkpt lat="47.65697" lon="6.81508">
        <ele>552</ele>
        <time>2015-06-28T12:11:32Z</time>
      </trkpt>
      <trkpt lat="47.6567" lon="6.81478">
        <ele>556</ele>
        <time>2015-06-28T12:11:52Z</time>
      </trkpt>
      <trkpt lat="47.65591" lon="6.81484">
        <ele>542</ele>
        <time>2015-06-28T12:12:12Z</time>
      </trkpt>
      <trkpt lat="47.65526" lon="6.81527">
        <ele>529</ele>
        <time>2015-06-28T12:12:32Z</time>
      </trkpt>
      <trkpt lat="47.65492" lon="6.81515">
        <ele>524</ele>
        <time>2015-06-28T12:12:52Z</time>
      </trkpt>
      <trkpt lat="47.65462" lon="6.81482">
        <ele>524</ele>
        <time>2015-06-28T12:13:12Z</time>
      </trkpt>
      <trkpt lat="47.6542" lon="6.81408">
        <ele>520</ele>
        <time>2015-06-28T12:13:32Z</time>
      </trkpt>
      <trkpt lat="47.65415" lon="6.81368">
        <ele>508</ele>
        <time>2015-06-28T12:13:52Z</time>
      </trkpt>
      <trkpt lat="47.65453" lon="6.81185">
        <ele>521</ele>
        <time>2015-06-28T12:14:12Z</time>
      </trkpt>
      <trkpt lat="47.65453" lon="6.80803">
        <ele>509</ele>
        <time>2015-06-28T12:14:32Z</time>
      </trkpt>
      <trkpt lat="47.65441" lon="6.80785">
        <ele>507</ele>
        <time>2015-06-28T12:14:52Z</time>
      </trkpt>
      <trkpt lat="47.65235" lon="6.80668">
        <ele>489</ele>
        <time>2015-06-28T12:15:12Z</time>
      </trkpt>
      <trkpt lat="47.6511" lon="6.80664">
        <ele>503</ele>
        <time>2015-06-28T12:15:32Z</time>
      </trkpt>
      <trkpt lat="47.65064" lon="6.80647">
        <ele>505</ele>
        <time>2015-06-28T12:15:52Z</time>
      </trkpt>
      <trkpt lat="47.65059" lon="6.80624">
        <ele>505</ele>
        <time>2015-06-28T12:16:12Z</time>
      </trkpt>
      <trkpt lat="47.65063" lon="6.806">
        <ele>507</ele>
        <time>2015-06-28T12:16:32Z</time>
      </trkpt>
      <trkpt lat="47.65061" lon="6.80567">
        <ele>507</ele>
        <time>2015-06-28T12:16:52Z</time>
      </trkpt>
      <trkpt lat="47.65036" lon="6.80552">
        <ele>506</ele>
        <time>2015-06-28T12:17:12Z</time>
      </trkpt>
      <trkpt lat="47.65005" lon="6.80554">
        <ele>504</ele>
        <time>2015-06-28T12:17:32Z</time>
      </trkpt>
      <trkpt lat="47.64915" lon="6.8034">
        <ele>482</ele>
        <time>2015-06-28T12:17:52Z</time>
      </trkpt>
      <trkpt lat="47.64891" lon="6.803">
        <ele>479</ele>
        <time>2015-06-28T12:18:12Z</time>
      </trkpt>
      <trkpt lat="47.64874" lon="6.80243">
        <ele>479</ele>
        <time>2015-06-28T12:18:32Z</time>
      </trkpt>
      <trkpt lat="47.64847" lon="6.80184">
        <ele>479</ele>
        <time>2015-06-28T12:18:52Z</time>
      </trkpt>
      <trkpt lat="47.64828" lon="6.80127">
        <ele>474</ele>
        <time>2015-06-28T12:19:12Z</time>
      </trkpt>
      <trkpt lat="47.64822" lon="6.80078">
        <ele>475</ele>
        <time>2015-06-28T12:19:32Z</time>
      </trkpt>
      <trkpt lat="47.64742" lon="6.79941">
        <ele>461</ele>
        <time>2015-06-28T12:19:52Z</time>
      </trkpt>
      <trkpt lat="47.64717" lon="6.79917">
        <ele>458</ele>
        <time>2015-06-28T12:20:12Z</time>
      </trkpt>
      <trkpt lat="47.64676" lon="6.79853">
        <ele>453</ele>
        <time>2015-06-28T12:20:32Z</time>
      </trkpt>
      <trkpt lat="47.64667" lon="6.79814">
        <ele>451</ele>
        <time>2015-06-28T12:20:52Z</time>
      </trkpt>
      <trkpt lat="47.64593" lon="6.79696">
        <ele>437</ele>
        <time>2015-06-28T12:21:12Z</time>
      </trkpt>
      <trkpt lat="47.6456" lon="6.79688">
        <ele>427</ele>
        <time>2015-06-28T12:21:32Z</time>
      </trkpt>
      <trkpt lat="47.64549" lon="6.79653">
        <ele>423</ele>
        <time>2015-06-28T12:21:52Z</time>
      </trkpt>
      <trkpt lat="47.64547" lon="6.79566">
        <ele>418</ele>
        <time>2015-06-28T12:22:12Z</time>
      </trkpt>
      <trkpt lat="47.64496" lon="6.79514">
        <ele>404</ele>
        <time>2015-06-28T12:22:32Z</time>
      </trkpt>
      <trkpt lat="47.64453" lon="6.79529">
        <ele>401</ele>
        <time>2015-06-28T12:22:52Z</time>
      </trkpt>
      <trkpt lat="47.64424" lon="6.79516">
        <ele>398</ele>
        <time>2015-06-28T12:23:12Z</time>
      </trkpt>
      <trkpt lat="47.64398" lon="6.79482">
        <ele>388</ele>
        <time>2015-06-28T12:23:32Z</time>
      </trkpt>
      <trkpt lat="47.64361" lon="6.79475">
        <ele>384</ele>
        <time>2015-06-28T12:23:52Z</time>
      </trkpt>
      <trkpt lat="47.64338" lon="6.79459">
        <ele>382</ele>
        <time>2015-06-28T12:24:12Z</time>
      </trkpt>
      <trkpt lat="47.64313" lon="6.79468">
        <ele>376</ele>
        <time>2015-06-28T12:24:32Z</time>
      </trkpt>
      <trkpt lat="47.64236" lon="6.79331">
        <ele>373</ele>
        <time>2015-06-28T12:24:52Z</time>
      </trkpt>
      <trkpt lat="47.64174" lon="6.79264">
        <ele>374</ele>
        <time>2015-06-28T12:25:12Z</time>
      </trkpt>
      <trkpt lat="47.6417" lon="6.79172">
        <ele>376</ele>
        <time>2015-06-28T12:25:32Z</time>
      </trkpt>
      <trkpt lat="47.64115" lon="6.79024">
        <ele>380</ele>
        <time>2015-06-28T12:25:52Z</time>
      </trkpt>
      <trkpt lat="47.64075" lon="6.78967">
        <ele>381</ele>
        <time>2015-06-28T12:26:12Z</time>
      </trkpt>
      <trkpt lat="47.6405" lon="6.78865">
        <ele>383</ele>
        <time>2015-06-28T12:26:32Z</time>
      </trkpt>
      <trkpt lat="47.64015" lon="6.78784">
        <ele>381</ele>
        <time>2015-06-28T12:26:52Z</time>
      </trkpt>
      <trkpt lat="47.63912" lon="6.78617">
        <ele>371</ele>
        <time>2015-06-28T12:27:12Z</time>
      </trkpt>
      <trkpt lat="47.63952" lon="6.78566">
        <ele>372</ele>
        <time>2015-06-28T12:27:32Z</time>
      </trkpt>
      <trkpt lat="47.63969" lon="6.78516">
        <ele>373</ele>
        <time>2015-06-28T12:27:52Z</time>
      </trkpt>
      <trkpt lat="47.63967" lon="6.78461">
        <ele>375</ele>
        <time>2015-06-28T12:28:12Z</time>
      </trkpt>
      <trkpt lat="47.63933" lon="6.78427">
        <ele>377</ele>
        <time>2015-06-28T12:28:32Z</time>
      </trkpt>
      <trkpt lat="47.63895" lon="6.78393">
        <ele>383</ele>
        <time>2015-06-28T12:28:52Z</time>
      </trkpt>
      <trkpt lat="47.63895" lon="6.78378">
        <ele>383</ele>
        <time>2015-06-28T12:29:12Z</time>
      </trkpt>
      <trkpt lat="47.63833" lon="6.78219">
        <ele>392</ele>
        <time>2015-06-28T12:29:32Z</time>
      </trkpt>
      <trkpt lat="47.63837" lon="6.78133">
        <ele>391</ele>
        <time>2015-06-28T12:29:52Z</time>
      </trkpt>
      <trkpt lat="47.63743" lon="6.77879">
        <ele>410</ele>
        <time>2015-06-28T12:30:12Z</time>
      </trkpt>
      <trkpt lat="47.6368" lon="6.77746">
        <ele>415</ele>
        <time>2015-06-28T12:30:32Z</time>
      </trkpt>
      <trkpt lat="47.63633" lon="6.77585">
        <ele>422</ele>
        <time>2015-06-28T12:30:52Z</time>
      </trkpt>
      <trkpt lat="47.63643" lon="6.77547">
        <ele>426</ele>
        <time>2015-06-28T12:31:12Z</time>
      </trkpt>
      <trkpt lat="47.63655" lon="6.77514">
        <ele>428</ele>
        <time>2015-06-28T12:31:32Z</time>
      </trkpt>
      <trkpt lat="47.6365" lon="6.77396">
        <ele>440</ele>
        <time>2015-06-28T12:31:52Z</time>
      </trkpt>
      <trkpt lat="47.63623" lon="6.77347">
        <ele>442</ele>
        <time>2015-06-28T12:32:12Z</time>
      </trkpt>
      <trkpt lat="47.63565" lon="6.77341">
        <ele>442</ele>
        <time>2015-06-28T12:32:32Z</time>
      </trkpt>
      <trkpt lat="47.63426" lon="6.77016">
        <ele>465</ele>
        <time>2015-06-28T12:32:52Z</time>
      </trkpt>
      <trkpt lat="47.63393" lon="6.77003">
        <ele>458</ele>
        <time>2015-06-28T12:33:12Z</time>
      </trkpt>
      <trkpt lat="47.63359" lon="6.76944">
        <ele>460</ele>
        <time>2015-06-28T12:33:32Z</time>
      </trkpt>
      <trkpt lat="47.63338" lon="6.76885">
        <ele>465</ele>
        <time>2015-06-28T12:33:52Z</time>
      </trkpt>
      <trkpt lat="47.63301" lon="6.76873">
        <ele>451</ele>
        <time>2015-06-28T12:34:12Z</time>
      </trkpt>
      <trkpt lat="47.63164" lon="6.76628">
        <ele>433</ele>
        <time>2015-06-28T12:34:32Z</time>
      </trkpt>
      <trkpt lat="47.63122" lon="6.76492">
        <ele>441</ele>
        <time>2015-06-28T12:34:52Z</time>
      </trkpt>
      <trkpt lat="47.63077" lon="6.76422">
        <ele>431</ele>
        <time>2015-06-28T12:35:12Z</time>
      </trkpt>
      <trkpt lat="47.63001" lon="6.76422">
        <ele>421</ele>
        <time>2015-06-28T12:35:32Z</time>
      </trkpt>
      <trkpt lat="47.62973" lon="6.76412">
        <ele>419</ele>
        <time>2015-06-28T12:35:52Z</time>
      </trkpt>
      <trkpt lat="47.6295" lon="6.76426">
        <ele>416</ele>
        <time>2015-06-28T12:36:12Z</time>
      </trkpt>
      <trkpt lat="47.62931" lon="6.76465">
        <ele>414</ele>
        <time>2015-06-28T12:36:32Z</time>
      </trkpt>
      <trkpt lat="47.62903" lon="6.76508">
        <ele>406</ele>
        <time>2015-06-28T12:36:52Z</time>
      </trkpt>
      <trkpt lat="47.6285" lon="6.76515">
        <ele>402</ele>
        <time>2015-06-28T12:37:12Z</time>
      </trkpt>
      <trkpt lat="47.62784" lon="6.76514">
        <ele>400</ele>
        <time>2015-06-28T12:37:32Z</time>
      </trkpt>
      <trkpt lat="47.62727" lon="6.76604">
        <ele>392</ele>
        <time>2015-06-28T12:37:52Z</time>
      </trkpt>
      <trkpt lat="47.62673" lon="6.76725">
        <ele>385</ele>
        <time>2015-06-28T12:38:12Z</time>
      </trkpt>
      <trkpt lat="47.62641" lon="6.76737">
        <ele>382</ele>
        <time>2015-06-28T12:38:32Z</time>
      </trkpt>
      <trkpt lat="47.62557" lon="6.76607">
        <ele>380</ele>
        <time>2015-06-28T12:38:52Z</time>
      </trkpt>
      <trkpt lat="47.62429" lon="6.76578">
        <ele>375</ele>
        <time>2015-06-28T12:39:12Z</time>
      </trkpt>
      <trkpt lat="47.62399" lon="6.7654">
        <ele>377</ele>
        <time>2015-06-28T12:39:32Z</time>
      </trkpt>
      <trkpt lat="47.62401" lon="6.76358">
        <ele>376</ele>
        <time>2015-06-28T12:39:52Z</time>
      </trkpt>
      <trkpt lat="47.62127" lon="6.76585">
        <ele>380</ele>
        <time>2015-06-28T12:40:12Z</time>
      </trkpt>
      <trkpt lat="47.62083" lon="6.76635">
        <ele>386</ele>
        <time>2015-06-28T12:40:32Z</time>
      </trkpt>
      <trkpt lat="47.62046" lon="6.7666">
        <ele>388</ele>
        <time>2015-06-28T12:40:52Z</time>
      </trkpt>
      <trkpt lat="47.61952" lon="6.76667">
        <ele>396</ele>
        <time>2015-06-28T12:41:12Z</time>
      </trkpt>
      <trkpt lat="47.61902" lon="6.76635">
        <ele>401</ele>
        <time>2015-06-28T12:41:32Z</time>
      </trkpt>
      <trkpt lat="47.61858" lon="6.76616">
        <ele>401</ele>
        <time>2015-06-28T12:41:52Z</time>
      </trkpt>
      <trkpt lat="47.61888" lon="6.76587">
        <ele>401</ele>
        <time>2015-06-28T12:42:12Z</time>
      </trkpt>
      <trkpt lat="47.61892" lon="6.76359">
        <ele>404</ele>
        <time>2015-06-28T12:42:32Z</time>
      </trkpt>
      <trkpt lat="47.61911" lon="6.76266">
        <ele>402</ele>
        <time>2015-06-28T12:42:52Z</time>
      </trkpt>
      <trkpt lat="47.61861" lon="6.76143">
        <ele>402</ele>
        <time>2015-06-28T12:43:12Z</time>
      </trkpt>
      <trkpt lat="47.61616" lon="6.76114">
        <ele>409</ele>
        <time>2015-06-28T12:43:32Z</time>
      </trkpt>
      <trkpt lat="47.61605" lon="6.76103">
        <ele>409</ele>
        <time>2015-06-28T12:43:52Z</time>
      </trkpt>
      <trkpt lat="47.61453" lon="6.76189">
        <ele>409</ele>
        <time>2015-06-28T12:44:12Z</time>
      </trkpt>
      <trkpt lat="47.61384" lon="6.76218">
        <ele>405</ele>
        <time>2015-06-28T12:44:32Z</time>
      </trkpt>
      <trkpt lat="47.61342" lon="6.76224">
        <ele>404</ele>
        <time>2015-06-28T12:44:52Z</time>
      </trkpt>
      <trkpt lat="47.61296" lon="6.76251">
        <ele>400</ele>
        <time>2015-06-28T12:45:12Z</time>
      </trkpt>
      <trkpt lat="47.6119" lon="6.76344">
        <ele>392</ele>
        <time>2015-06-28T12:45:32Z</time>
      </trkpt>
      <trkpt lat="47.61107" lon="6.76379">
        <ele>387</ele>
        <time>2015-06-28T12:45:52Z</time>
      </trkpt>
      <trkpt lat="47.60965" lon="6.76385">
        <ele>376</ele>
        <time>2015-06-28T12:46:12Z</time>
      </trkpt>
      <trkpt lat="47.60966" lon="6.76374">
        <ele>376</ele>
        <time>2015-06-28T12:46:32Z</time>
      </trkpt>
      <trkpt lat="47.6089" lon="6.76358">
        <ele>370</ele>
        <time>2015-06-28T12:46:52Z</time>
      </trkpt>
      <trkpt lat="47.60821" lon="6.76351">
        <ele>365</ele>
        <time>2015-06-28T12:47:12Z</time>
      </trkpt>
      <trkpt lat="47.60758" lon="6.76295">
        <ele>362</ele>
        <time>2015-06-28T12:47:32Z</time>
      </trkpt>
      <trkpt lat="47.60707" lon="6.76319">
        <ele>357</ele>
        <time>2015-06-28T12:47:52Z</time>
      </trkpt>
      <trkpt lat="47.60697" lon="6.7637">
        <ele>358</ele>
        <time>2015-06-28T12:48:12Z</time>
      </trkpt>
      <trkpt lat="47.60695" lon="6.76485">
        <ele>358</ele>
        <time>2015-06-28T12:48:32Z</time>
      </trkpt>
      <trkpt lat="47.60658" lon="6.76528">
        <ele>356</ele>
        <time>2015-06-28T12:48:52Z</time>
      </trkpt>
      <trkpt lat="47.60649" lon="6.76618">
        <ele>356</ele>
        <time>2015-06-28T12:49:12Z</time>
      </trkpt>
      <trkpt lat="47.60549" lon="6.76829">
        <ele>364</ele>
        <time>2015-06-28T12:49:32Z</time>
      </trkpt>
      <trkpt lat="47.60536" lon="6.76833">
        <ele>365</ele>
        <time>2015-06-28T12:49:52Z</time>
      </trkpt>
      <trkpt lat="47.60475" lon="6.76819">
        <ele>368</ele>
        <time>2015-06-28T12:50:12Z</time>
      </trkpt>
      <trkpt lat="47.60365" lon="6.76883">
        <ele>371</ele>
        <time>2015-06-28T12:50:32Z</time>
      </trkpt>
      <trkpt lat="47.60319" lon="6.77077">
        <ele>373</ele>
        <time>2015-06-28T12:50:52Z</time>
      </trkpt>
      <trkpt lat="47.60327" lon="6.77127">
        <ele>374</ele>
        <time>2015-06-28T12:51:12Z</time>
      </trkpt>
      <trkpt lat="47.60313" lon="6.77187">
        <ele>375</ele>
        <time>2015-06-28T12:51:32Z</time>
      </trkpt>
      <trkpt lat="47.60292" lon="6.77235">
        <ele>375</ele>
        <time>2015-06-28T12:51:52Z</time>
      </trkpt>
      <trkpt lat="47.60342" lon="6.77288">
        <ele>374</ele>
        <time>2015-06-28T12:52:12Z</time>
      </trkpt>
      <trkpt lat="47.60325" lon="6.77344">
        <ele>371</ele>
        <time>2015-06-28T12:52:32Z</time>
      </trkpt>
      <trkpt lat="47.6027" lon="6.77409">
        <ele>369</ele>
        <time>2015-06-28T12:52:52Z</time>
      </trkpt>
      <trkpt lat="47.60193" lon="6.77625">
        <ele>366</ele>
        <time>2015-06-28T12:53:12Z</time>
      </trkpt>
      <trkpt lat="47.60214" lon="6.78094">
        <ele>363</ele>
        <time>2015-06-28T12:53:32Z</time>
      </trkpt>
      <trkpt lat="47.60176" lon="6.78123">
        <ele>366</ele>
        <time>2015-06-28T12:53:52Z</time>
      </trkpt>
      <trkpt lat="47.60138" lon="6.78139">
        <ele>370</ele>
        <time>2015-06-28T12:54:12Z</time>
      </trkpt>
      <trkpt lat="47.60131" lon="6.78156">
        <ele>371</ele>
        <time>2015-06-28T12:54:32Z</time>
      </trkpt>
      <trkpt lat="47.60003" lon="6.78237">
        <ele>374</ele>
        <time>2015-06-28T12:54:52Z</time>
      </trkpt>
      <trkpt lat="47.59924" lon="6.78297">
        <ele>386</ele>
        <time>2015-06-28T12:55:12Z</time>
      </trkpt>
      <trkpt lat="47.59837" lon="6.78312">
        <ele>394</ele>
        <time>2015-06-28T12:55:32Z</time>
      </trkpt>
      <trkpt lat="47.59787" lon="6.78325">
        <ele>393</ele>
        <time>2015-06-28T12:55:52Z</time>
      </trkpt>
      <trkpt lat="47.5976" lon="6.78374">
        <ele>401</ele>
        <time>2015-06-28T12:56:12Z</time>
      </trkpt>
      <trkpt lat="47.59695" lon="6.78396">
        <ele>397</ele>
        <time>2015-06-28T12:56:32Z</time>
      </trkpt>
      <trkpt lat="47.59666" lon="6.78415">
        <ele>397</ele>
        <time>2015-06-28T12:56:52Z</time>
      </trkpt>
      <trkpt lat="47.59633" lon="6.78477">
        <ele>394</ele>
        <time>2015-06-28T12:57:12Z</time>
      </trkpt>
      <trkpt lat="47.59614" lon="6.78555">
        <ele>392</ele>
        <time>2015-06-28T12:57:32Z</time>
      </trkpt>
      <trkpt lat="47.59593" lon="6.78587">
        <ele>389</ele>
        <time>2015-06-28T12:57:52Z</time>
      </trkpt>
      <trkpt lat="47.59592" lon="6.78661">
        <ele>390</ele>
        <time>2015-06-28T12:58:12Z</time>
      </trkpt>
      <trkpt lat="47.59576" lon="6.7875">
        <ele>389</ele>
        <time>2015-06-28T12:58:32Z</time>
      </trkpt>
      <trkpt lat="47.59554" lon="6.78793">
        <ele>390</ele>
        <time>2015-06-28T12:58:52Z</time>
      </trkpt>
      <trkpt lat="47.59464" lon="6.78807">
        <ele>385</ele>
        <time>2015-06-28T12:59:12Z</time>
      </trkpt>
      <trkpt lat="47.5939" lon="6.78867">
        <ele>381</ele>
        <time>2015-06-28T12:59:32Z</time>
      </trkpt>
      <trkpt lat="47.59312" lon="6.78892">
        <ele>381</ele>
        <time>2015-06-28T12:59:52Z</time>
      </trkpt>
      <trkpt lat="47.5923" lon="6.78909">
        <ele>378</ele>
        <time>2015-06-28T13:00:12Z</time>
      </trkpt>
      <trkpt lat="47.59027" lon="6.78969">
        <ele>372</ele>
        <time>2015-06-28T13:00:32Z</time>
      </trkpt>
      <trkpt lat="47.58962" lon="6.78984">
        <ele>367</ele>
        <time>2015-06-28T13:00:52Z</time>
      </trkpt>
      <trkpt lat="47.58836" lon="6.79065">
        <ele>356</ele>
        <time>2015-06-28T13:01:12Z</time>
      </trkpt>
      <trkpt lat="47.58792" lon="6.79067">
        <ele>354</ele>
        <time>2015-06-28T13:01:32Z</time>
      </trkpt>
      <trkpt lat="47.5875" lon="6.79064">
        <ele>354</ele>
        <time>2015-06-28T13:01:52Z</time>
      </trkpt>
      <trkpt lat="47.58589" lon="6.7918">
        <ele>356</ele>
        <time>2015-06-28T13:02:12Z</time>
      </trkpt>
      <trkpt lat="47.58524" lon="6.79212">
        <ele>356</ele>
        <time>2015-06-28T13:02:32Z</time>
      </trkpt>
      <trkpt lat="47.58484" lon="6.79211">
        <ele>356</ele>
        <time>2015-06-28T13:02:52Z</time>
      </trkpt>
      <trkpt lat="47.58438" lon="6.79189">
        <ele>355</ele>
        <time>2015-06-28T13:03:12Z</time>
      </trkpt>
      <trkpt lat="47.5836" lon="6.79208">
        <ele>354</ele>
        <time>2015-06-28T13:03:32Z</time>
      </trkpt>
      <trkpt lat="47.58213" lon="6.79221">
        <ele>358</ele>
        <time>2015-06-28T13:03:52Z</time>
      </trkpt>
      <trkpt lat="47.58142" lon="6.79216">
        <ele>363</ele>
        <time>2015-06-28T13:04:12Z</time>
      </trkpt>
      <trkpt lat="47.5813" lon="6.79297">
        <ele>369</ele>
        <time>2015-06-28T13:04:32Z</time>
      </trkpt>
      <trkpt lat="47.58105" lon="6.79311">
        <ele>370</ele>
        <time>2015-06-28T13:04:52Z</time>
      </trkpt>
      <trkpt lat="47.58045" lon="6.79404">
        <ele>390</ele>
        <time>2015-06-28T13:05:12Z</time>
      </trkpt>
      <trkpt lat="47.58031" lon="6.79473">
        <ele>398</ele>
        <time>2015-06-28T13:05:32Z</time>
      </trkpt>
      <trkpt lat="47.58031" lon="6.79621">
        <ele>403</ele>
        <time>2015-06-28T13:05:52Z</time>
      </trkpt>
      <trkpt lat="47.58041" lon="6.79744">
        <ele>403</ele>
        <time>2015-06-28T13:06:12Z</time>
      </trkpt>
      <trkpt lat="47.58042" lon="6.79921">
        <ele>406</ele>
        <time>2015-06-28T13:06:32Z</time>
      </trkpt>
      <trkpt lat="47.58032" lon="6.80004">
        <ele>408</ele>
        <time>2015-06-28T13:06:52Z</time>
      </trkpt>
      <trkpt lat="47.58048" lon="6.801">
        <ele>410</ele>
        <time>2015-06-28T13:07:12Z</time>
      </trkpt>
      <trkpt lat="47.58026" lon="6.80189">
        <ele>414</ele>
        <time>2015-06-28T13:07:32Z</time>
      </trkpt>
      <trkpt lat="47.58024" lon="6.80277">
        <ele>420</ele>
        <time>2015-06-28T13:07:52Z</time>
      </trkpt>
      <trkpt lat="47.57976" lon="6.80395">
        <ele>430</ele>
        <time>2015-06-28T13:08:12Z</time>
      </trkpt>
      <trkpt lat="47.57922" lon="6.80458">
        <ele>428</ele>
        <time>2015-06-28T13:08:32Z</time>
      </trkpt>
      <trkpt lat="47.57564" lon="6.80431">
        <ele>412</ele>
        <time>2015-06-28T13:08:52Z</time>
      </trkpt>
      <trkpt lat="47.575" lon="6.80495">
        <ele>410</ele>
        <time>2015-06-28T13:09:12Z</time>
      </trkpt>
      <trkpt lat="47.57434" lon="6.80661">
        <ele>413</ele>
        <time>2015-06-28T13:09:32Z</time>
      </trkpt>
      <trkpt lat="47.57435" lon="6.80818">
        <ele>405</ele>
        <time>2015-06-28T13:09:52Z</time>
      </trkpt>
      <trkpt lat="47.57339" lon="6.80987">
        <ele>392</ele>
        <time>2015-06-28T13:10:12Z</time>
      </trkpt>
      <trkpt lat="47.57358" lon="6.8118">
        <ele>387</ele>
        <time>2015-06-28T13:10:32Z</time>
      </trkpt>
      <trkpt lat="47.57364" lon="6.81297">
        <ele>386</ele>
        <time>2015-06-28T13:10:52Z</time>
      </trkpt>
      <trkpt lat="47.57361" lon="6.81363">
        <ele>384</ele>
        <time>2015-06-28T13:11:12Z</time>
      </trkpt>
      <trkpt lat="47.57376" lon="6.8156">
        <ele>381</ele>
        <time>2015-06-28T13:11:32Z</time>
      </trkpt>
      <trkpt lat="47.57412" lon="6.81781">
        <ele>376</ele>
        <time>2015-06-28T13:11:52Z</time>
      </trkpt>
      <trkpt lat="47.57404" lon="6.8186">
        <ele>375</ele>
        <time>2015-06-28T13:12:12Z</time>
      </trkpt>
      <trkpt lat="47.5738" lon="6.81921">
        <ele>374</ele>
        <time>2015-06-28T13:12:32Z</time>
      </trkpt>
      <trkpt lat="47.57291" lon="6.82082">
        <ele>372</ele>
        <time>2015-06-28T13:12:52Z</time>
      </trkpt>
      <trkpt lat="47.57154" lon="6.82403">
        <ele>371</ele>
        <time>2015-06-28T13:13:12Z</time>
      </trkpt>
      <trkpt lat="47.57116" lon="6.82443">
        <ele>372</ele>
        <time>2015-06-28T13:13:32Z</time>
      </trkpt>
      <trkpt lat="47.56981" lon="6.82509">
        <ele>371</ele>
        <time>2015-06-28T13:13:52Z</time>
      </trkpt>
      <trkpt lat="47.5691" lon="6.82557">
        <ele>368</ele>
        <time>2015-06-28T13:14:12Z</time>
      </trkpt>
      <trkpt lat="47.56839" lon="6.82594">
        <ele>367</ele>
        <time>2015-06-28T13:14:32Z</time>
      </trkpt>
      <trkpt lat="47.56689" lon="6.82648">
        <ele>364</ele>
        <time>2015-06-28T13:14:52Z</time>
      </trkpt>
      <trkpt lat="47.56599" lon="6.82732">
        <ele>366</ele>
        <time>2015-06-28T13:15:12Z</time>
      </trkpt>
      <trkpt lat="47.5652" lon="6.8284">
        <ele>366</ele>
        <time>2015-06-28T13:15:32Z</time>
      </trkpt>
      <trkpt lat="47.56511" lon="6.82923">
        <ele>361</ele>
        <time>2015-06-28T13:15:52Z</time>
      </trkpt>
      <trkpt lat="47.56435" lon="6.82972">
        <ele>363</ele>
        <time>2015-06-28T13:16:12Z</time>
      </trkpt>
      <trkpt lat="47.56368" lon="6.82923">
        <ele>365</ele>
        <time>2015-06-28T13:16:32Z</time>
      </trkpt>
      <trkpt lat="47.56192" lon="6.82959">
        <ele>365</ele>
        <time>2015-06-28T13:16:52Z</time>
      </trkpt>
      <trkpt lat="47.56159" lon="6.82981">
        <ele>364</ele>
        <time>2015-06-28T13:17:12Z</time>
      </trkpt>
      <trkpt lat="47.56122" lon="6.83047">
        <ele>368</ele>
        <time>2015-06-28T13:17:32Z</time>
      </trkpt>
      <trkpt lat="47.56085" lon="6.83067">
        <ele>368</ele>
        <time>2015-06-28T13:17:52Z</time>
      </trkpt>
      <trkpt lat="47.55983" lon="6.83084">
        <ele>366</ele>
        <time>2015-06-28T13:18:12Z</time>
      </trkpt>
      <trkpt lat="47.55967" lon="6.83123">
        <ele>366</ele>
        <time>2015-06-28T13:18:32Z</time>
      </trkpt>
      <trkpt lat="47.55983" lon="6.8325">
        <ele>368</ele>
        <time>2015-06-28T13:18:52Z</time>
      </trkpt>
      <trkpt lat="47.55992" lon="6.83367">
        <ele>365</ele>
        <time>2015-06-28T13:19:12Z</time>
      </trkpt>
      <trkpt lat="47.55979" lon="6.83473">
        <ele>364</ele>
        <time>2015-06-28T13:19:32Z</time>
      </trkpt>
      <trkpt lat="47.55902" lon="6.83721">
        <ele>370</ele>
        <time>2015-06-28T13:19:52Z</time>
      </trkpt>
      <trkpt lat="47.55869" lon="6.83903">
        <ele>375</ele>
        <time>2015-06-28T13:20:12Z</time>
      </trkpt>
      <trkpt lat="47.55834" lon="6.84075">
        <ele>367</ele>
        <time>2015-06-28T13:20:32Z</time>
      </trkpt>
      <trkpt lat="47.5584" lon="6.84336">
        <ele>361</ele>
        <time>2015-06-28T13:20:52Z</time>
      </trkpt>
      <trkpt lat="47.55853" lon="6.84601">
        <ele>352</ele>
        <time>2015-06-28T13:21:12Z</time>
      </trkpt>
      <trkpt lat="47.55835" lon="6.84658">
        <ele>351</ele>
        <time>2015-06-28T13:21:32Z</time>
      </trkpt>
      <trkpt lat="47.55812" lon="6.84662">
        <ele>352</ele>
        <time>2015-06-28T13:21:52Z</time>
      </trkpt>
      <trkpt lat="47.5576" lon="6.84611">
        <ele>353</ele>
        <time>2015-06-28T13:22:12Z</time>
      </trkpt>
      <trkpt lat="47.55721" lon="6.8459">
        <ele>351</ele>
        <time>2015-06-28T13:22:32Z</time>
      </trkpt>
      <trkpt lat="47.55712" lon="6.84542">
        <ele>355</ele>
        <time>2015-06-28T13:22:52Z</time>
      </trkpt>
      <trkpt lat="47.55671" lon="6.84488">
        <ele>357</ele>
        <time>2015-06-28T13:23:12Z</time>
      </trkpt>
      <trkpt lat="47.55549" lon="6.84392">
        <ele>363</ele>
        <time>2015-06-28T13:23:32Z</time>
      </trkpt>
      <trkpt lat="47.5545" lon="6.84277">
        <ele>366</ele>
        <time>2015-06-28T13:23:52Z</time>
      </trkpt>
      <trkpt lat="47.55428" lon="6.84285">
        <ele>366</ele>
        <time>2015-06-28T13:24:12Z</time>
      </trkpt>
      <trkpt lat="47.55357" lon="6.84458">
        <ele>360</ele>
        <time>2015-06-28T13:24:32Z</time>
      </trkpt>
      <trkpt lat="47.55347" lon="6.84561">
        <ele>357</ele>
        <time>2015-06-28T13:24:52Z</time>
      </trkpt>
      <trkpt lat="47.55363" lon="6.84615">
        <ele>355</ele>
        <time>2015-06-28T13:25:12Z</time>
      </trkpt>
      <trkpt lat="47.55452" lon="6.84745">
        <ele>351</ele>
        <time>2015-06-28T13:25:32Z</time>
      </trkpt>
      <trkpt lat="47.55413" lon="6.84765">
        <ele>354</ele>
        <time>2015-06-28T13:25:52Z</time>
      </trkpt>
      <trkpt lat="47.55359" lon="6.84783">
        <ele>353</ele>
        <time>2015-06-28T13:26:12Z</time>
      </trkpt>
      <trkpt lat="47.55249" lon="6.84742">
        <ele>351</ele>
        <time>2015-06-28T13:26:32Z</time>
      </trkpt>
      <trkpt lat="47.55129" lon="6.84722">
        <ele>356</ele>
        <time>2015-06-28T13:26:52Z</time>
      </trkpt>
      <trkpt lat="47.54981" lon="6.84705">
        <ele>357</ele>
        <time>2015-06-28T13:27:12Z</time>
      </trkpt>
      <trkpt lat="47.54922" lon="6.84711">
        <ele>356</ele>
        <time>2015-06-28T13:27:32Z</time>
      </trkpt>
      <trkpt lat="47.54815" lon="6.84745">
        <ele>353</ele>
        <time>2015-06-28T13:27:52Z</time>
      </trkpt>
      <trkpt lat="47.54758" lon="6.84751">
        <ele>352</ele>
        <time>2015-06-28T13:28:12Z</time>
      </trkpt>
      <trkpt lat="47.54587" lon="6.84758">
        <ele>353</ele>
        <time>2015-06-28T13:28:32Z</time>
      </trkpt>
      <trkpt lat="47.5442" lon="6.84784">
        <ele>350</ele>
        <time>2015-06-28T13:28:52Z</time>
      </trkpt>
      <trkpt lat="47.54286" lon="6.84793">
        <ele>348</ele>
        <time>2015-06-28T13:29:12Z</time>
      </trkpt>
      <trkpt lat="47.54109" lon="6.8479">
        <ele>345</ele>
        <time>2015-06-28T13:29:32Z</time>
      </trkpt>
      <trkpt lat="47.54051" lon="6.84806">
        <ele>340</ele>
        <time>2015-06-28T13:29:52Z</time>
      </trkpt>
      <trkpt lat="47.54013" lon="6.84838">
        <ele>337</ele>
        <time>2015-06-28T13:30:12Z</time>
      </trkpt>
      <trkpt lat="47.53972" lon="6.84862">
        <ele>334</ele>
        <time>2015-06-28T13:30:32Z</time>
      </trkpt>
      <trkpt lat="47.53916" lon="6.8484">
        <ele>331</ele>
        <time>2015-06-28T13:30:52Z</time>
      </trkpt>
      <trkpt lat="47.5389" lon="6.84839">
        <ele>330</ele>
        <time>2015-06-28T13:31:12Z</time>
      </trkpt>
      <trkpt lat="47.53875" lon="6.84833">
        <ele>329</ele>
        <time>2015-06-28T13:31:32Z</time>
      </trkpt>
      <trkpt lat="47.53842" lon="6.84868">
        <ele>329</ele>
        <time>2015-06-28T13:31:52Z</time>
      </trkpt>
      <trkpt lat="47.53843" lon="6.84888">
        <ele>329</ele>
        <time>2015-06-28T13:32:12Z</time>
      </trkpt>
      <trkpt lat="47.53823" lon="6.84963">
        <ele>325</ele>
        <time>2015-06-28T13:32:32Z</time>
      </trkpt>
      <trkpt lat="47.5386" lon="6.84995">
        <ele>325</ele>
        <time>2015-06-28T13:32:52Z</time>
      </trkpt>
      <trkpt lat="47.53889" lon="6.85032">
        <ele>324</ele>
        <time>2015-06-28T13:33:12Z</time>
      </trkpt>
      <trkpt lat="47.53889" lon="6.85079">
        <ele>324</ele>
        <time>2015-06-28T13:33:32Z</time>
      </trkpt>
      <trkpt lat="47.53908" lon="6.85161">
        <ele>323</ele>
        <time>2015-06-28T13:33:52Z</time>
      </trkpt>
      <trkpt lat="47.53938" lon="6.85235">
        <ele>324</ele>
        <time>2015-06-28T13:34:12Z</time>
      </trkpt>
      <trkpt lat="47.5392" lon="6.8524">
        <ele>325</ele>
        <time>2015-06-28T13:34:32Z</time>
      </trkpt>
      <trkpt lat="47.53897" lon="6.85251">
        <ele>325</ele>
        <time>2015-06-28T13:34:52Z</time>
      </trkpt>
      <trkpt lat="47.53818" lon="6.85419">
        <ele>325</ele>
        <time>2015-06-28T13:35:12Z</time>
      </trkpt>
      <trkpt lat="47.53808" lon="6.85422">
        <ele>324</ele>
        <time>2015-06-28T13:35:32Z</time>
      </trkpt>
      <trkpt lat="47.53692" lon="6.85366">
        <ele>325</ele>
        <time>2015-06-28T13:35:52Z</time>
      </trkpt>
      <trkpt lat="47.5366" lon="6.8538">
        <ele>325</ele>
        <time>2015-06-28T13:36:12Z</time>
      </trkpt>
      <trkpt lat="47.53631" lon="6.85389">
        <ele>324</ele>
        <time>2015-06-28T13:36:32Z</time>
      </trkpt>
      <trkpt lat="47.53604" lon="6.85395">
        <ele>324</ele>
        <time>2015-06-28T13:36:52Z</time>
      </trkpt>
      <trkpt lat="47.53535" lon="6.85454">
        <ele>322</ele>
        <time>2015-06-28T13:37:12Z</time>
      </trkpt>
      <trkpt lat="47.53492" lon="6.85474">
        <ele>321</ele>
        <time>2015-06-28T13:37:32Z</time>
      </trkpt>
      <trkpt lat="47.53451" lon="6.8547">
        <ele>321</ele>
        <time>2015-06-28T13:37:52Z</time>
      </trkpt>
      <trkpt lat="47.53386" lon="6.85432">
        <ele>322</ele>
        <time>2015-06-28T13:38:12Z</time>
      </trkpt>
      <trkpt lat="47.5336" lon="6.854">
        <ele>322</ele>
        <time>2015-06-28T13:38:32Z</time>
      </trkpt>
      <trkpt lat="47.53259" lon="6.85347">
        <ele>322</ele>
        <time>2015-06-28T13:38:52Z</time>
      </trkpt>
      <trkpt lat="47.53178" lon="6.85332">
        <ele>322</ele>
        <time>2015-06-28T13:39:12Z</time>
      </trkpt>
      <trkpt lat="47.53128" lon="6.85348">
        <ele>321</ele>
        <time>2015-06-28T13:39:32Z</time>
      </trkpt>
      <trkpt lat="47.53073" lon="6.85352">
        <ele>322</ele>
        <time>2015-06-28T13:39:52Z</time>
      </trkpt>
      <trkpt lat="47.53023" lon="6.8529">
        <ele>322</ele>
        <time>2015-06-28T13:40:12Z</time>
      </trkpt>
      <trkpt lat="47.53006" lon="6.85287">
        <ele>322</ele>
        <time>2015-06-28T13:40:32Z</time>
      </trkpt>
      <trkpt lat="47.52931" lon="6.85311">
        <ele>321</ele>
        <time>2015-06-28T13:40:52Z</time>
      </trkpt>
      <trkpt lat="47.52898" lon="6.85301">
        <ele>321</ele>
        <time>2015-06-28T13:41:12Z</time>
      </trkpt>
      <trkpt lat="47.52879" lon="6.85308">
        <ele>322</ele>
        <time>2015-06-28T13:41:32Z</time>
      </trkpt>
      <trkpt lat="47.52861" lon="6.85351">
        <ele>322</ele>
        <time>2015-06-28T13:41:52Z</time>
      </trkpt>
      <trkpt lat="47.52849" lon="6.85424">
        <ele>323</ele>
        <time>2015-06-28T13:42:12Z</time>
      </trkpt>
      <trkpt lat="47.52859" lon="6.85487">
        <ele>323</ele>
        <time>2015-06-28T13:42:32Z</time>
      </trkpt>
      <trkpt lat="47.52866" lon="6.85505">
        <ele>324</ele>
        <time>2015-06-28T13:42:52Z</time>
      </trkpt>
      <trkpt lat="47.52858" lon="6.85545">
        <ele>324</ele>
        <time>2015-06-28T13:43:12Z</time>
      </trkpt>
      <trkpt lat="47.52851" lon="6.85558">
        <ele>324</ele>
        <time>2015-06-28T13:43:32Z</time>
      </trkpt>
      <trkpt lat="47.52845" lon="6.85596">
        <ele>324</ele>
        <time>2015-06-28T13:43:52Z</time>
      </trkpt>
      <trkpt lat="47.52957" lon="6.85698">
        <ele>324</ele>
        <time>2015-06-28T13:44:12Z</time>
      </trkpt>
      <trkpt lat="47.52982" lon="6.8575">
        <ele>323</ele>
        <time>2015-06-28T13:44:32Z</time>
      </trkpt>
      <trkpt lat="47.52988" lon="6.85807">
        <ele>323</ele>
        <time>2015-06-28T13:44:52Z</time>
      </trkpt>
      <trkpt lat="47.5296" lon="6.85979">
        <ele>326</ele>
        <time>2015-06-28T13:45:12Z</time>
      </trkpt>
      <trkpt lat="47.5294" lon="6.85966">
        <ele>326</ele>
        <time>2015-06-28T13:45:32Z</time>
      </trkpt>
      <trkpt lat="47.52882" lon="6.85962">
        <ele>325</ele>
        <time>2015-06-28T13:45:52Z</time>
      </trkpt>
      <trkpt lat="47.52826" lon="6.85975">
        <ele>325</ele>
        <time>2015-06-28T13:46:12Z</time>
      </trkpt>
      <trkpt lat="47.52767" lon="6.8601">
        <ele>325</ele>
        <time>2015-06-28T13:46:32Z</time>
      </trkpt>
      <trkpt lat="47.52609" lon="6.86132">
        <ele>325</ele>
        <time>2015-06-28T13:46:52Z</time>
      </trkpt>
      <trkpt lat="47.52526" lon="6.8621">
        <ele>327</ele>
        <time>2015-06-28T13:47:12Z</time>
      </trkpt>
      <trkpt lat="47.52482" lon="6.86282">
        <ele>326</ele>
        <time>2015-06-28T13:47:32Z</time>
      </trkpt>
      <trkpt lat="47.52451" lon="6.86349">
        <ele>327</ele>
        <time>2015-06-28T13:47:52Z</time>
      </trkpt>
      <trkpt lat="47.5242" lon="6.86445">
        <ele>327</ele>
        <time>2015-06-28T13:48:12Z</time>
      </trkpt>
      <trkpt lat="47.52397" lon="6.86603">
        <ele>325</ele>
        <time>2015-06-28T13:48:32Z</time>
      </trkpt>
      <trkpt lat="47.52399" lon="6.86643">
        <ele>325</ele>
        <time>2015-06-28T13:48:52Z</time>
      </trkpt>
      <trkpt lat="47.52389" lon="6.86675">
        <ele>325</ele>
        <time>2015-06-28T13:49:12Z</time>
      </trkpt>
      <trkpt lat="47.52359" lon="6.86918">
        <ele>325</ele>
        <time>2015-06-28T13:49:32Z</time>
      </trkpt>
      <trkpt lat="47.52323" lon="6.87198">
        <ele>325</ele>
        <time>2015-06-28T13:49:52Z</time>
      </trkpt>
      <trkpt lat="47.52294" lon="6.87436">
        <ele>325</ele>
        <time>2015-06-28T13:50:12Z</time>
      </trkpt>
      <trkpt lat="47.52298" lon="6.8753">
        <ele>325</ele>
        <time>2015-06-28T13:50:32Z</time>
      </trkpt>
      <trkpt lat="47.52334" lon="6.87724">
        <ele>331</ele>
        <time>2015-06-28T13:50:52Z</time>
      </trkpt>
      <trkpt lat="47.52355" lon="6.87833">
        <ele>331</ele>
        <time>2015-06-28T13:51:12Z</time>
      </trkpt>
      <trkpt lat="47.52365" lon="6.87859">
        <ele>331</ele>
        <time>2015-06-28T13:51:32Z</time>
      </trkpt>
      <trkpt lat="47.52325" lon="6.88009">
        <ele>324</ele>
        <time>2015-06-28T13:51:52Z</time>
      </trkpt>
      <trkpt lat="47.52325" lon="6.88034">
        <ele>323</ele>
        <time>2015-06-28T13:52:12Z</time>
      </trkpt>
      <trkpt lat="47.5228" lon="6.88083">
        <ele>323</ele>
        <time>2015-06-28T13:52:32Z</time>
      </trkpt>
      <trkpt lat="47.52239" lon="6.8811">
        <ele>323</ele>
        <time>2015-06-28T13:52:52Z</time>
      </trkpt>
      <trkpt lat="47.52186" lon="6.88176">
        <ele>324</ele>
        <time>2015-06-28T13:53:12Z</time>
      </trkpt>
      <trkpt lat="47.52148" lon="6.88202">
        <ele>324</ele>
        <time>2015-06-28T13:53:32Z</time>
      </trkpt>
      <trkpt lat="47.52111" lon="6.88212">
        <ele>324</ele>
        <time>2015-06-28T13:53:52Z</time>
      </trkpt>
      <trkpt lat="47.52083" lon="6.88208">
        <ele>324</ele>
        <time>2015-06-28T13:54:12Z</time>
      </trkpt>
      <trkpt lat="47.52034" lon="6.88173">
        <ele>323</ele>
        <time>2015-06-28T13:54:32Z</time>
      </trkpt>
      <trkpt lat="47.52002" lon="6.88117">
        <ele>322</ele>
        <time>2015-06-28T13:54:52Z</time>
      </trkpt>
      <trkpt lat="47.51974" lon="6.88032">
        <ele>322</ele>
        <time>2015-06-28T13:55:12Z</time>
      </trkpt>
      <trkpt lat="47.51954" lon="6.88037">
        <ele>322</ele>
        <time>2015-06-28T13:55:32Z</time>
      </trkpt>
      <trkpt lat="47.5195" lon="6.8805">
        <ele>322</ele>
        <time>2015-06-28T13:55:52Z</time>
      </trkpt>
      <trkpt lat="47.51968" lon="6.88087">
        <ele>322</ele>
        <time>2015-06-28T13:56:12Z</time>
      </trkpt>
      <trkpt lat="47.51971" lon="6.88111">
        <ele>322</ele>
        <time>2015-06-28T13:56:32Z</time>
      </trkpt>
      <trkpt lat="47.52082" lon="6.88459">
        <ele>323</ele>
        <time>2015-06-28T13:56:52Z</time>
      </trkpt>
      <trkpt lat="47.52202" lon="6.88846">
        <ele>322</ele>
        <time>2015-06-28T13:57:12Z</time>
      </trkpt>
      <trkpt lat="47.52341" lon="6.89292">
        <ele>323</ele>
        <time>2015-06-28T13:57:32Z</time>
      </trkpt>
      <trkpt lat="47.52337" lon="6.89304">
        <ele>323</ele>
        <time>2015-06-28T13:57:52Z</time>
      </trkpt>
      <trkpt lat="47.52366" lon="6.894">
        <ele>324</ele>
        <time>2015-06-28T13:58:12Z</time>
      </trkpt>
      <trkpt lat="47.52358" lon="6.89496">
        <ele>326</ele>
        <time>2015-06-28T13:58:32Z</time>
      </trkpt>
      <trkpt lat="47.52405" lon="6.89659">
        <ele>328</ele>
        <time>2015-06-28T13:58:52Z</time>
      </trkpt>
      <trkpt lat="47.52402" lon="6.89724">
        <ele>330</ele>
        <time>2015-06-28T13:59:12Z</time>
      </trkpt>
      <trkpt lat="47.52337" lon="6.89772">
        <ele>332</ele>
        <time>2015-06-28T13:59:32Z</time>
      </trkpt>
      <trkpt lat="47.52303" lon="6.89726">
        <ele>336</ele>
        <time>2015-06-28T13:59:52Z</time>
      </trkpt>
      <trkpt lat="47.52245" lon="6.89745">
        <ele>341</ele>
        <time>2015-06-28T14:00:12Z</time>
      </trkpt>
      <trkpt lat="47.52221" lon="6.89743">
        <ele>343</ele>
        <time>2015-06-28T14:00:32Z</time>
      </trkpt>
      <trkpt lat="47.52124" lon="6.89845">
        <ele>348</ele>
        <time>2015-06-28T14:00:52Z</time>
      </trkpt>
      <trkpt lat="47.52039" lon="6.89911">
        <ele>354</ele>
        <time>2015-06-28T14:01:12Z</time>
      </trkpt>
      <trkpt lat="47.5196" lon="6.90024">
        <ele>352</ele>
        <time>2015-06-28T14:01:32Z</time>
      </trkpt>
      <trkpt lat="47.5194" lon="6.90072">
        <ele>353</ele>
        <time>2015-06-28T14:01:52Z</time>
      </trkpt>
      <trkpt lat="47.51915" lon="6.90116">
        <ele>362</ele>
        <time>2015-06-28T14:02:12Z</time>
      </trkpt>
      <trkpt lat="47.51876" lon="6.90159">
        <ele>367</ele>
        <time>2015-06-28T14:02:32Z</time>
      </trkpt>
      <trkpt lat="47.51859" lon="6.90154">
        <ele>370</ele>
        <time>2015-06-28T14:02:52Z</time>
      </trkpt>
      <trkpt lat="47.51742" lon="6.90003">
        <ele>389</ele>
        <time>2015-06-28T14:03:12Z</time>
      </trkpt>
      <trkpt lat="47.51699" lon="6.89971">
        <ele>391</ele>
        <time>2015-06-28T14:03:32Z</time>
      </trkpt>
      <trkpt lat="47.51581" lon="6.89867">
        <ele>403</ele>
        <time>2015-06-28T14:03:52Z</time>
      </trkpt>
      <trkpt lat="47.51484" lon="6.89784">
        <ele>404</ele>
        <time>2015-06-28T14:04:12Z</time>
      </trkpt>
      <trkpt lat="47.51306" lon="6.89661">
        <ele>404</ele>
        <time>2015-06-28T14:04:32Z</time>
      </trkpt>
      <trkpt lat="47.51272" lon="6.89632">
        <ele>404</ele>
        <time>2015-06-28T14:04:52Z</time>
      </trkpt>
      <trkpt lat="47.51228" lon="6.89594">
        <ele>405</ele>
        <time>2015-06-28T14:05:12Z</time>
      </trkpt>
      <trkpt lat="47.512" lon="6.89533">
        <ele>406</ele>
        <time>2015-06-28T14:05:32Z</time>
      </trkpt>
      <trkpt lat="47.51167" lon="6.89543">
        <ele>406</ele>
        <time>2015-06-28T14:05:52Z</time>
      </trkpt>
      <trkpt lat="47.5102" lon="6.89651">
        <ele>405</ele>
        <time>2015-06-28T14:06:12Z</time>
      </trkpt>
      <trkpt lat="47.50987" lon="6.8966">
        <ele>405</ele>
        <time>2015-06-28T14:06:32Z</time>
      </trkpt>
      <trkpt lat="47.50857" lon="6.89664">
        <ele>404</ele>
        <time>2015-06-28T14:06:52Z</time>
      </trkpt>
      <trkpt lat="47.50829" lon="6.89661">
        <ele>404</ele>
        <time>2015-06-28T14:07:12Z</time>
      </trkpt>
      <trkpt lat="47.50396" lon="6.89665">
        <ele>400</ele>
        <time>2015-06-28T14:07:32Z</time>
      </trkpt>
      <trkpt lat="47.49836" lon="6.89679">
        <ele>412</ele>
        <time>2015-06-28T14:07:52Z</time>
      </trkpt>
      <trkpt lat="47.49874" lon="6.89741">
        <ele>411</ele>
        <time>2015-06-28T14:08:12Z</time>
      </trkpt>
      <trkpt lat="47.49846" lon="6.89753">
        <ele>411</ele>
        <time>2015-06-28T14:08:32Z</time>
      </trkpt>
      <trkpt lat="47.49731" lon="6.89783">
        <ele>409</ele>
        <time>2015-06-28T14:08:52Z</time>
      </trkpt>
      <trkpt lat="47.49656" lon="6.8979">
        <ele>407</ele>
        <time>2015-06-28T14:09:12Z</time>
      </trkpt>
      <trkpt lat="47.49637" lon="6.89746">
        <ele>409</ele>
        <time>2015-06-28T14:09:32Z</time>
      </trkpt>
      <trkpt lat="47.49541" lon="6.89628">
        <ele>410</ele>
        <time>2015-06-28T14:09:52Z</time>
      </trkpt>
      <trkpt lat="47.49509" lon="6.89577">
        <ele>410</ele>
        <time>2015-06-28T14:10:12Z</time>
      </trkpt>
      <trkpt lat="47.49488" lon="6.89532">
        <ele>412</ele>
        <time>2015-06-28T14:10:32Z</time>
      </trkpt>
      <trkpt lat="47.49482" lon="6.8949">
        <ele>410</ele>
        <time>2015-06-28T14:10:52Z</time>
      </trkpt>
      <trkpt lat="47.49445" lon="6.89336">
        <ele>410</ele>
        <time>2015-06-28T14:11:12Z</time>
      </trkpt>
      <trkpt lat="47.49417" lon="6.89192">
        <ele>406</ele>
        <time>2015-06-28T14:11:32Z</time>
      </trkpt>
      <trkpt lat="47.49405" lon="6.89073">
        <ele>398</ele>
        <time>2015-06-28T14:11:52Z</time>
      </trkpt>
      <trkpt lat="47.49459" lon="6.89054">
        <ele>397</ele>
        <time>2015-06-28T14:12:12Z</time>
      </trkpt>
      <trkpt lat="47.49477" lon="6.8903">
        <ele>397</ele>
        <time>2015-06-28T14:12:32Z</time>
      </trkpt>
      <trkpt lat="47.49478" lon="6.88993">
        <ele>396</ele>
        <time>2015-06-28T14:12:52Z</time>
      </trkpt>
      <trkpt lat="47.49453" lon="6.88859">
        <ele>396</ele>
        <time>2015-06-28T14:13:12Z</time>
      </trkpt>
      <trkpt lat="47.49434" lon="6.88415">
        <ele>387</ele>
        <time>2015-06-28T14:13:32Z</time>
      </trkpt>
      <trkpt lat="47.49412" lon="6.8823">
        <ele>382</ele>
        <time>2015-06-28T14:13:52Z</time>
      </trkpt>
      <trkpt lat="47.49295" lon="6.8824">
        <ele>389</ele>
        <time>2015-06-28T14:14:12Z</time>
      </trkpt>
      <trkpt lat="47.49276" lon="6.88233">
        <ele>390</ele>
        <time>2015-06-28T14:14:32Z</time>
      </trkpt>
      <trkpt lat="47.49232" lon="6.88237">
        <ele>396</ele>
        <time>2015-06-28T14:14:52Z</time>
      </trkpt>
      <trkpt lat="47.49184" lon="6.88223">
        <ele>399</ele>
        <time>2015-06-28T14:15:12Z</time>
      </trkpt>
      <trkpt lat="47.4905" lon="6.88234">
        <ele>404</ele>
        <time>2015-06-28T14:15:32Z</time>
      </trkpt>
      <trkpt lat="47.48737" lon="6.88351">
        <ele>406</ele>
        <time>2015-06-28T14:15:52Z</time>
      </trkpt>
      <trkpt lat="47.48677" lon="6.88387">
        <ele>409</ele>
        <time>2015-06-28T14:16:12Z</time>
      </trkpt>
      <trkpt lat="47.48654" lon="6.88388">
        <ele>412</ele>
        <time>2015-06-28T14:16:32Z</time>
      </trkpt>
      <trkpt lat="47.48494" lon="6.88435">
        <ele>415</ele>
        <time>2015-06-28T14:16:52Z</time>
      </trkpt>
      <trkpt lat="47.48377" lon="6.88519">
        <ele>414</ele>
        <time>2015-06-28T14:17:12Z</time>
      </trkpt>
      <trkpt lat="47.4817" lon="6.88511">
        <ele>405</ele>
        <time>2015-06-28T14:17:32Z</time>
      </trkpt>
      <trkpt lat="47.48213" lon="6.8865">
        <ele>409</ele>
        <time>2015-06-28T14:17:52Z</time>
      </trkpt>
      <trkpt lat="47.48228" lon="6.88716">
        <ele>412</ele>
        <time>2015-06-28T14:18:12Z</time>
      </trkpt>
      <trkpt lat="47.48219" lon="6.88739">
        <ele>412</ele>
        <time>2015-06-28T14:18:32Z</time>
      </trkpt>
      <trkpt lat="47.48113" lon="6.88783">
        <ele>404</ele>
        <time>2015-06-28T14:18:52Z</time>
      </trkpt>
      <trkpt lat="47.48059" lon="6.88833">
        <ele>397</ele>
        <time>2015-06-28T14:19:12Z</time>
      </trkpt>
      <trkpt lat="47.48001" lon="6.88872">
        <ele>394</ele>
        <time>2015-06-28T14:19:32Z</time>
      </trkpt>
      <trkpt lat="47.47937" lon="6.8891">
        <ele>387</ele>
        <time>2015-06-28T14:19:52Z</time>
      </trkpt>
      <trkpt lat="47.47925" lon="6.8904">
        <ele>388</ele>
        <time>2015-06-28T14:20:12Z</time>
      </trkpt>
      <trkpt lat="47.47905" lon="6.89066">
        <ele>384</ele>
        <time>2015-06-28T14:20:32Z</time>
      </trkpt>
      <trkpt lat="47.47868" lon="6.8913">
        <ele>383</ele>
        <time>2015-06-28T14:20:52Z</time>
      </trkpt>
      <trkpt lat="47.47795" lon="6.89222">
        <ele>379</ele>
        <time>2015-06-28T14:21:12Z</time>
      </trkpt>
      <trkpt lat="47.47749" lon="6.89249">
        <ele>378</ele>
        <time>2015-06-28T14:21:32Z</time>
      </trkpt>
      <trkpt lat="47.47743" lon="6.89225">
        <ele>377</ele>
        <time>2015-06-28T14:21:52Z</time>
      </trkpt>
      <trkpt lat="47.47708" lon="6.89163">
        <ele>375</ele>
        <time>2015-06-28T14:22:12Z</time>
      </trkpt>
      <trkpt lat="47.47682" lon="6.89161">
        <ele>374</ele>
        <time>2015-06-28T14:22:32Z</time>
      </trkpt>
      <trkpt lat="47.47604" lon="6.89204">
        <ele>375</ele>
        <time>2015-06-28T14:22:52Z</time>
      </trkpt>
      <trkpt lat="47.47608" lon="6.89283">
        <ele>376</ele>
        <time>2015-06-28T14:23:12Z</time>
      </trkpt>
      <trkpt lat="47.47594" lon="6.89282">
        <ele>376</ele>
        <time>2015-06-28T14:23:32Z</time>
      </trkpt>
      <trkpt lat="47.47586" lon="6.89263">
        <ele>377</ele>
        <time>2015-06-28T14:23:52Z</time>
      </trkpt>
      <trkpt lat="47.47583" lon="6.89231">
        <ele>377</ele>
        <time>2015-06-28T14:24:12Z</time>
      </trkpt>
      <trkpt lat="47.47573" lon="6.89218">
        <ele>377</ele>
        <time>2015-06-28T14:24:32Z</time>
      </trkpt>
      <trkpt lat="47.47503" lon="6.89227">
        <ele>377</ele>
        <time>2015-06-28T14:24:52Z</time>
      </trkpt>
      <trkpt lat="47.47491" lon="6.89226">
        <ele>379</ele>
        <time>2015-06-28T14:25:12Z</time>
      </trkpt>
      <trkpt lat="47.47462" lon="6.89195">
        <ele>379</ele>
        <time>2015-06-28T14:25:32Z</time>
      </trkpt>
      <trkpt lat="47.47421" lon="6.89197">
        <ele>380</ele>
        <time>2015-06-28T14:25:52Z</time>
      </trkpt>
      <trkpt lat="47.47307" lon="6.89215">
        <ele>386</ele>
        <time>2015-06-28T14:26:12Z</time>
      </trkpt>
      <trkpt lat="47.47277" lon="6.8921">
        <ele>387</ele>
        <time>2015-06-28T14:26:32Z</time>
      </trkpt>
      <trkpt lat="47.47209" lon="6.89189">
        <ele>391</ele>
        <time>2015-06-28T14:26:52Z</time>
      </trkpt>
      <trkpt lat="47.47062" lon="6.89184">
        <ele>402</ele>
        <time>2015-06-28T14:27:12Z</time>
      </trkpt>
      <trkpt lat="47.47041" lon="6.89251">
        <ele>406</ele>
        <time>2015-06-28T14:27:32Z</time>
      </trkpt>
      <trkpt lat="47.47012" lon="6.89317">
        <ele>408</ele>
        <time>2015-06-28T14:27:52Z</time>
      </trkpt>
      <trkpt lat="47.46988" lon="6.89416">
        <ele>413</ele>
        <time>2015-06-28T14:28:12Z</time>
      </trkpt>
      <trkpt lat="47.46968" lon="6.89451">
        <ele>413</ele>
        <time>2015-06-28T14:28:32Z</time>
      </trkpt>
      <trkpt lat="47.46936" lon="6.8947">
        <ele>415</ele>
        <time>2015-06-28T14:28:52Z</time>
      </trkpt>
      <trkpt lat="47.46873" lon="6.89498">
        <ele>420</ele>
        <time>2015-06-28T14:29:12Z</time>
      </trkpt>
      <trkpt lat="47.46884" lon="6.89702">
        <ele>421</ele>
        <time>2015-06-28T14:29:32Z</time>
      </trkpt>
      <trkpt lat="47.46885" lon="6.89857">
        <ele>426</ele>
        <time>2015-06-28T14:29:52Z</time>
      </trkpt>
      <trkpt lat="47.46779" lon="6.90021">
        <ele>425</ele>
        <time>2015-06-28T14:30:12Z</time>
      </trkpt>
      <trkpt lat="47.46743" lon="6.90055">
        <ele>419</ele>
        <time>2015-06-28T14:30:32Z</time>
      </trkpt>
      <trkpt lat="47.46717" lon="6.90123">
        <ele>419</ele>
        <time>2015-06-28T14:30:52Z</time>
      </trkpt>
      <trkpt lat="47.466" lon="6.90208">
        <ele>417</ele>
        <time>2015-06-28T14:31:12Z</time>
      </trkpt>
      <trkpt lat="47.46583" lon="6.90245">
        <ele>419</ele>
        <time>2015-06-28T14:31:32Z</time>
      </trkpt>
      <trkpt lat="47.46489" lon="6.90368">
        <ele>433</ele>
        <time>2015-06-28T14:31:52Z</time>
      </trkpt>
      <trkpt lat="47.46458" lon="6.90373">
        <ele>434</ele>
        <time>2015-06-28T14:32:12Z</time>
      </trkpt>
      <trkpt lat="47.4643" lon="6.90369">
        <ele>435</ele>
        <time>2015-06-28T14:32:32Z</time>
      </trkpt>
      <trkpt lat="47.4641" lon="6.90377">
        <ele>439</ele>
        <time>2015-06-28T14:32:52Z</time>
      </trkpt>
      <trkpt lat="47.46391" lon="6.90409">
        <ele>440</ele>
        <time>2015-06-28T14:33:12Z</time>
      </trkpt>
      <trkpt lat="47.46385" lon="6.90462">
        <ele>443</ele>
        <time>2015-06-28T14:33:32Z</time>
      </trkpt>
      <trkpt lat="47.46371" lon="6.90488">
        <ele>444</ele>
        <time>2015-06-28T14:33:52Z</time>
      </trkpt>
      <trkpt lat="47.46334" lon="6.90517">
        <ele>446</ele>
        <time>2015-06-28T14:34:12Z</time>
      </trkpt>
      <trkpt lat="47.46235" lon="6.9056">
        <ele>452</ele>
        <time>2015-06-28T14:34:32Z</time>
      </trkpt>
      <trkpt lat="47.46187" lon="6.90582">
        <ele>451</ele>
        <time>2015-06-28T14:34:52Z</time>
      </trkpt>
      <trkpt lat="47.4615" lon="6.90628">
        <ele>455</ele>
        <time>2015-06-28T14:35:12Z</time>
      </trkpt>
      <trkpt lat="47.46121" lon="6.90758">
        <ele>464</ele>
        <time>2015-06-28T14:35:32Z</time>
      </trkpt>
      <trkpt lat="47.46081" lon="6.90911">
        <ele>473</ele>
        <time>2015-06-28T14:35:52Z</time>
      </trkpt>
      <trkpt lat="47.46059" lon="6.90952">
        <ele>475</ele>
        <time>2015-06-28T14:36:12Z</time>
      </trkpt>
      <trkpt lat="47.46002" lon="6.91014">
        <ele>475</ele>
        <time>2015-06-28T14:36:32Z</time>
      </trkpt>
      <trkpt lat="47.45984" lon="6.91045">
        <ele>482</ele>
        <time>2015-06-28T14:36:52Z</time>
      </trkpt>
      <trkpt lat="47.45963" lon="6.9106">
        <ele>484</ele>
        <time>2015-06-28T14:37:12Z</time>
      </trkpt>
      <trkpt lat="47.45921" lon="6.91115">
        <ele>489</ele>
        <time>2015-06-28T14:37:32Z</time>
      </trkpt>
      <trkpt lat="47.45884" lon="6.91221">
        <ele>493</ele>
        <time>2015-06-28T14:37:52Z</time>
      </trkpt>
      <trkpt lat="47.45848" lon="6.91231">
        <ele>494</ele>
        <time>2015-06-28T14:38:12Z</time>
      </trkpt>
      <trkpt lat="47.45833" lon="6.91243">
        <ele>497</ele>
        <time>2015-06-28T14:38:32Z</time>
      </trkpt>
      <trkpt lat="47.4581" lon="6.91243">
        <ele>504</ele>
        <time>2015-06-28T14:38:52Z</time>
      </trkpt>
      <trkpt lat="47.45701" lon="6.91396">
        <ele>530</ele>
        <time>2015-06-28T14:39:12Z</time>
      </trkpt>
      <trkpt lat="47.4567" lon="6.91469">
        <ele>536</ele>
        <time>2015-06-28T14:39:32Z</time>
      </trkpt>
      <trkpt lat="47.45652" lon="6.91531">
        <ele>544</ele>
        <time>2015-06-28T14:39:52Z</time>
      </trkpt>
      <trkpt lat="47.45644" lon="6.91574">
        <ele>546</ele>
        <time>2015-06-28T14:40:12Z</time>
      </trkpt>
      <trkpt lat="47.45636" lon="6.91594">
        <ele>550</ele>
        <time>2015-06-28T14:40:32Z</time>
      </trkpt>
      <trkpt lat="47.45602" lon="6.91541">
        <ele>547</ele>
        <time>2015-06-28T14:40:52Z</time>
      </trkpt>
      <trkpt lat="47.45554" lon="6.91475">
        <ele>552</ele>
        <time>2015-06-28T14:41:12Z</time>
      </trkpt>
      <trkpt lat="47.45511" lon="6.91446">
        <ele>555</ele>
        <time>2015-06-28T14:41:32Z</time>
      </trkpt>
      <trkpt lat="47.45468" lon="6.91435">
        <ele>565</ele>
        <time>2015-06-28T14:41:52Z</time>
      </trkpt>
      <trkpt lat="47.45288" lon="6.91416">
        <ele>573</ele>
        <time>2015-06-28T14:42:12Z</time>
      </trkpt>
      <trkpt lat="47.45229" lon="6.91402">
        <ele>576</ele>
        <time>2015-06-28T14:42:32Z</time>
      </trkpt>
      <trkpt lat="47.45135" lon="6.91384">
        <ele>578</ele>
        <time>2015-06-28T14:42:52Z</time>
      </trkpt>
      <trkpt lat="47.45081" lon="6.91381">
        <ele>581</ele>
        <time>2015-06-28T14:43:12Z</time>
      </trkpt>
      <trkpt lat="47.45013" lon="6.91367">
        <ele>582</ele>
        <time>2015-06-28T14:43:32Z</time>
      </trkpt>
      <trkpt lat="47.44926" lon="6.91353">
        <ele>589</ele>
        <time>2015-06-28T14:43:52Z</time>
      </trkpt>
      <trkpt lat="47.44869" lon="6.91334">
        <ele>594</ele>
        <time>2015-06-28T14:44:12Z</time>
      </trkpt>
      <trkpt lat="47.44788" lon="6.91292">
        <ele>599</ele>
        <time>2015-06-28T14:44:32Z</time>
      </trkpt>
      <trkpt lat="47.4474" lon="6.91265">
        <ele>602</ele>
        <time>2015-06-28T14:44:52Z</time>
      </trkpt>
      <trkpt lat="47.44704" lon="6.9125">
        <ele>602</ele>
        <time>2015-06-28T14:45:12Z</time>
      </trkpt>
      <trkpt lat="47.44623" lon="6.91269">
        <ele>599</ele>
        <time>2015-06-28T14:45:32Z</time>
      </trkpt>
      <trkpt lat="47.44597" lon="6.91273">
        <ele>598</ele>
        <time>2015-06-28T14:45:52Z</time>
      </trkpt>
      <trkpt lat="47.44546" lon="6.91308">
        <ele>592</ele>
        <time>2015-06-28T14:46:12Z</time>
      </trkpt>
      <trkpt lat="47.44511" lon="6.91347">
        <ele>592</ele>
        <time>2015-06-28T14:46:32Z</time>
      </trkpt>
      <trkpt lat="47.44373" lon="6.91428">
        <ele>575</ele>
        <time>2015-06-28T14:46:52Z</time>
      </trkpt>
      <trkpt lat="47.44326" lon="6.9149">
        <ele>572</ele>
        <time>2015-06-28T14:47:12Z</time>
      </trkpt>
      <trkpt lat="47.44225" lon="6.91541">
        <ele>575</ele>
        <time>2015-06-28T14:47:32Z</time>
      </trkpt>
      <trkpt lat="47.44167" lon="6.91636">
        <ele>578</ele>
        <time>2015-06-28T14:47:52Z</time>
      </trkpt>
      <trkpt lat="47.44132" lon="6.91739">
        <ele>585</ele>
        <time>2015-06-28T14:48:12Z</time>
      </trkpt>
      <trkpt lat="47.4411" lon="6.9177">
        <ele>586</ele>
        <time>2015-06-28T14:48:32Z</time>
      </trkpt>
      <trkpt lat="47.44058" lon="6.91824">
        <ele>591</ele>
        <time>2015-06-28T14:48:52Z</time>
      </trkpt>
      <trkpt lat="47.44003" lon="6.91858">
        <ele>590</ele>
        <time>2015-06-28T14:49:12Z</time>
      </trkpt>
      <trkpt lat="47.43876" lon="6.91835">
        <ele>589</ele>
        <time>2015-06-28T14:49:32Z</time>
      </trkpt>
      <trkpt lat="47.43815" lon="6.91841">
        <ele>589</ele>
        <time>2015-06-28T14:49:52Z</time>
      </trkpt>
      <trkpt lat="47.43797" lon="6.91859">
        <ele>588</ele>
        <time>2015-06-28T14:50:12Z</time>
      </trkpt>
      <trkpt lat="47.4377" lon="6.91936">
        <ele>587</ele>
        <time>2015-06-28T14:50:32Z</time>
      </trkpt>
      <trkpt lat="47.43757" lon="6.9195">
        <ele>587</ele>
        <time>2015-06-28T14:50:52Z</time>
      </trkpt>
      <trkpt lat="47.43766" lon="6.91997">
        <ele>587</ele>
        <time>2015-06-28T14:51:12Z</time>
      </trkpt>
      <trkpt lat="47.43584" lon="6.92021">
        <ele>584</ele>
        <time>2015-06-28T14:51:32Z</time>
      </trkpt>
      <trkpt lat="47.43381" lon="6.91958">
        <ele>576</ele>
        <time>2015-06-28T14:51:52Z</time>
      </trkpt>
      <trkpt lat="47.43318" lon="6.91934">
        <ele>578</ele>
        <time>2015-06-28T14:52:12Z</time>
      </trkpt>
      <trkpt lat="47.43236" lon="6.91949">
        <ele>578</ele>
        <time>2015-06-28T14:52:32Z</time>
      </trkpt>
      <trkpt lat="47.43204" lon="6.91895">
        <ele>575</ele>
        <time>2015-06-28T14:52:52Z</time>
      </trkpt>
      <trkpt lat="47.43152" lon="6.91868">
        <ele>574</ele>
        <time>2015-06-28T14:53:12Z</time>
      </trkpt>
      <trkpt lat="47.43137" lon="6.91848">
        <ele>574</ele>
        <time>2015-06-28T14:53:32Z</time>
      </trkpt>
      <trkpt lat="47.43095" lon="6.91871">
        <ele>573</ele>
        <time>2015-06-28T14:53:52Z</time>
      </trkpt>
      <trkpt lat="47.43085" lon="6.91835">
        <ele>572</ele>
        <time>2015-06-28T14:54:12Z</time>
      </trkpt>
      <trkpt lat="47.42844" lon="6.91721">
        <ele>568</ele>
        <time>2015-06-28T14:54:32Z</time>
      </trkpt>
      <trkpt lat="47.42724" lon="6.91666">
        <ele>567</ele>
        <time>2015-06-28T14:54:52Z</time>
      </trkpt>
      <trkpt lat="47.42689" lon="6.91679">
        <ele>569</ele>
        <time>2015-06-28T14:55:12Z</time>
      </trkpt>
      <trkpt lat="47.4258" lon="6.9165">
        <ele>568</ele>
        <time>2015-06-28T14:55:32Z</time>
      </trkpt>
      <trkpt lat="47.42489" lon="6.91641">
        <ele>566</ele>
        <time>2015-06-28T14:55:52Z</time>
      </trkpt>
      <trkpt lat="47.42393" lon="6.9164">
        <ele>568</ele>
        <time>2015-06-28T14:56:12Z</time>
      </trkpt>
      <trkpt lat="47.4234" lon="6.91655">
        <ele>571</ele>
        <time>2015-06-28T14:56:32Z</time>
      </trkpt>
      <trkpt lat="47.42311" lon="6.91658">
        <ele>570</ele>
        <time>2015-06-28T14:56:52Z</time>
      </trkpt>
      <trkpt lat="47.42156" lon="6.91658">
        <ele>564</ele>
        <time>2015-06-28T14:57:12Z</time>
      </trkpt>
      <trkpt lat="47.42076" lon="6.91654">
        <ele>562</ele>
        <time>2015-06-28T14:57:32Z</time>
      </trkpt>
      <trkpt lat="47.4204" lon="6.91652">
        <ele>562</ele>
        <time>2015-06-28T14:57:52Z</time>
      </trkpt>
      <trkpt lat="47.41936" lon="6.91656">
        <ele>562</ele>
        <time>2015-06-28T14:58:12Z</time>
      </trkpt>
      <trkpt lat="47.4191" lon="6.91667">
        <ele>562</ele>
        <time>2015-06-28T14:58:32Z</time>
      </trkpt>
      <trkpt lat="47.4187" lon="6.91693">
        <ele>554</ele>
        <time>2015-06-28T14:58:52Z</time>
      </trkpt>
      <trkpt lat="47.41828" lon="6.9166">
        <ele>553</ele>
        <time>2015-06-28T14:59:12Z</time>
      </trkpt>
      <trkpt lat="47.41598" lon="6.91449">
        <ele>524</ele>
        <time>2015-06-28T14:59:32Z</time>
      </trkpt>
      <trkpt lat="47.41512" lon="6.91378">
        <ele>514</ele>
        <time>2015-06-28T14:59:52Z</time>
      </trkpt>
      <trkpt lat="47.41456" lon="6.91338">
        <ele>495</ele>
        <time>2015-06-28T15:00:12Z</time>
      </trkpt>
      <trkpt lat="47.41369" lon="6.91305">
        <ele>484</ele>
        <time>2015-06-28T15:00:32Z</time>
      </trkpt>
      <trkpt lat="47.41237" lon="6.91263">
        <ele>465</ele>
        <time>2015-06-28T15:00:52Z</time>
      </trkpt>
      <trkpt lat="47.41186" lon="6.91254">
        <ele>462</ele>
        <time>2015-06-28T15:01:12Z</time>
      </trkpt>
      <trkpt lat="47.41145" lon="6.91275">
        <ele>462</ele>
        <time>2015-06-28T15:01:32Z</time>
      </trkpt>
      <trkpt lat="47.41117" lon="6.91277">
        <ele>462</ele>
        <time>2015-06-28T15:01:52Z</time>
      </trkpt>
      <trkpt lat="47.41077" lon="6.91262">
        <ele>459</ele>
        <time>2015-06-28T15:02:12Z</time>
      </trkpt>
      <trkpt lat="47.40986" lon="6.91221">
        <ele>455</ele>
        <time>2015-06-28T15:02:32Z</time>
      </trkpt>
      <trkpt lat="47.40926" lon="6.91209">
        <ele>453</ele>
        <time>2015-06-28T15:02:52Z</time>
      </trkpt>
      <trkpt lat="47.40878" lon="6.91217">
        <ele>448</ele>
        <time>2015-06-28T15:03:12Z</time>
      </trkpt>
      <trkpt lat="47.40772" lon="6.91269">
        <ele>440</ele>
        <time>2015-06-28T15:03:32Z</time>
      </trkpt>
      <trkpt lat="47.4076" lon="6.91185">
        <ele>435</ele>
        <time>2015-06-28T15:03:52Z</time>
      </trkpt>
      <trkpt lat="47.40756" lon="6.911">
        <ele>439</ele>
        <time>2015-06-28T15:04:12Z</time>
      </trkpt>
      <trkpt lat="47.40743" lon="6.91063">
        <ele>442</ele>
        <time>2015-06-28T15:04:32Z</time>
      </trkpt>
      <trkpt lat="47.40695" lon="6.91021">
        <ele>444</ele>
        <time>2015-06-28T15:04:52Z</time>
      </trkpt>
      <trkpt lat="47.40625" lon="6.90927">
        <ele>444</ele>
        <time>2015-06-28T15:05:12Z</time>
      </trkpt>
      <trkpt lat="47.4053" lon="6.90813">
        <ele>449</ele>
        <time>2015-06-28T15:05:32Z</time>
      </trkpt>
      <trkpt lat="47.40457" lon="6.90748">
        <ele>450</ele>
        <time>2015-06-28T15:05:52Z</time>
      </trkpt>
      <trkpt lat="47.40418" lon="6.90868">
        <ele>435</ele>
        <time>2015-06-28T15:06:12Z</time>
      </trkpt>
      <trkpt lat="47.40389" lon="6.90877">
        <ele>436</ele>
        <time>2015-06-28T15:06:32Z</time>
      </trkpt>
      <trkpt lat="47.4035" lon="6.90873">
        <ele>434</ele>
        <time>2015-06-28T15:06:52Z</time>
      </trkpt>
      <trkpt lat="47.40322" lon="6.90938">
        <ele>451</ele>
        <time>2015-06-28T15:07:12Z</time>
      </trkpt>
      <trkpt lat="47.40241" lon="6.91089">
        <ele>476</ele>
        <time>2015-06-28T15:07:32Z</time>
      </trkpt>
      <trkpt lat="47.40246" lon="6.91348">
        <ele>514</ele>
        <time>2015-06-28T15:07:52Z</time>
      </trkpt>
      <trkpt lat="47.40253" lon="6.91429">
        <ele>519</ele>
        <time>2015-06-28T15:08:12Z</time>
      </trkpt>
      <trkpt lat="47.40351" lon="6.91729">
        <ele>549</ele>
        <time>2015-06-28T15:08:32Z</time>
      </trkpt>
      <trkpt lat="47.40318" lon="6.91771">
        <ele>556</ele>
        <time>2015-06-28T15:08:52Z</time>
      </trkpt>
      <trkpt lat="47.40258" lon="6.91725">
        <ele>560</ele>
        <time>2015-06-28T15:09:12Z</time>
      </trkpt>
      <trkpt lat="47.40173" lon="6.91693">
        <ele>569</ele>
        <time>2015-06-28T15:09:32Z</time>
      </trkpt>
      <trkpt lat="47.40075" lon="6.91666">
        <ele>570</ele>
        <time>2015-06-28T15:09:52Z</time>
      </trkpt>
      <trkpt lat="47.3992" lon="6.91548">
        <ele>567</ele>
        <time>2015-06-28T15:10:12Z</time>
      </trkpt>
      <trkpt lat="47.39838" lon="6.91544">
        <ele>565</ele>
        <time>2015-06-28T15:10:32Z</time>
      </trkpt>
      <trkpt lat="47.39723" lon="6.91539">
        <ele>558</ele>
        <time>2015-06-28T15:10:52Z</time>
      </trkpt>
      <trkpt lat="47.39706" lon="6.91337">
        <ele>549</ele>
        <time>2015-06-28T15:11:12Z</time>
      </trkpt>
      <trkpt lat="47.39647" lon="6.91018">
        <ele>536</ele>
        <time>2015-06-28T15:11:32Z</time>
      </trkpt>
      <trkpt lat="47.39609" lon="6.90921">
        <ele>524</ele>
        <time>2015-06-28T15:11:52Z</time>
      </trkpt>
      <trkpt lat="47.39574" lon="6.90971">
        <ele>531</ele>
        <time>2015-06-28T15:12:12Z</time>
      </trkpt>
      <trkpt lat="47.39449" lon="6.91036">
        <ele>548</ele>
        <time>2015-06-28T15:12:32Z</time>
      </trkpt>
      <trkpt lat="47.39378" lon="6.91143">
        <ele>544</ele>
        <time>2015-06-28T15:12:52Z</time>
      </trkpt>
      <trkpt lat="47.39172" lon="6.911">
        <ele>561</ele>
        <time>2015-06-28T15:13:12Z</time>
      </trkpt>
      <trkpt lat="47.39074" lon="6.91137">
        <ele>562</ele>
        <time>2015-06-28T15:13:32Z</time>
      </trkpt>
      <trkpt lat="47.39017" lon="6.91206">
        <ele>569</ele>
        <time>2015-06-28T15:13:52Z</time>
      </trkpt>
      <trkpt lat="47.38981" lon="6.91314">
        <ele>571</ele>
        <time>2015-06-28T15:14:12Z</time>
      </trkpt>
      <trkpt lat="47.38947" lon="6.91369">
        <ele>576</ele>
        <time>2015-06-28T15:14:32Z</time>
      </trkpt>
      <trkpt lat="47.38879" lon="6.91349">
        <ele>581</ele>
        <time>2015-06-28T15:14:52Z</time>
      </trkpt>
      <trkpt lat="47.38819" lon="6.91332">
        <ele>589</ele>
        <time>2015-06-28T15:15:12Z</time>
      </trkpt>
      <trkpt lat="47.38734" lon="6.91271">
        <ele>600</ele>
        <time>2015-06-28T15:15:32Z</time>
      </trkpt>
      <trkpt lat="47.38676" lon="6.91236">
        <ele>600</ele>
        <time>2015-06-28T15:15:52Z</time>
      </trkpt>
      <trkpt lat="47.38621" lon="6.9119">
        <ele>607</ele>
        <time>2015-06-28T15:16:12Z</time>
      </trkpt>
      <trkpt lat="47.38512" lon="6.91014">
        <ele>614</ele>
        <time>2015-06-28T15:16:32Z</time>
      </trkpt>
      <trkpt lat="47.38449" lon="6.90835">
        <ele>625</ele>
        <time>2015-06-28T15:16:52Z</time>
      </trkpt>
      <trkpt lat="47.38413" lon="6.90746">
        <ele>637</ele>
        <time>2015-06-28T15:17:12Z</time>
      </trkpt>
      <trkpt lat="47.38388" lon="6.90643">
        <ele>645</ele>
        <time>2015-06-28T15:17:32Z</time>
      </trkpt>
      <trkpt lat="47.38341" lon="6.90525">
        <ele>651</ele>
        <time>2015-06-28T15:17:52Z</time>
      </trkpt>
      <trkpt lat="47.38257" lon="6.90502">
        <ele>666</ele>
        <time>2015-06-28T15:18:12Z</time>
      </trkpt>
      <trkpt lat="47.38255" lon="6.90371">
        <ele>663</ele>
        <time>2015-06-28T15:18:32Z</time>
      </trkpt>
      <trkpt lat="47.3824" lon="6.90093">
        <ele>672</ele>
        <time>2015-06-28T15:18:52Z</time>
      </trkpt>
      <trkpt lat="47.38224" lon="6.89677">
        <ele>675</ele>
        <time>2015-06-28T15:19:12Z</time>
      </trkpt>
      <trkpt lat="47.38176" lon="6.89499">
        <ele>678</ele>
        <time>2015-06-28T15:19:32Z</time>
      </trkpt>
      <trkpt lat="47.37991" lon="6.89046">
        <ele>686</ele>
        <time>2015-06-28T15:19:52Z</time>
      </trkpt>
      <trkpt lat="47.37981" lon="6.89014">
        <ele>685</ele>
        <time>2015-06-28T15:20:12Z</time>
      </trkpt>
      <trkpt lat="47.37952" lon="6.88958">
        <ele>685</ele>
        <time>2015-06-28T15:20:32Z</time>
      </trkpt>
      <trkpt lat="47.37917" lon="6.88856">
        <ele>684</ele>
        <time>2015-06-28T15:20:52Z</time>
      </trkpt>
      <trkpt lat="47.37889" lon="6.88696">
        <ele>680</ele>
        <time>2015-06-28T15:21:12Z</time>
      </trkpt>
      <trkpt lat="47.37851" lon="6.88588">
        <ele>677</ele>
        <time>2015-06-28T15:21:32Z</time>
      </trkpt>
      <trkpt lat="47.37808" lon="6.88516">
        <ele>675</ele>
        <time>2015-06-28T15:21:52Z</time>
      </trkpt>
      <trkpt lat="47.37682" lon="6.88353">
        <ele>664</ele>
        <time>2015-06-28T15:22:12Z</time>
      </trkpt>
      <trkpt lat="47.37663" lon="6.88284">
        <ele>656</ele>
        <time>2015-06-28T15:22:32Z</time>
      </trkpt>
      <trkpt lat="47.37626" lon="6.88186">
        <ele>653</ele>
        <time>2015-06-28T15:22:52Z</time>
      </trkpt>
      <trkpt lat="47.37595" lon="6.88055">
        <ele>645</ele>
        <time>2015-06-28T15:23:12Z</time>
      </trkpt>
      <trkpt lat="47.37586" lon="6.87986">
        <ele>642</ele>
        <time>2015-06-28T15:23:32Z</time>
      </trkpt>
      <trkpt lat="47.37547" lon="6.87876">
        <ele>632</ele>
        <time>2015-06-28T15:23:52Z</time>
      </trkpt>
      <trkpt lat="47.37528" lon="6.878">
        <ele>629</ele>
        <time>2015-06-28T15:24:12Z</time>
      </trkpt>
      <trkpt lat="47.37524" lon="6.8774">
        <ele>627</ele>
        <time>2015-06-28T15:24:32Z</time>
      </trkpt>
      <trkpt lat="47.37535" lon="6.87684">
        <ele>625</ele>
        <time>2015-06-28T15:24:52Z</time>
      </trkpt>
      <trkpt lat="47.37447" lon="6.87577">
        <ele>614</ele>
        <time>2015-06-28T15:25:12Z</time>
      </trkpt>
      <trkpt lat="47.37407" lon="6.87562">
        <ele>610</ele>
        <time>2015-06-28T15:25:32Z</time>
      </trkpt>
      <trkpt lat="47.3737" lon="6.874">
        <ele>605</ele>
        <time>2015-06-28T15:25:52Z</time>
      </trkpt>
      <trkpt lat="47.37348" lon="6.87346">
        <ele>605</ele>
        <time>2015-06-28T15:26:12Z</time>
      </trkpt>
      <trkpt lat="47.37327" lon="6.87332">
        <ele>603</ele>
        <time>2015-06-28T15:26:32Z</time>
      </trkpt>
      <trkpt lat="47.37301" lon="6.87332">
        <ele>601</ele>
        <time>2015-06-28T15:26:52Z</time>
      </trkpt>
      <trkpt lat="47.37314" lon="6.87302">
        <ele>601</ele>
        <time>2015-06-28T15:27:12Z</time>
      </trkpt>
      <trkpt lat="47.37296" lon="6.87255">
        <ele>601</ele>
        <time>2015-06-28T15:27:32Z</time>
      </trkpt>
      <trkpt lat="47.37236" lon="6.87229">
        <ele>599</ele>
        <time>2015-06-28T15:27:52Z</time>
      </trkpt>
      <trkpt lat="47.3718" lon="6.87244">
        <ele>601</ele>
        <time>2015-06-28T15:28:12Z</time>
      </trkpt>
      <trkpt lat="47.37146" lon="6.87271">
        <ele>604</ele>
        <time>2015-06-28T15:28:32Z</time>
      </trkpt>
      <trkpt lat="47.3711" lon="6.87337">
        <ele>607</ele>
        <time>2015-06-28T15:28:52Z</time>
      </trkpt>
      <trkpt lat="47.37061" lon="6.87403">
        <ele>617</ele>
        <time>2015-06-28T15:29:12Z</time>
      </trkpt>
      <trkpt lat="47.3706" lon="6.87488">
        <ele>625</ele>
        <time>2015-06-28T15:29:32Z</time>
      </trkpt>
      <trkpt lat="47.37049" lon="6.87526">
        <ele>632</ele>
        <time>2015-06-28T15:29:52Z</time>
      </trkpt>
      <trkpt lat="47.37026" lon="6.87531">
        <ele>635</ele>
        <time>2015-06-28T15:30:12Z</time>
      </trkpt>
      <trkpt lat="47.36966" lon="6.87486">
        <ele>648</ele>
        <time>2015-06-28T15:30:32Z</time>
      </trkpt>
      <trkpt lat="47.36764" lon="6.87166">
        <ele>686</ele>
        <time>2015-06-28T15:30:52Z</time>
      </trkpt>
      <trkpt lat="47.36754" lon="6.87117">
        <ele>683</ele>
        <time>2015-06-28T15:31:12Z</time>
      </trkpt>
      <trkpt lat="47.36751" lon="6.87037">
        <ele>680</ele>
        <time>2015-06-28T15:31:32Z</time>
      </trkpt>
      <trkpt lat="47.36713" lon="6.86882">
        <ele>695</ele>
        <time>2015-06-28T15:31:52Z</time>
      </trkpt>
      <trkpt lat="47.36684" lon="6.86779">
        <ele>697</ele>
        <time>2015-06-28T15:32:12Z</time>
      </trkpt>
      <trkpt lat="47.36624" lon="6.86658">
        <ele>713</ele>
        <time>2015-06-28T15:32:32Z</time>
      </trkpt>
      <trkpt lat="47.36604" lon="6.86648">
        <ele>716</ele>
        <time>2015-06-28T15:32:52Z</time>
      </trkpt>
      <trkpt lat="47.36509" lon="6.86504">
        <ele>735</ele>
        <time>2015-06-28T15:33:12Z</time>
      </trkpt>
      <trkpt lat="47.36491" lon="6.86446">
        <ele>743</ele>
        <time>2015-06-28T15:33:32Z</time>
      </trkpt>
      <trkpt lat="47.36457" lon="6.86366">
        <ele>741</ele>
        <time>2015-06-28T15:33:52Z</time>
      </trkpt>
      <trkpt lat="47.36413" lon="6.86298">
        <ele>754</ele>
        <time>2015-06-28T15:34:12Z</time>
      </trkpt>
      <trkpt lat="47.36407" lon="6.86253">
        <ele>749</ele>
        <time>2015-06-28T15:34:32Z</time>
      </trkpt>
      <trkpt lat="47.36378" lon="6.86216">
        <ele>753</ele>
        <time>2015-06-28T15:34:52Z</time>
      </trkpt>
      <trkpt lat="47.3628" lon="6.86051">
        <ele>777</ele>
        <time>2015-06-28T15:35:12Z</time>
      </trkpt>
      <trkpt lat="47.36178" lon="6.85898">
        <ele>790</ele>
        <time>2015-06-28T15:35:32Z</time>
      </trkpt>
      <trkpt lat="47.36143" lon="6.85824">
        <ele>793</ele>
        <time>2015-06-28T15:35:52Z</time>
      </trkpt>
      <trkpt lat="47.36108" lon="6.85663">
        <ele>800</ele>
        <time>2015-06-28T15:36:12Z</time>
      </trkpt>
      <trkpt lat="47.36094" lon="6.85494">
        <ele>808</ele>
        <time>2015-06-28T15:36:32Z</time>
      </trkpt>
      <trkpt lat="47.36103" lon="6.85466">
        <ele>808</ele>
        <time>2015-06-28T15:36:52Z</time>
      </trkpt>
      <trkpt lat="47.36125" lon="6.85443">
        <ele>807</ele>
        <time>2015-06-28T15:37:12Z</time>
      </trkpt>
      <trkpt lat="47.36122" lon="6.85411">
        <ele>808</ele>
        <time>2015-06-28T15:37:32Z</time>
      </trkpt>
      <trkpt lat="47.36073" lon="6.85443">
        <ele>803</ele>
        <time>2015-06-28T15:37:52Z</time>
      </trkpt>
      <trkpt lat="47.36057" lon="6.85429">
        <ele>802</ele>
        <time>2015-06-28T15:38:12Z</time>
      </trkpt>
      <trkpt lat="47.3607" lon="6.85146">
        <ele>809</ele>
        <time>2015-06-28T15:38:32Z</time>
      </trkpt>
      <trkpt lat="47.36092" lon="6.84894">
        <ele>804</ele>
        <time>2015-06-28T15:38:52Z</time>
      </trkpt>
      <trkpt lat="47.36097" lon="6.84799">
        <ele>803</ele>
        <time>2015-06-28T15:39:12Z</time>
      </trkpt>
      <trkpt lat="47.36091" lon="6.84675">
        <ele>805</ele>
        <time>2015-06-28T15:39:32Z</time>
      </trkpt>
      <trkpt lat="47.36078" lon="6.84565">
        <ele>806</ele>
        <time>2015-06-28T15:39:52Z</time>
      </trkpt>
      <trkpt lat="47.36066" lon="6.84365">
        <ele>805</ele>
        <time>2015-06-28T15:40:12Z</time>
      </trkpt>
      <trkpt lat="47.36071" lon="6.84253">
        <ele>808</ele>
        <time>2015-06-28T15:40:32Z</time>
      </trkpt>
      <trkpt lat="47.36076" lon="6.84126">
        <ele>809</ele>
        <time>2015-06-28T15:40:52Z</time>
      </trkpt>
      <trkpt lat="47.36094" lon="6.83998">
        <ele>811</ele>
        <time>2015-06-28T15:41:12Z</time>
      </trkpt>
      <trkpt lat="47.36041" lon="6.84094">
        <ele>807</ele>
        <time>2015-06-28T15:41:32Z</time>
      </trkpt>
      <trkpt lat="47.36016" lon="6.84109">
        <ele>806</ele>
        <time>2015-06-28T15:41:52Z</time>
      </trkpt>
      <trkpt lat="47.35897" lon="6.84086">
        <ele>800</ele>
        <time>2015-06-28T15:42:12Z</time>
      </trkpt>
      <trkpt lat="47.35881" lon="6.84061">
        <ele>801</ele>
        <time>2015-06-28T15:42:32Z</time>
      </trkpt>
      <trkpt lat="47.35804" lon="6.84041">
        <ele>798</ele>
        <time>2015-06-28T15:42:52Z</time>
      </trkpt>
      <trkpt lat="47.35801" lon="6.84005">
        <ele>800</ele>
        <time>2015-06-28T15:43:12Z</time>
      </trkpt>
      <trkpt lat="47.35753" lon="6.83944">
        <ele>798</ele>
        <time>2015-06-28T15:43:32Z</time>
      </trkpt>
      <trkpt lat="47.3575" lon="6.83892">
        <ele>797</ele>
        <time>2015-06-28T15:43:52Z</time>
      </trkpt>
      <trkpt lat="47.35773" lon="6.8374">
        <ele>800</ele>
        <time>2015-06-28T15:44:12Z</time>
      </trkpt>
      <trkpt lat="47.35773" lon="6.83644">
        <ele>806</ele>
        <time>2015-06-28T15:44:32Z</time>
      </trkpt>
      <trkpt lat="47.35721" lon="6.83596">
        <ele>796</ele>
        <time>2015-06-28T15:44:52Z</time>
      </trkpt>
      <trkpt lat="47.35655" lon="6.83427">
        <ele>787</ele>
        <time>2015-06-28T15:45:12Z</time>
      </trkpt>
      <trkpt lat="47.35601" lon="6.83233">
        <ele>785</ele>
        <time>2015-06-28T15:45:32Z</time>
      </trkpt>
      <trkpt lat="47.35573" lon="6.83331">
        <ele>778</ele>
        <time>2015-06-28T15:45:52Z</time>
      </trkpt>
      <trkpt lat="47.35546" lon="6.83381">
        <ele>775</ele>
        <time>2015-06-28T15:46:12Z</time>
      </trkpt>
      <trkpt lat="47.35526" lon="6.83536">
        <ele>772</ele>
        <time>2015-06-28T15:46:32Z</time>
      </trkpt>
      <trkpt lat="47.35485" lon="6.83629">
        <ele>777</ele>
        <time>2015-06-28T15:46:52Z</time>
      </trkpt>
      <trkpt lat="47.35434" lon="6.8364">
        <ele>778</ele>
        <time>2015-06-28T15:47:12Z</time>
      </trkpt>
      <trkpt lat="47.35405" lon="6.83681">
        <ele>779</ele>
        <time>2015-06-28T15:47:32Z</time>
      </trkpt>
      <trkpt lat="47.35387" lon="6.83708">
        <ele>777</ele>
        <time>2015-06-28T15:47:52Z</time>
      </trkpt>
      <trkpt lat="47.35395" lon="6.83788">
        <ele>774</ele>
        <time>2015-06-28T15:48:12Z</time>
      </trkpt>
      <trkpt lat="47.3532" lon="6.8381">
        <ele>765</ele>
        <time>2015-06-28T15:48:32Z</time>
      </trkpt>
      <trkpt lat="47.35227" lon="6.83659">
        <ele>755</ele>
        <time>2015-06-28T15:48:52Z</time>
      </trkpt>
      <trkpt lat="47.35182" lon="6.8354">
        <ele>753</ele>
        <time>2015-06-28T15:49:12Z</time>
      </trkpt>
      <trkpt lat="47.35115" lon="6.8332">
        <ele>740</ele>
        <time>2015-06-28T15:49:32Z</time>
      </trkpt>
      <trkpt lat="47.35065" lon="6.83196">
        <ele>728</ele>
        <time>2015-06-28T15:49:52Z</time>
      </trkpt>
      <trkpt lat="47.35033" lon="6.8314">
        <ele>723</ele>
        <time>2015-06-28T15:50:12Z</time>
      </trkpt>
      <trkpt lat="47.35019" lon="6.83094">
        <ele>720</ele>
        <time>2015-06-28T15:50:32Z</time>
      </trkpt>
      <trkpt lat="47.34988" lon="6.83105">
        <ele>713</ele>
        <time>2015-06-28T15:50:52Z</time>
      </trkpt>
      <trkpt lat="47.34974" lon="6.83128">
        <ele>711</ele>
        <time>2015-06-28T15:51:12Z</time>
      </trkpt>
      <trkpt lat="47.34953" lon="6.83118">
        <ele>709</ele>
        <time>2015-06-28T15:51:32Z</time>
      </trkpt>
      <trkpt lat="47.34928" lon="6.83069">
        <ele>707</ele>
        <time>2015-06-28T15:51:52Z</time>
      </trkpt>
      <trkpt lat="47.34887" lon="6.83085">
        <ele>697</ele>
        <time>2015-06-28T15:52:12Z</time>
      </trkpt>
      <trkpt lat="47.34839" lon="6.83075">
        <ele>693</ele>
        <time>2015-06-28T15:52:32Z</time>
      </trkpt>
      <trkpt lat="47.34811" lon="6.83074">
        <ele>689</ele>
        <time>2015-06-28T15:52:52Z</time>
      </trkpt>
      <trkpt lat="47.34775" lon="6.8306">
        <ele>687</ele>
        <time>2015-06-28T15:53:12Z</time>
      </trkpt>
      <trkpt lat="47.34725" lon="6.83073">
        <ele>682</ele>
        <time>2015-06-28T15:53:32Z</time>
      </trkpt>
      <trkpt lat="47.34714" lon="6.8298">
        <ele>688</ele>
        <time>2015-06-28T15:53:52Z</time>
      </trkpt>
      <trkpt lat="47.34678" lon="6.82859">
        <ele>691</ele>
        <time>2015-06-28T15:54:12Z</time>
      </trkpt>
      <trkpt lat="47.34666" lon="6.8279">
        <ele>689</ele>
        <time>2015-06-28T15:54:32Z</time>
      </trkpt>
      <trkpt lat="47.34562" lon="6.82659">
        <ele>684</ele>
        <time>2015-06-28T15:54:52Z</time>
      </trkpt>
      <trkpt lat="47.3452" lon="6.82619">
        <ele>683</ele>
        <time>2015-06-28T15:55:12Z</time>
      </trkpt>
      <trkpt lat="47.34404" lon="6.82555">
        <ele>675</ele>
        <time>2015-06-28T15:55:32Z</time>
      </trkpt>
      <trkpt lat="47.34342" lon="6.82491">
        <ele>675</ele>
        <time>2015-06-28T15:55:52Z</time>
      </trkpt>
      <trkpt lat="47.34294" lon="6.82454">
        <ele>674</ele>
        <time>2015-06-28T15:56:12Z</time>
      </trkpt>
      <trkpt lat="47.34181" lon="6.82265">
        <ele>672</ele>
        <time>2015-06-28T15:56:32Z</time>
      </trkpt>
      <trkpt lat="47.34101" lon="6.82187">
        <ele>670</ele>
        <time>2015-06-28T15:56:52Z</time>
      </trkpt>
      <trkpt lat="47.34021" lon="6.82091">
        <ele>669</ele>
        <time>2015-06-28T15:57:12Z</time>
      </trkpt>
      <trkpt lat="47.33934" lon="6.82027">
        <ele>670</ele>
        <time>2015-06-28T15:57:32Z</time>
      </trkpt>
      <trkpt lat="47.33902" lon="6.81994">
        <ele>669</ele>
        <time>2015-06-28T15:57:52Z</time>
      </trkpt>
      <trkpt lat="47.33876" lon="6.81946">
        <ele>668</ele>
        <time>2015-06-28T15:58:12Z</time>
      </trkpt>
      <trkpt lat="47.33668" lon="6.81775">
        <ele>651</ele>
        <time>2015-06-28T15:58:32Z</time>
      </trkpt>
      <trkpt lat="47.33578" lon="6.81677">
        <ele>644</ele>
        <time>2015-06-28T15:58:52Z</time>
      </trkpt>
      <trkpt lat="47.33544" lon="6.81701">
        <ele>640</ele>
        <time>2015-06-28T15:59:12Z</time>
      </trkpt>
      <trkpt lat="47.33492" lon="6.81778">
        <ele>631</ele>
        <time>2015-06-28T15:59:32Z</time>
      </trkpt>
      <trkpt lat="47.33459" lon="6.8179">
        <ele>630</ele>
        <time>2015-06-28T15:59:52Z</time>
      </trkpt>
      <trkpt lat="47.33325" lon="6.8179">
        <ele>613</ele>
        <time>2015-06-28T16:00:12Z</time>
      </trkpt>
      <trkpt lat="47.33186" lon="6.81763">
        <ele>606</ele>
        <time>2015-06-28T16:00:32Z</time>
      </trkpt>
      <trkpt lat="47.33125" lon="6.81701">
        <ele>575</ele>
        <time>2015-06-28T16:00:52Z</time>
      </trkpt>
      <trkpt lat="47.33112" lon="6.8169">
        <ele>573</ele>
        <time>2015-06-28T16:01:12Z</time>
      </trkpt>
      <trkpt lat="47.33088" lon="6.81693">
        <ele>571</ele>
        <time>2015-06-28T16:01:32Z</time>
      </trkpt>
      <trkpt lat="47.33047" lon="6.81743">
        <ele>573</ele>
        <time>2015-06-28T16:01:52Z</time>
      </trkpt>
      <trkpt lat="47.33024" lon="6.81731">
        <ele>571</ele>
        <time>2015-06-28T16:02:12Z</time>
      </trkpt>
      <trkpt lat="47.33019" lon="6.81676">
        <ele>565</ele>
        <time>2015-06-28T16:02:32Z</time>
      </trkpt>
      <trkpt lat="47.33027" lon="6.81645">
        <ele>551</ele>
        <time>2015-06-28T16:02:52Z</time>
      </trkpt>
      <trkpt lat="47.33061" lon="6.81657">
        <ele>552</ele>
        <time>2015-06-28T16:03:12Z</time>
      </trkpt>
      <trkpt lat="47.33082" lon="6.81622">
        <ele>547</ele>
        <time>2015-06-28T16:03:32Z</time>
      </trkpt>
      <trkpt lat="47.3315" lon="6.81589">
        <ele>545</ele>
        <time>2015-06-28T16:03:52Z</time>
      </trkpt>
      <trkpt lat="47.33154" lon="6.81571">
        <ele>536</ele>
        <time>2015-06-28T16:04:12Z</time>
      </trkpt>
      <trkpt lat="47.33133" lon="6.81544">
        <ele>531</ele>
        <time>2015-06-28T16:04:32Z</time>
      </trkpt>
      <trkpt lat="47.33098" lon="6.8153">
        <ele>527</ele>
        <time>2015-06-28T16:04:52Z</time>
      </trkpt>
      <trkpt lat="47.33025" lon="6.81528">
        <ele>520</ele>
        <time>2015-06-28T16:05:12Z</time>
      </trkpt>
      <trkpt lat="47.32979" lon="6.81503">
        <ele>505</ele>
        <time>2015-06-28T16:05:32Z</time>
      </trkpt>
      <trkpt lat="47.32933" lon="6.81513">
        <ele>497</ele>
        <time>2015-06-28T16:05:52Z</time>
      </trkpt>
      <trkpt lat="47.32902" lon="6.81547">
        <ele>493</ele>
        <time>2015-06-28T16:06:12Z</time>
      </trkpt>
      <trkpt lat="47.32871" lon="6.81536">
        <ele>489</ele>
        <time>2015-06-28T16:06:32Z</time>
      </trkpt>
      <trkpt lat="47.32829" lon="6.81479">
        <ele>470</ele>
        <time>2015-06-28T16:06:52Z</time>
      </trkpt>
      <trkpt lat="47.32781" lon="6.81455">
        <ele>465</ele>
        <time>2015-06-28T16:07:12Z</time>
      </trkpt>
      <trkpt lat="47.32723" lon="6.8143">
        <ele>454</ele>
        <time>2015-06-28T16:07:32Z</time>
      </trkpt>
      <trkpt lat="47.32656" lon="6.81457">
        <ele>441</ele>
        <time>2015-06-28T16:07:52Z</time>
      </trkpt>
      <trkpt lat="47.32629" lon="6.81511">
        <ele>450</ele>
        <time>2015-06-28T16:08:12Z</time>
      </trkpt>
      <trkpt lat="47.32543" lon="6.81513">
        <ele>436</ele>
        <time>2015-06-28T16:08:32Z</time>
      </trkpt>
      <trkpt lat="47.32451" lon="6.81435">
        <ele>416</ele>
        <time>2015-06-28T16:08:52Z</time>
      </trkpt>
      <trkpt lat="47.32318" lon="6.81383">
        <ele>394</ele>
        <time>2015-06-28T16:09:12Z</time>
      </trkpt>
      <trkpt lat="47.32274" lon="6.81383">
        <ele>392</ele>
        <time>2015-06-28T16:09:32Z</time>
      </trkpt>
      <trkpt lat="47.32233" lon="6.81413">
        <ele>390</ele>
        <time>2015-06-28T16:09:52Z</time>
      </trkpt>
      <trkpt lat="47.32155" lon="6.81511">
        <ele>391</ele>
        <time>2015-06-28T16:10:12Z</time>
      </trkpt>
      <trkpt lat="47.32108" lon="6.81549">
        <ele>390</ele>
        <time>2015-06-28T16:10:32Z</time>
      </trkpt>
      <trkpt lat="47.32128" lon="6.81584">
        <ele>396</ele>
        <time>2015-06-28T16:10:52Z</time>
      </trkpt>
      <trkpt lat="47.3213" lon="6.81732">
        <ele>396</ele>
        <time>2015-06-28T16:11:12Z</time>
      </trkpt>
      <trkpt lat="47.32158" lon="6.8187">
        <ele>388</ele>
        <time>2015-06-28T16:11:32Z</time>
      </trkpt>
      <trkpt lat="47.32177" lon="6.81923">
        <ele>391</ele>
        <time>2015-06-28T16:11:52Z</time>
      </trkpt>
      <trkpt lat="47.32208" lon="6.8197">
        <ele>395</ele>
        <time>2015-06-28T16:12:12Z</time>
      </trkpt>
      <trkpt lat="47.32241" lon="6.82058">
        <ele>388</ele>
        <time>2015-06-28T16:12:32Z</time>
      </trkpt>
      <trkpt lat="47.32277" lon="6.82061">
        <ele>405</ele>
        <time>2015-06-28T16:12:52Z</time>
      </trkpt>
      <trkpt lat="47.32306" lon="6.82132">
        <ele>402</ele>
        <time>2015-06-28T16:13:12Z</time>
      </trkpt>
      <trkpt lat="47.32338" lon="6.82149">
        <ele>420</ele>
        <time>2015-06-28T16:13:32Z</time>
      </trkpt>
      <trkpt lat="47.32417" lon="6.82242">
        <ele>445</ele>
        <time>2015-06-28T16:13:52Z</time>
      </trkpt>
      <trkpt lat="47.32445" lon="6.82368">
        <ele>454</ele>
        <time>2015-06-28T16:14:12Z</time>
      </trkpt>
      <trkpt lat="47.32446" lon="6.82442">
        <ele>448</ele>
        <time>2015-06-28T16:14:32Z</time>
      </trkpt>
      <trkpt lat="47.32484" lon="6.82532">
        <ele>445</ele>
        <time>2015-06-28T16:14:52Z</time>
      </trkpt>
      <trkpt lat="47.32528" lon="6.82703">
        <ele>446</ele>
        <time>2015-06-28T16:15:12Z</time>
      </trkpt>
      <trkpt lat="47.3255" lon="6.82748">
        <ele>449</ele>
        <time>2015-06-28T16:15:32Z</time>
      </trkpt>
      <trkpt lat="47.32574" lon="6.82781">
        <ele>441</ele>
        <time>2015-06-28T16:15:52Z</time>
      </trkpt>
      <trkpt lat="47.32648" lon="6.8313">
        <ele>442</ele>
        <time>2015-06-28T16:16:12Z</time>
      </trkpt>
      <trkpt lat="47.32679" lon="6.83234">
        <ele>463</ele>
        <time>2015-06-28T16:16:32Z</time>
      </trkpt>
      <trkpt lat="47.32738" lon="6.83324">
        <ele>471</ele>
        <time>2015-06-28T16:16:52Z</time>
      </trkpt>
      <trkpt lat="47.32809" lon="6.8341">
        <ele>491</ele>
        <time>2015-06-28T16:17:12Z</time>
      </trkpt>
      <trkpt lat="47.32802" lon="6.83501">
        <ele>485</ele>
        <time>2015-06-28T16:17:32Z</time>
      </trkpt>
      <trkpt lat="47.32803" lon="6.83576">
        <ele>485</ele>
        <time>2015-06-28T16:17:52Z</time>
      </trkpt>
      <trkpt lat="47.32811" lon="6.83618">
        <ele>485</ele>
        <time>2015-06-28T16:18:12Z</time>
      </trkpt>
      <trkpt lat="47.32816" lon="6.8368">
        <ele>485</ele>
        <time>2015-06-28T16:18:32Z</time>
      </trkpt>
      <trkpt lat="47.32836" lon="6.83731">
        <ele>495</ele>
        <time>2015-06-28T16:18:52Z</time>
      </trkpt>
      <trkpt lat="47.32851" lon="6.83782">
        <ele>494</ele>
        <time>2015-06-28T16:19:12Z</time>
      </trkpt>
      <trkpt lat="47.32883" lon="6.83846">
        <ele>494</ele>
        <time>2015-06-28T16:19:32Z</time>
      </trkpt>
      <trkpt lat="47.32894" lon="6.83928">
        <ele>496</ele>
        <time>2015-06-28T16:19:52Z</time>
      </trkpt>
      <trkpt lat="47.32894" lon="6.83962">
        <ele>496</ele>
        <time>2015-06-28T16:20:12Z</time>
      </trkpt>
      <trkpt lat="47.32861" lon="6.83973">
        <ele>493</ele>
        <time>2015-06-28T16:20:32Z</time>
      </trkpt>
      <trkpt lat="47.3279" lon="6.84018">
        <ele>479</ele>
        <time>2015-06-28T16:20:52Z</time>
      </trkpt>
      <trkpt lat="47.32752" lon="6.84025">
        <ele>475</ele>
        <time>2015-06-28T16:21:12Z</time>
      </trkpt>
      <trkpt lat="47.32726" lon="6.84051">
        <ele>457</ele>
        <time>2015-06-28T16:21:32Z</time>
      </trkpt>
      <trkpt lat="47.32714" lon="6.84123">
        <ele>455</ele>
        <time>2015-06-28T16:21:52Z</time>
      </trkpt>
      <trkpt lat="47.32675" lon="6.84254">
        <ele>448</ele>
        <time>2015-06-28T16:22:12Z</time>
      </trkpt>
      <trkpt lat="47.32653" lon="6.84282">
        <ele>435</ele>
        <time>2015-06-28T16:22:32Z</time>
      </trkpt>
      <trkpt lat="47.32653" lon="6.84325">
        <ele>438</ele>
        <time>2015-06-28T16:22:52Z</time>
      </trkpt>
      <trkpt lat="47.32699" lon="6.84362">
        <ele>450</ele>
        <time>2015-06-28T16:23:12Z</time>
      </trkpt>
      <trkpt lat="47.32696" lon="6.84401">
        <ele>448</ele>
        <time>2015-06-28T16:23:32Z</time>
      </trkpt>
      <trkpt lat="47.32611" lon="6.84509">
        <ele>430</ele>
        <time>2015-06-28T16:23:52Z</time>
      </trkpt>
      <trkpt lat="47.3256" lon="6.84597">
        <ele>413</ele>
        <time>2015-06-28T16:24:12Z</time>
      </trkpt>
      <trkpt lat="47.32504" lon="6.84651">
        <ele>403</ele>
        <time>2015-06-28T16:24:32Z</time>
      </trkpt>
      <trkpt lat="47.32475" lon="6.84784">
        <ele>402</ele>
        <time>2015-06-28T16:24:52Z</time>
      </trkpt>
      <trkpt lat="47.32437" lon="6.84871">
        <ele>412</ele>
        <time>2015-06-28T16:25:12Z</time>
      </trkpt>
      <trkpt lat="47.32381" lon="6.84894">
        <ele>398</ele>
        <time>2015-06-28T16:25:32Z</time>
      </trkpt>
      <trkpt lat="47.3235" lon="6.84979">
        <ele>400</ele>
        <time>2015-06-28T16:25:52Z</time>
      </trkpt>
      <trkpt lat="47.32322" lon="6.85087">
        <ele>393</ele>
        <time>2015-06-28T16:26:12Z</time>
      </trkpt>
      <trkpt lat="47.32331" lon="6.85233">
        <ele>391</ele>
        <time>2015-06-28T16:26:32Z</time>
      </trkpt>
      <trkpt lat="47.32402" lon="6.85375">
        <ele>393</ele>
        <time>2015-06-28T16:26:52Z</time>
      </trkpt>
      <trkpt lat="47.3249" lon="6.85454">
        <ele>396</ele>
        <time>2015-06-28T16:27:12Z</time>
      </trkpt>
      <trkpt lat="47.32541" lon="6.85528">
        <ele>404</ele>
        <time>2015-06-28T16:27:32Z</time>
      </trkpt>
      <trkpt lat="47.32562" lon="6.85668">
        <ele>397</ele>
        <time>2015-06-28T16:27:52Z</time>
      </trkpt>
      <trkpt lat="47.3258" lon="6.85731">
        <ele>394</ele>
        <time>2015-06-28T16:28:12Z</time>
      </trkpt>
      <trkpt lat="47.3264" lon="6.85822">
        <ele>407</ele>
        <time>2015-06-28T16:28:32Z</time>
      </trkpt>
      <trkpt lat="47.32573" lon="6.85884">
        <ele>386</ele>
        <time>2015-06-28T16:28:52Z</time>
      </trkpt>
      <trkpt lat="47.32581" lon="6.85929">
        <ele>385</ele>
        <time>2015-06-28T16:29:12Z</time>
      </trkpt>
      <trkpt lat="47.32557" lon="6.85949">
        <ele>386</ele>
        <time>2015-06-28T16:29:32Z</time>
      </trkpt>
    </trkseg>
  </trk>
</gpx>